<?xml version="1.0" encoding="UTF-8" standalone="no" ?>
<gpx xmlns="http://www.topografix.com/GPX/1/1" xmlns:xsi="http://www.w3.org/2001/XMLSchema-instance" xsi:schemaLocation="http://www.topografix.com/GPX/1/1 http://www.topografix.com/GPX/1/1/gpx.xsd" version="1.1" creator="VisuGPX - https://www.visugpx.com">
  <metadata>
    <name>5 mai 2019</name>
  </metadata>
  <trk>
    <name><![CDATA[2019-05-05 15:04:43]]></name>
    <trkseg>
      <trkpt lat="48.7872" lon="2.26151">
        <ele>135.2</ele>
        <time>2019-05-05T07:11:03Z</time>
      </trkpt>
      <trkpt lat="44.30423" lon="9.20759">
        <ele>135.2</ele>
        <time>2019-05-05T07:11:04Z</time>
      </trkpt>
      <trkpt lat="44.30418" lon="9.20753">
        <ele>19.84</ele>
        <time>2019-05-05T07:11:07Z</time>
      </trkpt>
      <trkpt lat="44.30418" lon="9.20752">
        <ele>19.84</ele>
        <time>2019-05-05T07:11:08Z</time>
      </trkpt>
      <trkpt lat="44.30417" lon="9.20754">
        <ele>19.84</ele>
        <time>2019-05-05T07:11:12Z</time>
      </trkpt>
      <trkpt lat="44.30411" lon="9.20755">
        <ele>18.88</ele>
        <time>2019-05-05T07:11:17Z</time>
      </trkpt>
      <trkpt lat="44.30403" lon="9.20759">
        <ele>16.96</ele>
        <time>2019-05-05T07:11:25Z</time>
      </trkpt>
      <trkpt lat="44.30402" lon="9.20759">
        <ele>16.48</ele>
        <time>2019-05-05T07:11:26Z</time>
      </trkpt>
      <trkpt lat="44.30398" lon="9.20773">
        <ele>16</ele>
        <time>2019-05-05T07:11:43Z</time>
      </trkpt>
      <trkpt lat="44.3039" lon="9.20788">
        <ele>15.04</ele>
        <time>2019-05-05T07:11:59Z</time>
      </trkpt>
      <trkpt lat="44.30383" lon="9.20796">
        <ele>14.56</ele>
        <time>2019-05-05T07:12:09Z</time>
      </trkpt>
      <trkpt lat="44.30379" lon="9.20799">
        <ele>13.6</ele>
        <time>2019-05-05T07:12:14Z</time>
      </trkpt>
      <trkpt lat="44.30368" lon="9.20807">
        <ele>12.63</ele>
        <time>2019-05-05T07:12:30Z</time>
      </trkpt>
      <trkpt lat="44.30359" lon="9.20821">
        <ele>12.15</ele>
        <time>2019-05-05T07:12:46Z</time>
      </trkpt>
      <trkpt lat="44.30357" lon="9.20826">
        <ele>11.67</ele>
        <time>2019-05-05T07:13:01Z</time>
      </trkpt>
      <trkpt lat="44.30365" lon="9.2083">
        <ele>11.67</ele>
        <time>2019-05-05T07:13:22Z</time>
      </trkpt>
      <trkpt lat="44.30363" lon="9.2083">
        <ele>11.67</ele>
        <time>2019-05-05T07:13:52Z</time>
      </trkpt>
      <trkpt lat="44.3036" lon="9.20831">
        <ele>11.67</ele>
        <time>2019-05-05T07:14:13Z</time>
      </trkpt>
      <trkpt lat="44.30353" lon="9.20835">
        <ele>11.19</ele>
        <time>2019-05-05T07:14:28Z</time>
      </trkpt>
      <trkpt lat="44.30355" lon="9.20834">
        <ele>11.19</ele>
        <time>2019-05-05T07:14:42Z</time>
      </trkpt>
      <trkpt lat="44.30358" lon="9.20823">
        <ele>11.19</ele>
        <time>2019-05-05T07:15:11Z</time>
      </trkpt>
      <trkpt lat="44.30353" lon="9.20844">
        <ele>9.27</ele>
        <time>2019-05-05T07:15:53Z</time>
      </trkpt>
      <trkpt lat="44.30353" lon="9.20845">
        <ele>9.27</ele>
        <time>2019-05-05T07:15:54Z</time>
      </trkpt>
      <trkpt lat="44.30345" lon="9.20846">
        <ele>8.31</ele>
        <time>2019-05-05T07:16:02Z</time>
      </trkpt>
      <trkpt lat="44.30337" lon="9.20855">
        <ele>7.83</ele>
        <time>2019-05-05T07:16:18Z</time>
      </trkpt>
      <trkpt lat="44.30336" lon="9.20866">
        <ele>6.87</ele>
        <time>2019-05-05T07:16:33Z</time>
      </trkpt>
      <trkpt lat="44.30329" lon="9.20868">
        <ele>6.39</ele>
        <time>2019-05-05T07:16:42Z</time>
      </trkpt>
      <trkpt lat="44.30326" lon="9.20884">
        <ele>6.39</ele>
        <time>2019-05-05T07:17:00Z</time>
      </trkpt>
      <trkpt lat="44.30321" lon="9.20897">
        <ele>5.42</ele>
        <time>2019-05-05T07:17:16Z</time>
      </trkpt>
      <trkpt lat="44.30317" lon="9.20905">
        <ele>5.42</ele>
        <time>2019-05-05T07:17:29Z</time>
      </trkpt>
      <trkpt lat="44.30308" lon="9.20932">
        <ele>4.46</ele>
        <time>2019-05-05T07:17:49Z</time>
      </trkpt>
      <trkpt lat="44.30304" lon="9.20949">
        <ele>4.46</ele>
        <time>2019-05-05T07:18:04Z</time>
      </trkpt>
      <trkpt lat="44.303" lon="9.20959">
        <ele>4.46</ele>
        <time>2019-05-05T07:18:14Z</time>
      </trkpt>
      <trkpt lat="44.30295" lon="9.20958">
        <ele>3.98</ele>
        <time>2019-05-05T07:18:23Z</time>
      </trkpt>
      <trkpt lat="44.30293" lon="9.20959">
        <ele>3.98</ele>
        <time>2019-05-05T07:18:25Z</time>
      </trkpt>
      <trkpt lat="44.30289" lon="9.20966">
        <ele>3.5</ele>
        <time>2019-05-05T07:18:43Z</time>
      </trkpt>
      <trkpt lat="44.3029" lon="9.20972">
        <ele>3.02</ele>
        <time>2019-05-05T07:19:00Z</time>
      </trkpt>
      <trkpt lat="44.30295" lon="9.20979">
        <ele>3.02</ele>
        <time>2019-05-05T07:19:18Z</time>
      </trkpt>
      <trkpt lat="44.30291" lon="9.20978">
        <ele>3.02</ele>
        <time>2019-05-05T07:19:43Z</time>
      </trkpt>
      <trkpt lat="44.30286" lon="9.20971">
        <ele>3.02</ele>
        <time>2019-05-05T07:20:01Z</time>
      </trkpt>
      <trkpt lat="44.30279" lon="9.20963">
        <ele>3.02</ele>
        <time>2019-05-05T07:20:14Z</time>
      </trkpt>
      <trkpt lat="44.30279" lon="9.20961">
        <ele>4.46</ele>
        <time>2019-05-05T07:20:18Z</time>
      </trkpt>
      <trkpt lat="44.30264" lon="9.20959">
        <ele>6.87</ele>
        <time>2019-05-05T07:20:37Z</time>
      </trkpt>
      <trkpt lat="44.30254" lon="9.20969">
        <ele>10.23</ele>
        <time>2019-05-05T07:20:54Z</time>
      </trkpt>
      <trkpt lat="44.30248" lon="9.20981">
        <ele>12.63</ele>
        <time>2019-05-05T07:21:13Z</time>
      </trkpt>
      <trkpt lat="44.3024" lon="9.20996">
        <ele>15.04</ele>
        <time>2019-05-05T07:21:26Z</time>
      </trkpt>
      <trkpt lat="44.30236" lon="9.21006">
        <ele>16</ele>
        <time>2019-05-05T07:21:36Z</time>
      </trkpt>
      <trkpt lat="44.30233" lon="9.21007">
        <ele>16.48</ele>
        <time>2019-05-05T07:21:38Z</time>
      </trkpt>
      <trkpt lat="44.30228" lon="9.21014">
        <ele>16.48</ele>
        <time>2019-05-05T07:21:44Z</time>
      </trkpt>
      <trkpt lat="44.30229" lon="9.21034">
        <ele>16.48</ele>
        <time>2019-05-05T07:22:04Z</time>
      </trkpt>
      <trkpt lat="44.3023" lon="9.21036">
        <ele>16.48</ele>
        <time>2019-05-05T07:22:19Z</time>
      </trkpt>
      <trkpt lat="44.30223" lon="9.21039">
        <ele>16.48</ele>
        <time>2019-05-05T07:22:37Z</time>
      </trkpt>
      <trkpt lat="44.30216" lon="9.21032">
        <ele>15.04</ele>
        <time>2019-05-05T07:22:56Z</time>
      </trkpt>
      <trkpt lat="44.30214" lon="9.21032">
        <ele>15.04</ele>
        <time>2019-05-05T07:23:14Z</time>
      </trkpt>
      <trkpt lat="44.30207" lon="9.21032">
        <ele>16.48</ele>
        <time>2019-05-05T07:23:22Z</time>
      </trkpt>
      <trkpt lat="44.30196" lon="9.21036">
        <ele>17.44</ele>
        <time>2019-05-05T07:23:40Z</time>
      </trkpt>
      <trkpt lat="44.30184" lon="9.21043">
        <ele>20.32</ele>
        <time>2019-05-05T07:23:57Z</time>
      </trkpt>
      <trkpt lat="44.30171" lon="9.21054">
        <ele>22.25</ele>
        <time>2019-05-05T07:24:13Z</time>
      </trkpt>
      <trkpt lat="44.30162" lon="9.21063">
        <ele>24.17</ele>
        <time>2019-05-05T07:24:28Z</time>
      </trkpt>
      <trkpt lat="44.30152" lon="9.21081">
        <ele>25.61</ele>
        <time>2019-05-05T07:24:46Z</time>
      </trkpt>
      <trkpt lat="44.30144" lon="9.21099">
        <ele>27.05</ele>
        <time>2019-05-05T07:25:01Z</time>
      </trkpt>
      <trkpt lat="44.30146" lon="9.21103">
        <ele>28.02</ele>
        <time>2019-05-05T07:25:12Z</time>
      </trkpt>
      <trkpt lat="44.30146" lon="9.21115">
        <ele>29.46</ele>
        <time>2019-05-05T07:25:30Z</time>
      </trkpt>
      <trkpt lat="44.3015" lon="9.21129">
        <ele>30.9</ele>
        <time>2019-05-05T07:25:45Z</time>
      </trkpt>
      <trkpt lat="44.30156" lon="9.21134">
        <ele>30.9</ele>
        <time>2019-05-05T07:26:04Z</time>
      </trkpt>
      <trkpt lat="44.30154" lon="9.21129">
        <ele>30.9</ele>
        <time>2019-05-05T07:26:27Z</time>
      </trkpt>
      <trkpt lat="44.3015" lon="9.21134">
        <ele>31.38</ele>
        <time>2019-05-05T07:26:53Z</time>
      </trkpt>
      <trkpt lat="44.30149" lon="9.21131">
        <ele>31.38</ele>
        <time>2019-05-05T07:27:19Z</time>
      </trkpt>
      <trkpt lat="44.30149" lon="9.21129">
        <ele>30.9</ele>
        <time>2019-05-05T07:27:47Z</time>
      </trkpt>
      <trkpt lat="44.30151" lon="9.21131">
        <ele>31.86</ele>
        <time>2019-05-05T07:28:09Z</time>
      </trkpt>
      <trkpt lat="44.30157" lon="9.21132">
        <ele>31.86</ele>
        <time>2019-05-05T07:28:37Z</time>
      </trkpt>
      <trkpt lat="44.30157" lon="9.21135">
        <ele>31.86</ele>
        <time>2019-05-05T07:29:05Z</time>
      </trkpt>
      <trkpt lat="44.30152" lon="9.21132">
        <ele>31.86</ele>
        <time>2019-05-05T07:29:37Z</time>
      </trkpt>
      <trkpt lat="44.30157" lon="9.21134">
        <ele>32.34</ele>
        <time>2019-05-05T07:30:05Z</time>
      </trkpt>
      <trkpt lat="44.30155" lon="9.21129">
        <ele>32.34</ele>
        <time>2019-05-05T07:30:36Z</time>
      </trkpt>
      <trkpt lat="44.3016" lon="9.21133">
        <ele>32.34</ele>
        <time>2019-05-05T07:31:10Z</time>
      </trkpt>
      <trkpt lat="44.30155" lon="9.21134">
        <ele>32.34</ele>
        <time>2019-05-05T07:31:45Z</time>
      </trkpt>
      <trkpt lat="44.30153" lon="9.21138">
        <ele>32.34</ele>
        <time>2019-05-05T07:32:07Z</time>
      </trkpt>
      <trkpt lat="44.30149" lon="9.21127">
        <ele>32.34</ele>
        <time>2019-05-05T07:32:33Z</time>
      </trkpt>
      <trkpt lat="44.30125" lon="9.21125">
        <ele>32.34</ele>
        <time>2019-05-05T07:32:46Z</time>
      </trkpt>
      <trkpt lat="44.30131" lon="9.21136">
        <ele>32.34</ele>
        <time>2019-05-05T07:33:01Z</time>
      </trkpt>
      <trkpt lat="44.30137" lon="9.21142">
        <ele>32.34</ele>
        <time>2019-05-05T07:33:23Z</time>
      </trkpt>
      <trkpt lat="44.30137" lon="9.21132">
        <ele>32.34</ele>
        <time>2019-05-05T07:33:39Z</time>
      </trkpt>
      <trkpt lat="44.30134" lon="9.21128">
        <ele>30.9</ele>
        <time>2019-05-05T07:33:43Z</time>
      </trkpt>
      <trkpt lat="44.30132" lon="9.21126">
        <ele>30.9</ele>
        <time>2019-05-05T07:34:00Z</time>
      </trkpt>
      <trkpt lat="44.30132" lon="9.21125">
        <ele>30.9</ele>
        <time>2019-05-05T07:34:25Z</time>
      </trkpt>
      <trkpt lat="44.30133" lon="9.21127">
        <ele>30.9</ele>
        <time>2019-05-05T07:34:32Z</time>
      </trkpt>
      <trkpt lat="44.30132" lon="9.21124">
        <ele>30.9</ele>
        <time>2019-05-05T07:34:34Z</time>
      </trkpt>
      <trkpt lat="44.30132" lon="9.21114">
        <ele>30.9</ele>
        <time>2019-05-05T07:34:45Z</time>
      </trkpt>
      <trkpt lat="44.30125" lon="9.211">
        <ele>31.86</ele>
        <time>2019-05-05T07:35:01Z</time>
      </trkpt>
      <trkpt lat="44.30127" lon="9.21106">
        <ele>31.86</ele>
        <time>2019-05-05T07:35:17Z</time>
      </trkpt>
      <trkpt lat="44.30128" lon="9.21108">
        <ele>31.86</ele>
        <time>2019-05-05T07:35:31Z</time>
      </trkpt>
      <trkpt lat="44.30127" lon="9.21109">
        <ele>31.86</ele>
        <time>2019-05-05T07:35:56Z</time>
      </trkpt>
      <trkpt lat="44.30131" lon="9.21109">
        <ele>31.86</ele>
        <time>2019-05-05T07:36:18Z</time>
      </trkpt>
      <trkpt lat="44.30134" lon="9.21109">
        <ele>30.42</ele>
        <time>2019-05-05T07:36:26Z</time>
      </trkpt>
      <trkpt lat="44.30138" lon="9.21119">
        <ele>29.94</ele>
        <time>2019-05-05T07:36:41Z</time>
      </trkpt>
      <trkpt lat="44.30147" lon="9.21118">
        <ele>29.46</ele>
        <time>2019-05-05T07:36:56Z</time>
      </trkpt>
      <trkpt lat="44.30152" lon="9.21099">
        <ele>27.05</ele>
        <time>2019-05-05T07:37:12Z</time>
      </trkpt>
      <trkpt lat="44.30156" lon="9.21085">
        <ele>25.13</ele>
        <time>2019-05-05T07:37:28Z</time>
      </trkpt>
      <trkpt lat="44.30151" lon="9.21092">
        <ele>24.17</ele>
        <time>2019-05-05T07:37:46Z</time>
      </trkpt>
      <trkpt lat="44.30151" lon="9.211">
        <ele>24.17</ele>
        <time>2019-05-05T07:37:51Z</time>
      </trkpt>
      <trkpt lat="44.30152" lon="9.21124">
        <ele>24.65</ele>
        <time>2019-05-05T07:38:10Z</time>
      </trkpt>
      <trkpt lat="44.30152" lon="9.21133">
        <ele>24.65</ele>
        <time>2019-05-05T07:38:16Z</time>
      </trkpt>
      <trkpt lat="44.30156" lon="9.21163">
        <ele>24.65</ele>
        <time>2019-05-05T07:38:38Z</time>
      </trkpt>
      <trkpt lat="44.30148" lon="9.2119">
        <ele>26.09</ele>
        <time>2019-05-05T07:38:58Z</time>
      </trkpt>
      <trkpt lat="44.30146" lon="9.21194">
        <ele>26.09</ele>
        <time>2019-05-05T07:39:01Z</time>
      </trkpt>
      <trkpt lat="44.30153" lon="9.21222">
        <ele>27.53</ele>
        <time>2019-05-05T07:39:21Z</time>
      </trkpt>
      <trkpt lat="44.30158" lon="9.21244">
        <ele>28.5</ele>
        <time>2019-05-05T07:39:37Z</time>
      </trkpt>
      <trkpt lat="44.30158" lon="9.21257">
        <ele>31.86</ele>
        <time>2019-05-05T07:39:54Z</time>
      </trkpt>
      <trkpt lat="44.30157" lon="9.21272">
        <ele>33.3</ele>
        <time>2019-05-05T07:40:13Z</time>
      </trkpt>
      <trkpt lat="44.30155" lon="9.21275">
        <ele>34.74</ele>
        <time>2019-05-05T07:40:18Z</time>
      </trkpt>
      <trkpt lat="44.30151" lon="9.21281">
        <ele>35.71</ele>
        <time>2019-05-05T07:40:28Z</time>
      </trkpt>
      <trkpt lat="44.30151" lon="9.21291">
        <ele>38.59</ele>
        <time>2019-05-05T07:40:40Z</time>
      </trkpt>
      <trkpt lat="44.30151" lon="9.21307">
        <ele>37.63</ele>
        <time>2019-05-05T07:40:54Z</time>
      </trkpt>
      <trkpt lat="44.3015" lon="9.21313">
        <ele>39.07</ele>
        <time>2019-05-05T07:40:58Z</time>
      </trkpt>
      <trkpt lat="44.30149" lon="9.21334">
        <ele>40.51</ele>
        <time>2019-05-05T07:41:14Z</time>
      </trkpt>
      <trkpt lat="44.30153" lon="9.21356">
        <ele>42.92</ele>
        <time>2019-05-05T07:41:39Z</time>
      </trkpt>
      <trkpt lat="44.30149" lon="9.21366">
        <ele>45.8</ele>
        <time>2019-05-05T07:41:57Z</time>
      </trkpt>
      <trkpt lat="44.30151" lon="9.21378">
        <ele>49.16</ele>
        <time>2019-05-05T07:42:12Z</time>
      </trkpt>
      <trkpt lat="44.3015" lon="9.21378">
        <ele>48.2</ele>
        <time>2019-05-05T07:42:13Z</time>
      </trkpt>
      <trkpt lat="44.30151" lon="9.21381">
        <ele>51.09</ele>
        <time>2019-05-05T07:42:21Z</time>
      </trkpt>
      <trkpt lat="44.30152" lon="9.21397">
        <ele>53.49</ele>
        <time>2019-05-05T07:42:40Z</time>
      </trkpt>
      <trkpt lat="44.30151" lon="9.21408">
        <ele>53.01</ele>
        <time>2019-05-05T07:42:51Z</time>
      </trkpt>
      <trkpt lat="44.30148" lon="9.21412">
        <ele>54.45</ele>
        <time>2019-05-05T07:42:56Z</time>
      </trkpt>
      <trkpt lat="44.30143" lon="9.21421">
        <ele>53.01</ele>
        <time>2019-05-05T07:43:06Z</time>
      </trkpt>
      <trkpt lat="44.30134" lon="9.21433">
        <ele>51.09</ele>
        <time>2019-05-05T07:43:22Z</time>
      </trkpt>
      <trkpt lat="44.30123" lon="9.2145">
        <ele>50.61</ele>
        <time>2019-05-05T07:43:39Z</time>
      </trkpt>
      <trkpt lat="44.30112" lon="9.21463">
        <ele>50.13</ele>
        <time>2019-05-05T07:43:54Z</time>
      </trkpt>
      <trkpt lat="44.30101" lon="9.21475">
        <ele>51.09</ele>
        <time>2019-05-05T07:44:10Z</time>
      </trkpt>
      <trkpt lat="44.30099" lon="9.21482">
        <ele>49.65</ele>
        <time>2019-05-05T07:44:15Z</time>
      </trkpt>
      <trkpt lat="44.30096" lon="9.21497">
        <ele>51.09</ele>
        <time>2019-05-05T07:44:30Z</time>
      </trkpt>
      <trkpt lat="44.30096" lon="9.21508">
        <ele>51.09</ele>
        <time>2019-05-05T07:44:45Z</time>
      </trkpt>
      <trkpt lat="44.30102" lon="9.21526">
        <ele>50.61</ele>
        <time>2019-05-05T07:45:00Z</time>
      </trkpt>
      <trkpt lat="44.30108" lon="9.21538">
        <ele>51.57</ele>
        <time>2019-05-05T07:45:15Z</time>
      </trkpt>
      <trkpt lat="44.30108" lon="9.21554">
        <ele>54.45</ele>
        <time>2019-05-05T07:45:31Z</time>
      </trkpt>
      <trkpt lat="44.30108" lon="9.21569">
        <ele>57.34</ele>
        <time>2019-05-05T07:45:49Z</time>
      </trkpt>
      <trkpt lat="44.30112" lon="9.21588">
        <ele>56.37</ele>
        <time>2019-05-05T07:46:03Z</time>
      </trkpt>
      <trkpt lat="44.30109" lon="9.21615">
        <ele>53.01</ele>
        <time>2019-05-05T07:46:23Z</time>
      </trkpt>
      <trkpt lat="44.30104" lon="9.21622">
        <ele>52.05</ele>
        <time>2019-05-05T07:46:31Z</time>
      </trkpt>
      <trkpt lat="44.30103" lon="9.2162">
        <ele>51.57</ele>
        <time>2019-05-05T07:46:36Z</time>
      </trkpt>
      <trkpt lat="44.30089" lon="9.21621">
        <ele>49.16</ele>
        <time>2019-05-05T07:46:47Z</time>
      </trkpt>
      <trkpt lat="44.30074" lon="9.2164">
        <ele>47.24</ele>
        <time>2019-05-05T07:47:05Z</time>
      </trkpt>
      <trkpt lat="44.30069" lon="9.2166">
        <ele>44.84</ele>
        <time>2019-05-05T07:47:19Z</time>
      </trkpt>
      <trkpt lat="44.30058" lon="9.21664">
        <ele>41.95</ele>
        <time>2019-05-05T07:47:35Z</time>
      </trkpt>
      <trkpt lat="44.30049" lon="9.21665">
        <ele>40.99</ele>
        <time>2019-05-05T07:47:44Z</time>
      </trkpt>
      <trkpt lat="44.3004" lon="9.21667">
        <ele>40.51</ele>
        <time>2019-05-05T07:47:49Z</time>
      </trkpt>
      <trkpt lat="44.30027" lon="9.21673">
        <ele>40.51</ele>
        <time>2019-05-05T07:47:59Z</time>
      </trkpt>
      <trkpt lat="44.30013" lon="9.21676">
        <ele>40.99</ele>
        <time>2019-05-05T07:48:12Z</time>
      </trkpt>
      <trkpt lat="44.30012" lon="9.21677">
        <ele>40.99</ele>
        <time>2019-05-05T07:48:13Z</time>
      </trkpt>
      <trkpt lat="44.30009" lon="9.21678">
        <ele>39.55</ele>
        <time>2019-05-05T07:48:15Z</time>
      </trkpt>
      <trkpt lat="44.29997" lon="9.21697">
        <ele>38.59</ele>
        <time>2019-05-05T07:48:31Z</time>
      </trkpt>
      <trkpt lat="44.29992" lon="9.21708">
        <ele>38.59</ele>
        <time>2019-05-05T07:48:38Z</time>
      </trkpt>
      <trkpt lat="44.29988" lon="9.21712">
        <ele>39.07</ele>
        <time>2019-05-05T07:48:43Z</time>
      </trkpt>
      <trkpt lat="44.2998" lon="9.21716">
        <ele>39.07</ele>
        <time>2019-05-05T07:48:52Z</time>
      </trkpt>
      <trkpt lat="44.29974" lon="9.21718">
        <ele>39.07</ele>
        <time>2019-05-05T07:48:59Z</time>
      </trkpt>
      <trkpt lat="44.29954" lon="9.21734">
        <ele>39.07</ele>
        <time>2019-05-05T07:49:16Z</time>
      </trkpt>
      <trkpt lat="44.29948" lon="9.21738">
        <ele>37.63</ele>
        <time>2019-05-05T07:49:20Z</time>
      </trkpt>
      <trkpt lat="44.29938" lon="9.21754">
        <ele>39.07</ele>
        <time>2019-05-05T07:49:33Z</time>
      </trkpt>
      <trkpt lat="44.29937" lon="9.21756">
        <ele>38.59</ele>
        <time>2019-05-05T07:49:34Z</time>
      </trkpt>
      <trkpt lat="44.29934" lon="9.21759">
        <ele>38.59</ele>
        <time>2019-05-05T07:49:37Z</time>
      </trkpt>
      <trkpt lat="44.29914" lon="9.21763">
        <ele>38.59</ele>
        <time>2019-05-05T07:49:54Z</time>
      </trkpt>
      <trkpt lat="44.29913" lon="9.21763">
        <ele>38.59</ele>
        <time>2019-05-05T07:49:55Z</time>
      </trkpt>
      <trkpt lat="44.29903" lon="9.21772">
        <ele>38.59</ele>
        <time>2019-05-05T07:50:08Z</time>
      </trkpt>
      <trkpt lat="44.29899" lon="9.21776">
        <ele>38.59</ele>
        <time>2019-05-05T07:50:15Z</time>
      </trkpt>
      <trkpt lat="44.29888" lon="9.21785">
        <ele>37.63</ele>
        <time>2019-05-05T07:50:32Z</time>
      </trkpt>
      <trkpt lat="44.29885" lon="9.2179">
        <ele>36.67</ele>
        <time>2019-05-05T07:50:42Z</time>
      </trkpt>
      <trkpt lat="44.29885" lon="9.21801">
        <ele>36.19</ele>
        <time>2019-05-05T07:50:56Z</time>
      </trkpt>
      <trkpt lat="44.29882" lon="9.21814">
        <ele>35.23</ele>
        <time>2019-05-05T07:51:11Z</time>
      </trkpt>
      <trkpt lat="44.2988" lon="9.21816">
        <ele>34.74</ele>
        <time>2019-05-05T07:51:27Z</time>
      </trkpt>
      <trkpt lat="44.29882" lon="9.21817">
        <ele>34.26</ele>
        <time>2019-05-05T07:51:44Z</time>
      </trkpt>
      <trkpt lat="44.29885" lon="9.21817">
        <ele>32.82</ele>
        <time>2019-05-05T07:51:57Z</time>
      </trkpt>
      <trkpt lat="44.29886" lon="9.21816">
        <ele>31.38</ele>
        <time>2019-05-05T07:52:14Z</time>
      </trkpt>
      <trkpt lat="44.29893" lon="9.21823">
        <ele>28.02</ele>
        <time>2019-05-05T07:52:28Z</time>
      </trkpt>
      <trkpt lat="44.29882" lon="9.21821">
        <ele>26.57</ele>
        <time>2019-05-05T07:52:42Z</time>
      </trkpt>
      <trkpt lat="44.29873" lon="9.21837">
        <ele>25.61</ele>
        <time>2019-05-05T07:52:56Z</time>
      </trkpt>
      <trkpt lat="44.29868" lon="9.21849">
        <ele>24.65</ele>
        <time>2019-05-05T07:53:11Z</time>
      </trkpt>
      <trkpt lat="44.29863" lon="9.21846">
        <ele>24.17</ele>
        <time>2019-05-05T07:53:25Z</time>
      </trkpt>
      <trkpt lat="44.29863" lon="9.21845">
        <ele>24.17</ele>
        <time>2019-05-05T07:53:42Z</time>
      </trkpt>
      <trkpt lat="44.29862" lon="9.21842">
        <ele>25.61</ele>
        <time>2019-05-05T07:53:45Z</time>
      </trkpt>
      <trkpt lat="44.29866" lon="9.21846">
        <ele>25.61</ele>
        <time>2019-05-05T07:53:55Z</time>
      </trkpt>
      <trkpt lat="44.29866" lon="9.21849">
        <ele>25.61</ele>
        <time>2019-05-05T07:54:10Z</time>
      </trkpt>
      <trkpt lat="44.29867" lon="9.21847">
        <ele>25.61</ele>
        <time>2019-05-05T07:54:31Z</time>
      </trkpt>
      <trkpt lat="44.29867" lon="9.21848">
        <ele>24.65</ele>
        <time>2019-05-05T07:54:58Z</time>
      </trkpt>
      <trkpt lat="44.29869" lon="9.21847">
        <ele>24.65</ele>
        <time>2019-05-05T07:55:26Z</time>
      </trkpt>
      <trkpt lat="44.29867" lon="9.21849">
        <ele>23.69</ele>
        <time>2019-05-05T07:55:49Z</time>
      </trkpt>
      <trkpt lat="44.29868" lon="9.21849">
        <ele>25.13</ele>
        <time>2019-05-05T07:55:53Z</time>
      </trkpt>
      <trkpt lat="44.29871" lon="9.21848">
        <ele>25.61</ele>
        <time>2019-05-05T07:56:11Z</time>
      </trkpt>
      <trkpt lat="44.29872" lon="9.21847">
        <ele>25.61</ele>
        <time>2019-05-05T07:56:25Z</time>
      </trkpt>
      <trkpt lat="44.29871" lon="9.21841">
        <ele>25.61</ele>
        <time>2019-05-05T07:56:31Z</time>
      </trkpt>
      <trkpt lat="44.29875" lon="9.21818">
        <ele>26.09</ele>
        <time>2019-05-05T07:56:47Z</time>
      </trkpt>
      <trkpt lat="44.29886" lon="9.21812">
        <ele>27.53</ele>
        <time>2019-05-05T07:57:02Z</time>
      </trkpt>
      <trkpt lat="44.29893" lon="9.21812">
        <ele>28.5</ele>
        <time>2019-05-05T07:57:17Z</time>
      </trkpt>
      <trkpt lat="44.29896" lon="9.21811">
        <ele>29.94</ele>
        <time>2019-05-05T07:57:30Z</time>
      </trkpt>
      <trkpt lat="44.29891" lon="9.21812">
        <ele>32.82</ele>
        <time>2019-05-05T07:57:42Z</time>
      </trkpt>
      <trkpt lat="44.29885" lon="9.21811">
        <ele>34.74</ele>
        <time>2019-05-05T07:57:59Z</time>
      </trkpt>
      <trkpt lat="44.29889" lon="9.218">
        <ele>35.71</ele>
        <time>2019-05-05T07:58:17Z</time>
      </trkpt>
      <trkpt lat="44.29897" lon="9.21794">
        <ele>36.67</ele>
        <time>2019-05-05T07:58:35Z</time>
      </trkpt>
      <trkpt lat="44.29906" lon="9.21781">
        <ele>37.63</ele>
        <time>2019-05-05T07:58:50Z</time>
      </trkpt>
      <trkpt lat="44.29908" lon="9.21776">
        <ele>37.63</ele>
        <time>2019-05-05T07:58:55Z</time>
      </trkpt>
      <trkpt lat="44.29911" lon="9.21772">
        <ele>36.67</ele>
        <time>2019-05-05T07:59:01Z</time>
      </trkpt>
      <trkpt lat="44.29915" lon="9.21768">
        <ele>36.67</ele>
        <time>2019-05-05T07:59:05Z</time>
      </trkpt>
      <trkpt lat="44.29931" lon="9.21759">
        <ele>36.67</ele>
        <time>2019-05-05T07:59:21Z</time>
      </trkpt>
      <trkpt lat="44.29942" lon="9.21745">
        <ele>35.23</ele>
        <time>2019-05-05T07:59:37Z</time>
      </trkpt>
      <trkpt lat="44.29945" lon="9.21742">
        <ele>36.67</ele>
        <time>2019-05-05T07:59:41Z</time>
      </trkpt>
      <trkpt lat="44.29961" lon="9.21727">
        <ele>35.23</ele>
        <time>2019-05-05T07:59:57Z</time>
      </trkpt>
      <trkpt lat="44.29963" lon="9.21726">
        <ele>35.23</ele>
        <time>2019-05-05T07:59:58Z</time>
      </trkpt>
      <trkpt lat="44.29973" lon="9.21723">
        <ele>35.23</ele>
        <time>2019-05-05T08:00:08Z</time>
      </trkpt>
      <trkpt lat="44.29981" lon="9.2172">
        <ele>36.67</ele>
        <time>2019-05-05T08:00:16Z</time>
      </trkpt>
      <trkpt lat="44.29997" lon="9.21708">
        <ele>37.15</ele>
        <time>2019-05-05T08:00:33Z</time>
      </trkpt>
      <trkpt lat="44.30004" lon="9.21688">
        <ele>38.59</ele>
        <time>2019-05-05T08:00:51Z</time>
      </trkpt>
      <trkpt lat="44.30026" lon="9.2168">
        <ele>38.59</ele>
        <time>2019-05-05T08:01:10Z</time>
      </trkpt>
      <trkpt lat="44.30046" lon="9.21667">
        <ele>39.55</ele>
        <time>2019-05-05T08:01:29Z</time>
      </trkpt>
      <trkpt lat="44.30062" lon="9.21664">
        <ele>40.99</ele>
        <time>2019-05-05T08:01:46Z</time>
      </trkpt>
      <trkpt lat="44.30071" lon="9.21656">
        <ele>43.4</ele>
        <time>2019-05-05T08:01:59Z</time>
      </trkpt>
      <trkpt lat="44.30074" lon="9.21641">
        <ele>44.36</ele>
        <time>2019-05-05T08:02:12Z</time>
      </trkpt>
      <trkpt lat="44.30086" lon="9.21628">
        <ele>47.24</ele>
        <time>2019-05-05T08:02:31Z</time>
      </trkpt>
      <trkpt lat="44.30099" lon="9.21623">
        <ele>48.68</ele>
        <time>2019-05-05T08:02:49Z</time>
      </trkpt>
      <trkpt lat="44.30109" lon="9.21609">
        <ele>51.09</ele>
        <time>2019-05-05T08:03:06Z</time>
      </trkpt>
      <trkpt lat="44.3011" lon="9.21594">
        <ele>53.49</ele>
        <time>2019-05-05T08:03:24Z</time>
      </trkpt>
      <trkpt lat="44.30108" lon="9.21577">
        <ele>54.93</ele>
        <time>2019-05-05T08:03:40Z</time>
      </trkpt>
      <trkpt lat="44.30105" lon="9.21565">
        <ele>52.53</ele>
        <time>2019-05-05T08:04:01Z</time>
      </trkpt>
      <trkpt lat="44.30107" lon="9.21552">
        <ele>50.13</ele>
        <time>2019-05-05T08:04:22Z</time>
      </trkpt>
      <trkpt lat="44.30104" lon="9.21528">
        <ele>46.28</ele>
        <time>2019-05-05T08:04:38Z</time>
      </trkpt>
      <trkpt lat="44.30101" lon="9.2151">
        <ele>46.28</ele>
        <time>2019-05-05T08:04:50Z</time>
      </trkpt>
      <trkpt lat="44.30102" lon="9.21486">
        <ele>46.28</ele>
        <time>2019-05-05T08:05:08Z</time>
      </trkpt>
      <trkpt lat="44.30109" lon="9.21477">
        <ele>45.8</ele>
        <time>2019-05-05T08:05:16Z</time>
      </trkpt>
      <trkpt lat="44.30122" lon="9.21457">
        <ele>47.24</ele>
        <time>2019-05-05T08:05:32Z</time>
      </trkpt>
      <trkpt lat="44.3013" lon="9.21438">
        <ele>47.72</ele>
        <time>2019-05-05T08:05:47Z</time>
      </trkpt>
      <trkpt lat="44.30139" lon="9.21432">
        <ele>48.2</ele>
        <time>2019-05-05T08:06:03Z</time>
      </trkpt>
      <trkpt lat="44.30148" lon="9.21419">
        <ele>50.13</ele>
        <time>2019-05-05T08:06:20Z</time>
      </trkpt>
      <trkpt lat="44.3016" lon="9.21408">
        <ele>48.68</ele>
        <time>2019-05-05T08:06:37Z</time>
      </trkpt>
      <trkpt lat="44.30161" lon="9.2139">
        <ele>46.28</ele>
        <time>2019-05-05T08:06:58Z</time>
      </trkpt>
      <trkpt lat="44.3016" lon="9.21382">
        <ele>43.88</ele>
        <time>2019-05-05T08:07:14Z</time>
      </trkpt>
      <trkpt lat="44.30156" lon="9.21369">
        <ele>40.51</ele>
        <time>2019-05-05T08:07:28Z</time>
      </trkpt>
      <trkpt lat="44.30149" lon="9.21349">
        <ele>38.11</ele>
        <time>2019-05-05T08:07:45Z</time>
      </trkpt>
      <trkpt lat="44.30147" lon="9.21321">
        <ele>35.71</ele>
        <time>2019-05-05T08:08:02Z</time>
      </trkpt>
      <trkpt lat="44.30148" lon="9.21299">
        <ele>33.3</ele>
        <time>2019-05-05T08:08:19Z</time>
      </trkpt>
      <trkpt lat="44.30154" lon="9.2128">
        <ele>29.94</ele>
        <time>2019-05-05T08:08:35Z</time>
      </trkpt>
      <trkpt lat="44.30156" lon="9.21263">
        <ele>27.53</ele>
        <time>2019-05-05T08:08:57Z</time>
      </trkpt>
      <trkpt lat="44.3016" lon="9.21251">
        <ele>24.65</ele>
        <time>2019-05-05T08:09:13Z</time>
      </trkpt>
      <trkpt lat="44.30156" lon="9.21225">
        <ele>21.77</ele>
        <time>2019-05-05T08:09:31Z</time>
      </trkpt>
      <trkpt lat="44.30156" lon="9.21224">
        <ele>22.25</ele>
        <time>2019-05-05T08:09:32Z</time>
      </trkpt>
      <trkpt lat="44.3015" lon="9.21201">
        <ele>21.77</ele>
        <time>2019-05-05T08:09:53Z</time>
      </trkpt>
      <trkpt lat="44.30152" lon="9.2118">
        <ele>18.4</ele>
        <time>2019-05-05T08:10:03Z</time>
      </trkpt>
      <trkpt lat="44.30156" lon="9.21158">
        <ele>19.84</ele>
        <time>2019-05-05T08:10:16Z</time>
      </trkpt>
      <trkpt lat="44.30153" lon="9.21129">
        <ele>20.32</ele>
        <time>2019-05-05T08:10:35Z</time>
      </trkpt>
      <trkpt lat="44.30153" lon="9.21103">
        <ele>18.4</ele>
        <time>2019-05-05T08:10:52Z</time>
      </trkpt>
      <trkpt lat="44.30153" lon="9.21086">
        <ele>18.88</ele>
        <time>2019-05-05T08:11:09Z</time>
      </trkpt>
      <trkpt lat="44.30148" lon="9.21084">
        <ele>19.84</ele>
        <time>2019-05-05T08:11:27Z</time>
      </trkpt>
      <trkpt lat="44.30144" lon="9.21099">
        <ele>23.21</ele>
        <time>2019-05-05T08:11:39Z</time>
      </trkpt>
      <trkpt lat="44.30141" lon="9.21119">
        <ele>25.61</ele>
        <time>2019-05-05T08:11:53Z</time>
      </trkpt>
      <trkpt lat="44.3014" lon="9.21129">
        <ele>27.53</ele>
        <time>2019-05-05T08:12:01Z</time>
      </trkpt>
      <trkpt lat="44.30138" lon="9.21134">
        <ele>28.5</ele>
        <time>2019-05-05T08:12:17Z</time>
      </trkpt>
      <trkpt lat="44.30145" lon="9.21137">
        <ele>27.53</ele>
        <time>2019-05-05T08:12:26Z</time>
      </trkpt>
      <trkpt lat="44.30146" lon="9.21137">
        <ele>25.13</ele>
        <time>2019-05-05T08:12:49Z</time>
      </trkpt>
      <trkpt lat="44.30146" lon="9.21147">
        <ele>25.13</ele>
        <time>2019-05-05T08:13:00Z</time>
      </trkpt>
      <trkpt lat="44.30149" lon="9.21167">
        <ele>24.17</ele>
        <time>2019-05-05T08:13:17Z</time>
      </trkpt>
      <trkpt lat="44.30149" lon="9.21175">
        <ele>24.17</ele>
        <time>2019-05-05T08:13:34Z</time>
      </trkpt>
      <trkpt lat="44.3015" lon="9.21175">
        <ele>24.17</ele>
        <time>2019-05-05T08:13:57Z</time>
      </trkpt>
      <trkpt lat="44.30151" lon="9.21173">
        <ele>24.17</ele>
        <time>2019-05-05T08:14:18Z</time>
      </trkpt>
      <trkpt lat="44.30151" lon="9.21165">
        <ele>24.17</ele>
        <time>2019-05-05T08:14:34Z</time>
      </trkpt>
      <trkpt lat="44.30151" lon="9.21149">
        <ele>25.13</ele>
        <time>2019-05-05T08:14:51Z</time>
      </trkpt>
      <trkpt lat="44.3015" lon="9.2114">
        <ele>27.53</ele>
        <time>2019-05-05T08:14:57Z</time>
      </trkpt>
      <trkpt lat="44.30147" lon="9.21134">
        <ele>26.09</ele>
        <time>2019-05-05T08:15:02Z</time>
      </trkpt>
      <trkpt lat="44.30146" lon="9.21132">
        <ele>24.65</ele>
        <time>2019-05-05T08:15:04Z</time>
      </trkpt>
      <trkpt lat="44.30145" lon="9.21127">
        <ele>26.57</ele>
        <time>2019-05-05T08:15:09Z</time>
      </trkpt>
      <trkpt lat="44.30144" lon="9.21124">
        <ele>25.61</ele>
        <time>2019-05-05T08:15:12Z</time>
      </trkpt>
      <trkpt lat="44.30145" lon="9.21115">
        <ele>23.21</ele>
        <time>2019-05-05T08:15:20Z</time>
      </trkpt>
      <trkpt lat="44.30148" lon="9.21096">
        <ele>19.84</ele>
        <time>2019-05-05T08:15:34Z</time>
      </trkpt>
      <trkpt lat="44.30152" lon="9.21079">
        <ele>18.4</ele>
        <time>2019-05-05T08:15:49Z</time>
      </trkpt>
      <trkpt lat="44.30163" lon="9.21064">
        <ele>16</ele>
        <time>2019-05-05T08:16:05Z</time>
      </trkpt>
      <trkpt lat="44.30171" lon="9.21055">
        <ele>14.08</ele>
        <time>2019-05-05T08:16:15Z</time>
      </trkpt>
      <trkpt lat="44.30181" lon="9.21045">
        <ele>13.12</ele>
        <time>2019-05-05T08:16:33Z</time>
      </trkpt>
      <trkpt lat="44.30196" lon="9.21039">
        <ele>9.75</ele>
        <time>2019-05-05T08:16:50Z</time>
      </trkpt>
      <trkpt lat="44.30204" lon="9.21032">
        <ele>8.79</ele>
        <time>2019-05-05T08:16:59Z</time>
      </trkpt>
      <trkpt lat="44.30218" lon="9.21037">
        <ele>6.39</ele>
        <time>2019-05-05T08:17:17Z</time>
      </trkpt>
      <trkpt lat="44.30223" lon="9.21035">
        <ele>7.35</ele>
        <time>2019-05-05T08:17:22Z</time>
      </trkpt>
      <trkpt lat="44.3024" lon="9.21009">
        <ele>7.83</ele>
        <time>2019-05-05T08:17:44Z</time>
      </trkpt>
      <trkpt lat="44.30245" lon="9.21004">
        <ele>6.87</ele>
        <time>2019-05-05T08:17:53Z</time>
      </trkpt>
      <trkpt lat="44.30252" lon="9.2098">
        <ele>3.5</ele>
        <time>2019-05-05T08:18:15Z</time>
      </trkpt>
      <trkpt lat="44.30258" lon="9.20967">
        <ele>0.62</ele>
        <time>2019-05-05T08:18:35Z</time>
      </trkpt>
      <trkpt lat="44.30273" lon="9.20965">
        <ele>-2.27</ele>
        <time>2019-05-05T08:18:59Z</time>
      </trkpt>
      <trkpt lat="44.30284" lon="9.20973">
        <ele>-3.23</ele>
        <time>2019-05-05T08:19:13Z</time>
      </trkpt>
      <trkpt lat="44.30284" lon="9.20977">
        <ele>-4.19</ele>
        <time>2019-05-05T08:19:26Z</time>
      </trkpt>
      <trkpt lat="44.30286" lon="9.20976">
        <ele>-4.19</ele>
        <time>2019-05-05T08:19:45Z</time>
      </trkpt>
      <trkpt lat="44.30295" lon="9.20975">
        <ele>-4.67</ele>
        <time>2019-05-05T08:20:12Z</time>
      </trkpt>
      <trkpt lat="44.3029" lon="9.20973">
        <ele>-4.67</ele>
        <time>2019-05-05T08:20:37Z</time>
      </trkpt>
      <trkpt lat="44.3029" lon="9.2097">
        <ele>-4.67</ele>
        <time>2019-05-05T08:20:49Z</time>
      </trkpt>
      <trkpt lat="44.30289" lon="9.20972">
        <ele>-3.23</ele>
        <time>2019-05-05T08:20:53Z</time>
      </trkpt>
      <trkpt lat="44.30291" lon="9.20974">
        <ele>-3.23</ele>
        <time>2019-05-05T08:21:11Z</time>
      </trkpt>
      <trkpt lat="44.30296" lon="9.20973">
        <ele>-3.23</ele>
        <time>2019-05-05T08:21:24Z</time>
      </trkpt>
      <trkpt lat="44.30303" lon="9.2097">
        <ele>-3.71</ele>
        <time>2019-05-05T08:21:37Z</time>
      </trkpt>
      <trkpt lat="44.30309" lon="9.2097">
        <ele>-3.71</ele>
        <time>2019-05-05T08:21:51Z</time>
      </trkpt>
      <trkpt lat="44.30316" lon="9.20971">
        <ele>-3.71</ele>
        <time>2019-05-05T08:22:04Z</time>
      </trkpt>
      <trkpt lat="44.30321" lon="9.20977">
        <ele>-3.71</ele>
        <time>2019-05-05T08:22:20Z</time>
      </trkpt>
      <trkpt lat="44.30326" lon="9.20974">
        <ele>-3.71</ele>
        <time>2019-05-05T08:22:27Z</time>
      </trkpt>
      <trkpt lat="44.30328" lon="9.20971">
        <ele>-3.71</ele>
        <time>2019-05-05T08:22:31Z</time>
      </trkpt>
      <trkpt lat="44.30331" lon="9.20972">
        <ele>-3.71</ele>
        <time>2019-05-05T08:22:34Z</time>
      </trkpt>
      <trkpt lat="44.30337" lon="9.20966">
        <ele>-3.71</ele>
        <time>2019-05-05T08:22:42Z</time>
      </trkpt>
      <trkpt lat="44.30351" lon="9.20958">
        <ele>-3.23</ele>
        <time>2019-05-05T08:22:59Z</time>
      </trkpt>
      <trkpt lat="44.3035" lon="9.20957">
        <ele>-3.23</ele>
        <time>2019-05-05T08:23:00Z</time>
      </trkpt>
      <trkpt lat="44.30352" lon="9.20952">
        <ele>-2.27</ele>
        <time>2019-05-05T08:23:09Z</time>
      </trkpt>
      <trkpt lat="44.30359" lon="9.20943">
        <ele>-0.82</ele>
        <time>2019-05-05T08:23:23Z</time>
      </trkpt>
      <trkpt lat="44.30365" lon="9.20947">
        <ele>0.14</ele>
        <time>2019-05-05T08:23:37Z</time>
      </trkpt>
      <trkpt lat="44.30363" lon="9.20953">
        <ele>2.54</ele>
        <time>2019-05-05T08:23:50Z</time>
      </trkpt>
      <trkpt lat="44.30368" lon="9.20967">
        <ele>3.98</ele>
        <time>2019-05-05T08:24:04Z</time>
      </trkpt>
      <trkpt lat="44.30374" lon="9.20967">
        <ele>5.42</ele>
        <time>2019-05-05T08:24:17Z</time>
      </trkpt>
      <trkpt lat="44.30381" lon="9.20962">
        <ele>7.35</ele>
        <time>2019-05-05T08:24:33Z</time>
      </trkpt>
      <trkpt lat="44.30379" lon="9.20959">
        <ele>8.79</ele>
        <time>2019-05-05T08:24:45Z</time>
      </trkpt>
      <trkpt lat="44.30381" lon="9.20956">
        <ele>9.27</ele>
        <time>2019-05-05T08:24:59Z</time>
      </trkpt>
      <trkpt lat="44.30392" lon="9.20943">
        <ele>9.27</ele>
        <time>2019-05-05T08:25:23Z</time>
      </trkpt>
      <trkpt lat="44.30392" lon="9.2093">
        <ele>9.75</ele>
        <time>2019-05-05T08:25:46Z</time>
      </trkpt>
      <trkpt lat="44.30385" lon="9.20925">
        <ele>9.75</ele>
        <time>2019-05-05T08:26:16Z</time>
      </trkpt>
      <trkpt lat="44.30381" lon="9.20927">
        <ele>9.75</ele>
        <time>2019-05-05T08:26:38Z</time>
      </trkpt>
      <trkpt lat="44.3038" lon="9.20943">
        <ele>8.79</ele>
        <time>2019-05-05T08:26:56Z</time>
      </trkpt>
      <trkpt lat="44.30379" lon="9.20949">
        <ele>9.27</ele>
        <time>2019-05-05T08:27:16Z</time>
      </trkpt>
      <trkpt lat="44.30376" lon="9.20961">
        <ele>8.31</ele>
        <time>2019-05-05T08:27:27Z</time>
      </trkpt>
      <trkpt lat="44.30373" lon="9.20956">
        <ele>7.83</ele>
        <time>2019-05-05T08:27:46Z</time>
      </trkpt>
      <trkpt lat="44.30372" lon="9.20955">
        <ele>7.35</ele>
        <time>2019-05-05T08:28:02Z</time>
      </trkpt>
      <trkpt lat="44.3037" lon="9.20954">
        <ele>7.35</ele>
        <time>2019-05-05T08:28:13Z</time>
      </trkpt>
      <trkpt lat="44.30368" lon="9.20966">
        <ele>6.87</ele>
        <time>2019-05-05T08:28:32Z</time>
      </trkpt>
      <trkpt lat="44.30368" lon="9.20968">
        <ele>8.79</ele>
        <time>2019-05-05T08:28:43Z</time>
      </trkpt>
      <trkpt lat="44.30367" lon="9.20968">
        <ele>6.87</ele>
        <time>2019-05-05T08:29:00Z</time>
      </trkpt>
      <trkpt lat="44.3037" lon="9.20971">
        <ele>7.35</ele>
        <time>2019-05-05T08:29:20Z</time>
      </trkpt>
      <trkpt lat="44.30372" lon="9.20971">
        <ele>7.83</ele>
        <time>2019-05-05T08:29:46Z</time>
      </trkpt>
      <trkpt lat="44.30372" lon="9.2097">
        <ele>8.31</ele>
        <time>2019-05-05T08:30:12Z</time>
      </trkpt>
      <trkpt lat="44.30368" lon="9.20963">
        <ele>7.35</ele>
        <time>2019-05-05T08:30:25Z</time>
      </trkpt>
      <trkpt lat="44.30367" lon="9.20957">
        <ele>7.35</ele>
        <time>2019-05-05T08:30:39Z</time>
      </trkpt>
      <trkpt lat="44.30369" lon="9.2095">
        <ele>7.83</ele>
        <time>2019-05-05T08:31:03Z</time>
      </trkpt>
      <trkpt lat="44.30368" lon="9.20952">
        <ele>5.91</ele>
        <time>2019-05-05T08:31:14Z</time>
      </trkpt>
      <trkpt lat="44.30364" lon="9.20955">
        <ele>3.98</ele>
        <time>2019-05-05T08:31:27Z</time>
      </trkpt>
      <trkpt lat="44.30367" lon="9.20958">
        <ele>2.06</ele>
        <time>2019-05-05T08:31:41Z</time>
      </trkpt>
      <trkpt lat="44.30349" lon="9.20961">
        <ele>-0.34</ele>
        <time>2019-05-05T08:31:55Z</time>
      </trkpt>
      <trkpt lat="44.30342" lon="9.20955">
        <ele>-1.3</ele>
        <time>2019-05-05T08:32:07Z</time>
      </trkpt>
      <trkpt lat="44.30333" lon="9.20951">
        <ele>-1.79</ele>
        <time>2019-05-05T08:32:18Z</time>
      </trkpt>
      <trkpt lat="44.30331" lon="9.20951">
        <ele>-1.79</ele>
        <time>2019-05-05T08:32:20Z</time>
      </trkpt>
      <trkpt lat="44.30317" lon="9.20959">
        <ele>-1.3</ele>
        <time>2019-05-05T08:32:34Z</time>
      </trkpt>
      <trkpt lat="44.30311" lon="9.20974">
        <ele>-0.82</ele>
        <time>2019-05-05T08:32:50Z</time>
      </trkpt>
      <trkpt lat="44.30319" lon="9.2098">
        <ele>-0.34</ele>
        <time>2019-05-05T08:33:02Z</time>
      </trkpt>
      <trkpt lat="44.3033" lon="9.20982">
        <ele>1.1</ele>
        <time>2019-05-05T08:33:16Z</time>
      </trkpt>
      <trkpt lat="44.30327" lon="9.20971">
        <ele>1.58</ele>
        <time>2019-05-05T08:33:29Z</time>
      </trkpt>
      <trkpt lat="44.30324" lon="9.20963">
        <ele>2.06</ele>
        <time>2019-05-05T08:33:40Z</time>
      </trkpt>
      <trkpt lat="44.30327" lon="9.20961">
        <ele>2.06</ele>
        <time>2019-05-05T08:33:44Z</time>
      </trkpt>
      <trkpt lat="44.30326" lon="9.20949">
        <ele>2.54</ele>
        <time>2019-05-05T08:33:55Z</time>
      </trkpt>
      <trkpt lat="44.30321" lon="9.20931">
        <ele>3.5</ele>
        <time>2019-05-05T08:34:10Z</time>
      </trkpt>
      <trkpt lat="44.30319" lon="9.20926">
        <ele>4.46</ele>
        <time>2019-05-05T08:34:28Z</time>
      </trkpt>
      <trkpt lat="44.30318" lon="9.20926">
        <ele>4.46</ele>
        <time>2019-05-05T08:34:49Z</time>
      </trkpt>
      <trkpt lat="44.3032" lon="9.20921">
        <ele>5.91</ele>
        <time>2019-05-05T08:35:04Z</time>
      </trkpt>
      <trkpt lat="44.30333" lon="9.20896">
        <ele>6.87</ele>
        <time>2019-05-05T08:35:16Z</time>
      </trkpt>
      <trkpt lat="44.30341" lon="9.20869">
        <ele>7.83</ele>
        <time>2019-05-05T08:35:31Z</time>
      </trkpt>
      <trkpt lat="44.30344" lon="9.20856">
        <ele>8.31</ele>
        <time>2019-05-05T08:35:44Z</time>
      </trkpt>
      <trkpt lat="44.30343" lon="9.2085">
        <ele>8.31</ele>
        <time>2019-05-05T08:35:55Z</time>
      </trkpt>
      <trkpt lat="44.30349" lon="9.2084">
        <ele>9.27</ele>
        <time>2019-05-05T08:36:08Z</time>
      </trkpt>
      <trkpt lat="44.30368" lon="9.20832">
        <ele>10.23</ele>
        <time>2019-05-05T08:36:21Z</time>
      </trkpt>
      <trkpt lat="44.30372" lon="9.20823">
        <ele>10.71</ele>
        <time>2019-05-05T08:36:37Z</time>
      </trkpt>
      <trkpt lat="44.30383" lon="9.20816">
        <ele>11.67</ele>
        <time>2019-05-05T08:36:51Z</time>
      </trkpt>
      <trkpt lat="44.30395" lon="9.20815">
        <ele>12.63</ele>
        <time>2019-05-05T08:37:06Z</time>
      </trkpt>
      <trkpt lat="44.30395" lon="9.20809">
        <ele>12.63</ele>
        <time>2019-05-05T08:37:20Z</time>
      </trkpt>
      <trkpt lat="44.30396" lon="9.20807">
        <ele>11.19</ele>
        <time>2019-05-05T08:37:27Z</time>
      </trkpt>
      <trkpt lat="44.30394" lon="9.20804">
        <ele>11.19</ele>
        <time>2019-05-05T08:37:51Z</time>
      </trkpt>
      <trkpt lat="44.30395" lon="9.20807">
        <ele>11.19</ele>
        <time>2019-05-05T08:38:20Z</time>
      </trkpt>
      <trkpt lat="44.30389" lon="9.20808">
        <ele>10.71</ele>
        <time>2019-05-05T08:38:53Z</time>
      </trkpt>
      <trkpt lat="44.30386" lon="9.20807">
        <ele>11.19</ele>
        <time>2019-05-05T08:39:29Z</time>
      </trkpt>
      <trkpt lat="44.30392" lon="9.20812">
        <ele>11.19</ele>
        <time>2019-05-05T08:39:58Z</time>
      </trkpt>
      <trkpt lat="44.30391" lon="9.20809">
        <ele>17.92</ele>
        <time>2019-05-05T08:40:11Z</time>
      </trkpt>
      <trkpt lat="44.30391" lon="9.20809">
        <ele>12.63</ele>
        <time>2019-05-05T08:40:12Z</time>
      </trkpt>
      <trkpt lat="44.30395" lon="9.20803">
        <ele>12.15</ele>
        <time>2019-05-05T08:40:24Z</time>
      </trkpt>
      <trkpt lat="44.30398" lon="9.20802">
        <ele>12.15</ele>
        <time>2019-05-05T08:40:38Z</time>
      </trkpt>
      <trkpt lat="44.304" lon="9.20794">
        <ele>12.63</ele>
        <time>2019-05-05T08:40:55Z</time>
      </trkpt>
      <trkpt lat="44.30403" lon="9.20791">
        <ele>12.63</ele>
        <time>2019-05-05T08:41:18Z</time>
      </trkpt>
      <trkpt lat="44.30404" lon="9.20789">
        <ele>12.63</ele>
        <time>2019-05-05T08:41:36Z</time>
      </trkpt>
      <trkpt lat="44.30402" lon="9.20792">
        <ele>12.15</ele>
        <time>2019-05-05T08:41:58Z</time>
      </trkpt>
      <trkpt lat="44.30402" lon="9.20791">
        <ele>12.15</ele>
        <time>2019-05-05T08:42:22Z</time>
      </trkpt>
      <trkpt lat="44.30404" lon="9.2079">
        <ele>12.15</ele>
        <time>2019-05-05T08:42:47Z</time>
      </trkpt>
      <trkpt lat="44.30401" lon="9.20787">
        <ele>12.15</ele>
        <time>2019-05-05T08:43:09Z</time>
      </trkpt>
      <trkpt lat="44.30399" lon="9.20792">
        <ele>12.15</ele>
        <time>2019-05-05T08:43:25Z</time>
      </trkpt>
      <trkpt lat="44.30401" lon="9.20792">
        <ele>12.15</ele>
        <time>2019-05-05T08:43:42Z</time>
      </trkpt>
      <trkpt lat="44.30401" lon="9.20796">
        <ele>12.63</ele>
        <time>2019-05-05T08:43:58Z</time>
      </trkpt>
      <trkpt lat="44.304" lon="9.20792">
        <ele>12.63</ele>
        <time>2019-05-05T08:44:14Z</time>
      </trkpt>
      <trkpt lat="44.30398" lon="9.20792">
        <ele>12.63</ele>
        <time>2019-05-05T08:44:34Z</time>
      </trkpt>
      <trkpt lat="44.304" lon="9.20793">
        <ele>12.15</ele>
        <time>2019-05-05T08:44:51Z</time>
      </trkpt>
      <trkpt lat="44.304" lon="9.20787">
        <ele>12.15</ele>
        <time>2019-05-05T08:45:15Z</time>
      </trkpt>
      <trkpt lat="44.30402" lon="9.20792">
        <ele>12.15</ele>
        <time>2019-05-05T08:45:33Z</time>
      </trkpt>
      <trkpt lat="44.30404" lon="9.20793">
        <ele>13.6</ele>
        <time>2019-05-05T08:45:50Z</time>
      </trkpt>
      <trkpt lat="44.30407" lon="9.20794">
        <ele>13.6</ele>
        <time>2019-05-05T08:46:08Z</time>
      </trkpt>
      <trkpt lat="44.30408" lon="9.20792">
        <ele>12.15</ele>
        <time>2019-05-05T08:46:35Z</time>
      </trkpt>
      <trkpt lat="44.30407" lon="9.20788">
        <ele>12.15</ele>
        <time>2019-05-05T08:47:00Z</time>
      </trkpt>
      <trkpt lat="44.30405" lon="9.20789">
        <ele>13.12</ele>
        <time>2019-05-05T08:47:18Z</time>
      </trkpt>
      <trkpt lat="44.30408" lon="9.20784">
        <ele>13.12</ele>
        <time>2019-05-05T08:47:38Z</time>
      </trkpt>
      <trkpt lat="44.30408" lon="9.20783">
        <ele>13.12</ele>
        <time>2019-05-05T08:48:03Z</time>
      </trkpt>
      <trkpt lat="44.30403" lon="9.20786">
        <ele>13.12</ele>
        <time>2019-05-05T08:48:22Z</time>
      </trkpt>
      <trkpt lat="44.30406" lon="9.20788">
        <ele>12.63</ele>
        <time>2019-05-05T08:48:43Z</time>
      </trkpt>
      <trkpt lat="44.30399" lon="9.20791">
        <ele>14.56</ele>
        <time>2019-05-05T08:48:57Z</time>
      </trkpt>
      <trkpt lat="44.30397" lon="9.20794">
        <ele>14.56</ele>
        <time>2019-05-05T08:49:01Z</time>
      </trkpt>
      <trkpt lat="44.30398" lon="9.2082">
        <ele>15.04</ele>
        <time>2019-05-05T08:49:17Z</time>
      </trkpt>
      <trkpt lat="44.30398" lon="9.20823">
        <ele>15.04</ele>
        <time>2019-05-05T08:49:19Z</time>
      </trkpt>
      <trkpt lat="44.30397" lon="9.20837">
        <ele>16.48</ele>
        <time>2019-05-05T08:49:32Z</time>
      </trkpt>
      <trkpt lat="44.30396" lon="9.20841">
        <ele>16.96</ele>
        <time>2019-05-05T08:49:35Z</time>
      </trkpt>
      <trkpt lat="44.30397" lon="9.20851">
        <ele>17.92</ele>
        <time>2019-05-05T08:49:41Z</time>
      </trkpt>
      <trkpt lat="44.30401" lon="9.2086">
        <ele>18.4</ele>
        <time>2019-05-05T08:49:47Z</time>
      </trkpt>
      <trkpt lat="44.30403" lon="9.2087">
        <ele>18.4</ele>
        <time>2019-05-05T08:50:04Z</time>
      </trkpt>
      <trkpt lat="44.30406" lon="9.20866">
        <ele>20.32</ele>
        <time>2019-05-05T08:50:15Z</time>
      </trkpt>
      <trkpt lat="44.30408" lon="9.2086">
        <ele>22.25</ele>
        <time>2019-05-05T08:50:30Z</time>
      </trkpt>
      <trkpt lat="44.30407" lon="9.20865">
        <ele>23.69</ele>
        <time>2019-05-05T08:50:42Z</time>
      </trkpt>
      <trkpt lat="44.30405" lon="9.20875">
        <ele>24.17</ele>
        <time>2019-05-05T08:50:54Z</time>
      </trkpt>
      <trkpt lat="44.30406" lon="9.20888">
        <ele>27.05</ele>
        <time>2019-05-05T08:51:08Z</time>
      </trkpt>
      <trkpt lat="44.30406" lon="9.20898">
        <ele>28.5</ele>
        <time>2019-05-05T08:51:21Z</time>
      </trkpt>
      <trkpt lat="44.30409" lon="9.20902">
        <ele>28.98</ele>
        <time>2019-05-05T08:51:40Z</time>
      </trkpt>
      <trkpt lat="44.30408" lon="9.2091">
        <ele>29.94</ele>
        <time>2019-05-05T08:51:52Z</time>
      </trkpt>
      <trkpt lat="44.30406" lon="9.20915">
        <ele>30.9</ele>
        <time>2019-05-05T08:52:05Z</time>
      </trkpt>
      <trkpt lat="44.30408" lon="9.20922">
        <ele>32.34</ele>
        <time>2019-05-05T08:52:21Z</time>
      </trkpt>
      <trkpt lat="44.30413" lon="9.20925">
        <ele>34.74</ele>
        <time>2019-05-05T08:52:35Z</time>
      </trkpt>
      <trkpt lat="44.3041" lon="9.20928">
        <ele>36.67</ele>
        <time>2019-05-05T08:52:50Z</time>
      </trkpt>
      <trkpt lat="44.30403" lon="9.20943">
        <ele>39.55</ele>
        <time>2019-05-05T08:53:07Z</time>
      </trkpt>
      <trkpt lat="44.30401" lon="9.20946">
        <ele>40.03</ele>
        <time>2019-05-05T08:53:10Z</time>
      </trkpt>
      <trkpt lat="44.30401" lon="9.20958">
        <ele>41.47</ele>
        <time>2019-05-05T08:53:26Z</time>
      </trkpt>
      <trkpt lat="44.30402" lon="9.20974">
        <ele>42.92</ele>
        <time>2019-05-05T08:53:40Z</time>
      </trkpt>
      <trkpt lat="44.30408" lon="9.20972">
        <ele>43.88</ele>
        <time>2019-05-05T08:53:53Z</time>
      </trkpt>
      <trkpt lat="44.30414" lon="9.20964">
        <ele>46.28</ele>
        <time>2019-05-05T08:54:05Z</time>
      </trkpt>
      <trkpt lat="44.3042" lon="9.20955">
        <ele>49.16</ele>
        <time>2019-05-05T08:54:21Z</time>
      </trkpt>
      <trkpt lat="44.30419" lon="9.20957">
        <ele>49.65</ele>
        <time>2019-05-05T08:54:26Z</time>
      </trkpt>
      <trkpt lat="44.30411" lon="9.20966">
        <ele>51.57</ele>
        <time>2019-05-05T08:54:43Z</time>
      </trkpt>
      <trkpt lat="44.3041" lon="9.20972">
        <ele>52.53</ele>
        <time>2019-05-05T08:54:59Z</time>
      </trkpt>
      <trkpt lat="44.30409" lon="9.20986">
        <ele>54.93</ele>
        <time>2019-05-05T08:55:14Z</time>
      </trkpt>
      <trkpt lat="44.30416" lon="9.20988">
        <ele>56.86</ele>
        <time>2019-05-05T08:55:27Z</time>
      </trkpt>
      <trkpt lat="44.30422" lon="9.20985">
        <ele>59.26</ele>
        <time>2019-05-05T08:55:43Z</time>
      </trkpt>
      <trkpt lat="44.30418" lon="9.20994">
        <ele>61.66</ele>
        <time>2019-05-05T08:56:03Z</time>
      </trkpt>
      <trkpt lat="44.30418" lon="9.20996">
        <ele>63.58</ele>
        <time>2019-05-05T08:56:06Z</time>
      </trkpt>
      <trkpt lat="44.30416" lon="9.21013">
        <ele>65.51</ele>
        <time>2019-05-05T08:56:25Z</time>
      </trkpt>
      <trkpt lat="44.30416" lon="9.21024">
        <ele>68.87</ele>
        <time>2019-05-05T08:56:39Z</time>
      </trkpt>
      <trkpt lat="44.30419" lon="9.21034">
        <ele>69.83</ele>
        <time>2019-05-05T08:56:54Z</time>
      </trkpt>
      <trkpt lat="44.3043" lon="9.21037">
        <ele>71.76</ele>
        <time>2019-05-05T08:57:10Z</time>
      </trkpt>
      <trkpt lat="44.30433" lon="9.21033">
        <ele>74.64</ele>
        <time>2019-05-05T08:57:22Z</time>
      </trkpt>
      <trkpt lat="44.30435" lon="9.21032">
        <ele>75.12</ele>
        <time>2019-05-05T08:57:24Z</time>
      </trkpt>
      <trkpt lat="44.30442" lon="9.21023">
        <ele>77.52</ele>
        <time>2019-05-05T08:57:38Z</time>
      </trkpt>
      <trkpt lat="44.30451" lon="9.21011">
        <ele>78.48</ele>
        <time>2019-05-05T08:57:53Z</time>
      </trkpt>
      <trkpt lat="44.30452" lon="9.21006">
        <ele>79.45</ele>
        <time>2019-05-05T08:58:06Z</time>
      </trkpt>
      <trkpt lat="44.30453" lon="9.21002">
        <ele>80.41</ele>
        <time>2019-05-05T08:58:26Z</time>
      </trkpt>
      <trkpt lat="44.30455" lon="9.21003">
        <ele>80.41</ele>
        <time>2019-05-05T08:58:37Z</time>
      </trkpt>
      <trkpt lat="44.30453" lon="9.20998">
        <ele>80.41</ele>
        <time>2019-05-05T08:58:54Z</time>
      </trkpt>
      <trkpt lat="44.30453" lon="9.20999">
        <ele>79.45</ele>
        <time>2019-05-05T08:59:22Z</time>
      </trkpt>
      <trkpt lat="44.30456" lon="9.20998">
        <ele>78.48</ele>
        <time>2019-05-05T08:59:53Z</time>
      </trkpt>
      <trkpt lat="44.30456" lon="9.21003">
        <ele>79.93</ele>
        <time>2019-05-05T09:00:07Z</time>
      </trkpt>
      <trkpt lat="44.30457" lon="9.21001">
        <ele>78.97</ele>
        <time>2019-05-05T09:00:11Z</time>
      </trkpt>
      <trkpt lat="44.30466" lon="9.20994">
        <ele>81.37</ele>
        <time>2019-05-05T09:00:27Z</time>
      </trkpt>
      <trkpt lat="44.3048" lon="9.20978">
        <ele>83.29</ele>
        <time>2019-05-05T09:00:44Z</time>
      </trkpt>
      <trkpt lat="44.30488" lon="9.20969">
        <ele>84.25</ele>
        <time>2019-05-05T09:00:56Z</time>
      </trkpt>
      <trkpt lat="44.3049" lon="9.20966">
        <ele>85.69</ele>
        <time>2019-05-05T09:01:00Z</time>
      </trkpt>
      <trkpt lat="44.30499" lon="9.20954">
        <ele>87.14</ele>
        <time>2019-05-05T09:01:12Z</time>
      </trkpt>
      <trkpt lat="44.30507" lon="9.20943">
        <ele>88.1</ele>
        <time>2019-05-05T09:01:27Z</time>
      </trkpt>
      <trkpt lat="44.30516" lon="9.20932">
        <ele>89.06</ele>
        <time>2019-05-05T09:01:42Z</time>
      </trkpt>
      <trkpt lat="44.30523" lon="9.20925">
        <ele>92.42</ele>
        <time>2019-05-05T09:01:53Z</time>
      </trkpt>
      <trkpt lat="44.30527" lon="9.20922">
        <ele>92.9</ele>
        <time>2019-05-05T09:02:00Z</time>
      </trkpt>
      <trkpt lat="44.30537" lon="9.20918">
        <ele>95.79</ele>
        <time>2019-05-05T09:02:15Z</time>
      </trkpt>
      <trkpt lat="44.30544" lon="9.20913">
        <ele>99.15</ele>
        <time>2019-05-05T09:02:26Z</time>
      </trkpt>
      <trkpt lat="44.30552" lon="9.20903">
        <ele>100.11</ele>
        <time>2019-05-05T09:02:38Z</time>
      </trkpt>
      <trkpt lat="44.30559" lon="9.20896">
        <ele>103.48</ele>
        <time>2019-05-05T09:02:51Z</time>
      </trkpt>
      <trkpt lat="44.30566" lon="9.20895">
        <ele>106.36</ele>
        <time>2019-05-05T09:03:03Z</time>
      </trkpt>
      <trkpt lat="44.3058" lon="9.20893">
        <ele>108.77</ele>
        <time>2019-05-05T09:03:20Z</time>
      </trkpt>
      <trkpt lat="44.30591" lon="9.20891">
        <ele>110.21</ele>
        <time>2019-05-05T09:03:34Z</time>
      </trkpt>
      <trkpt lat="44.30604" lon="9.20885">
        <ele>113.09</ele>
        <time>2019-05-05T09:03:50Z</time>
      </trkpt>
      <trkpt lat="44.30616" lon="9.20879">
        <ele>115.01</ele>
        <time>2019-05-05T09:04:07Z</time>
      </trkpt>
      <trkpt lat="44.30628" lon="9.2087">
        <ele>118.38</ele>
        <time>2019-05-05T09:04:23Z</time>
      </trkpt>
      <trkpt lat="44.30638" lon="9.20864">
        <ele>122.22</ele>
        <time>2019-05-05T09:04:37Z</time>
      </trkpt>
      <trkpt lat="44.30638" lon="9.20864">
        <ele>122.22</ele>
        <time>2019-05-05T09:04:38Z</time>
      </trkpt>
      <trkpt lat="44.30645" lon="9.2086">
        <ele>122.71</ele>
        <time>2019-05-05T09:04:51Z</time>
      </trkpt>
      <trkpt lat="44.30654" lon="9.20853">
        <ele>126.07</ele>
        <time>2019-05-05T09:05:05Z</time>
      </trkpt>
      <trkpt lat="44.30669" lon="9.20846">
        <ele>128.47</ele>
        <time>2019-05-05T09:05:25Z</time>
      </trkpt>
      <trkpt lat="44.3068" lon="9.20847">
        <ele>131.36</ele>
        <time>2019-05-05T09:05:40Z</time>
      </trkpt>
      <trkpt lat="44.30687" lon="9.2085">
        <ele>133.28</ele>
        <time>2019-05-05T09:05:53Z</time>
      </trkpt>
      <trkpt lat="44.30697" lon="9.20853">
        <ele>135.68</ele>
        <time>2019-05-05T09:06:08Z</time>
      </trkpt>
      <trkpt lat="44.30709" lon="9.20857">
        <ele>138.57</ele>
        <time>2019-05-05T09:06:23Z</time>
      </trkpt>
      <trkpt lat="44.30712" lon="9.20855">
        <ele>138.57</ele>
        <time>2019-05-05T09:06:26Z</time>
      </trkpt>
      <trkpt lat="44.30723" lon="9.2084">
        <ele>139.05</ele>
        <time>2019-05-05T09:06:41Z</time>
      </trkpt>
      <trkpt lat="44.30728" lon="9.20826">
        <ele>139.53</ele>
        <time>2019-05-05T09:06:53Z</time>
      </trkpt>
      <trkpt lat="44.30733" lon="9.20814">
        <ele>140.49</ele>
        <time>2019-05-05T09:07:07Z</time>
      </trkpt>
      <trkpt lat="44.30738" lon="9.20805">
        <ele>140.97</ele>
        <time>2019-05-05T09:07:17Z</time>
      </trkpt>
      <trkpt lat="44.3074" lon="9.20801">
        <ele>140.97</ele>
        <time>2019-05-05T09:07:20Z</time>
      </trkpt>
      <trkpt lat="44.30744" lon="9.20791">
        <ele>141.93</ele>
        <time>2019-05-05T09:07:28Z</time>
      </trkpt>
      <trkpt lat="44.30749" lon="9.20781">
        <ele>143.37</ele>
        <time>2019-05-05T09:07:37Z</time>
      </trkpt>
      <trkpt lat="44.3075" lon="9.20779">
        <ele>143.37</ele>
        <time>2019-05-05T09:07:39Z</time>
      </trkpt>
      <trkpt lat="44.30755" lon="9.20764">
        <ele>144.34</ele>
        <time>2019-05-05T09:07:50Z</time>
      </trkpt>
      <trkpt lat="44.30762" lon="9.20745">
        <ele>144.82</ele>
        <time>2019-05-05T09:08:04Z</time>
      </trkpt>
      <trkpt lat="44.30767" lon="9.20733">
        <ele>145.3</ele>
        <time>2019-05-05T09:08:15Z</time>
      </trkpt>
      <trkpt lat="44.30774" lon="9.20712">
        <ele>147.22</ele>
        <time>2019-05-05T09:08:30Z</time>
      </trkpt>
      <trkpt lat="44.30775" lon="9.20707">
        <ele>147.7</ele>
        <time>2019-05-05T09:08:42Z</time>
      </trkpt>
      <trkpt lat="44.30773" lon="9.20702">
        <ele>147.7</ele>
        <time>2019-05-05T09:09:00Z</time>
      </trkpt>
      <trkpt lat="44.30776" lon="9.20702">
        <ele>146.74</ele>
        <time>2019-05-05T09:09:17Z</time>
      </trkpt>
      <trkpt lat="44.30774" lon="9.20699">
        <ele>146.26</ele>
        <time>2019-05-05T09:09:43Z</time>
      </trkpt>
      <trkpt lat="44.30774" lon="9.207">
        <ele>146.26</ele>
        <time>2019-05-05T09:09:57Z</time>
      </trkpt>
      <trkpt lat="44.30774" lon="9.207">
        <ele>147.7</ele>
        <time>2019-05-05T09:10:22Z</time>
      </trkpt>
      <trkpt lat="44.30772" lon="9.20701">
        <ele>147.7</ele>
        <time>2019-05-05T09:10:48Z</time>
      </trkpt>
      <trkpt lat="44.30776" lon="9.207">
        <ele>147.7</ele>
        <time>2019-05-05T09:11:14Z</time>
      </trkpt>
      <trkpt lat="44.30778" lon="9.20701">
        <ele>147.7</ele>
        <time>2019-05-05T09:11:36Z</time>
      </trkpt>
      <trkpt lat="44.30779" lon="9.20702">
        <ele>146.74</ele>
        <time>2019-05-05T09:12:03Z</time>
      </trkpt>
      <trkpt lat="44.30783" lon="9.20696">
        <ele>147.7</ele>
        <time>2019-05-05T09:12:21Z</time>
      </trkpt>
      <trkpt lat="44.30783" lon="9.20697">
        <ele>146.26</ele>
        <time>2019-05-05T09:12:40Z</time>
      </trkpt>
      <trkpt lat="44.30782" lon="9.20697">
        <ele>146.26</ele>
        <time>2019-05-05T09:12:58Z</time>
      </trkpt>
      <trkpt lat="44.30782" lon="9.20697">
        <ele>147.7</ele>
        <time>2019-05-05T09:13:21Z</time>
      </trkpt>
      <trkpt lat="44.30791" lon="9.20688">
        <ele>148.66</ele>
        <time>2019-05-05T09:13:34Z</time>
      </trkpt>
      <trkpt lat="44.308" lon="9.20673">
        <ele>150.1</ele>
        <time>2019-05-05T09:13:51Z</time>
      </trkpt>
      <trkpt lat="44.30808" lon="9.20657">
        <ele>151.54</ele>
        <time>2019-05-05T09:14:06Z</time>
      </trkpt>
      <trkpt lat="44.30815" lon="9.20645">
        <ele>152.03</ele>
        <time>2019-05-05T09:14:19Z</time>
      </trkpt>
      <trkpt lat="44.30821" lon="9.20637">
        <ele>152.99</ele>
        <time>2019-05-05T09:14:29Z</time>
      </trkpt>
      <trkpt lat="44.30829" lon="9.20623">
        <ele>153.47</ele>
        <time>2019-05-05T09:14:41Z</time>
      </trkpt>
      <trkpt lat="44.30835" lon="9.20604">
        <ele>154.43</ele>
        <time>2019-05-05T09:14:55Z</time>
      </trkpt>
      <trkpt lat="44.30842" lon="9.20587">
        <ele>154.91</ele>
        <time>2019-05-05T09:15:09Z</time>
      </trkpt>
      <trkpt lat="44.30843" lon="9.20585">
        <ele>154.91</ele>
        <time>2019-05-05T09:15:27Z</time>
      </trkpt>
      <trkpt lat="44.3084" lon="9.20581">
        <ele>154.91</ele>
        <time>2019-05-05T09:15:45Z</time>
      </trkpt>
      <trkpt lat="44.30839" lon="9.20578">
        <ele>154.91</ele>
        <time>2019-05-05T09:16:08Z</time>
      </trkpt>
      <trkpt lat="44.3084" lon="9.20578">
        <ele>153.95</ele>
        <time>2019-05-05T09:16:23Z</time>
      </trkpt>
      <trkpt lat="44.30841" lon="9.20559">
        <ele>154.91</ele>
        <time>2019-05-05T09:16:39Z</time>
      </trkpt>
      <trkpt lat="44.30845" lon="9.20535">
        <ele>156.83</ele>
        <time>2019-05-05T09:16:54Z</time>
      </trkpt>
      <trkpt lat="44.30846" lon="9.20522">
        <ele>158.27</ele>
        <time>2019-05-05T09:17:03Z</time>
      </trkpt>
      <trkpt lat="44.3085" lon="9.20503">
        <ele>158.27</ele>
        <time>2019-05-05T09:17:16Z</time>
      </trkpt>
      <trkpt lat="44.30864" lon="9.20485">
        <ele>158.75</ele>
        <time>2019-05-05T09:17:31Z</time>
      </trkpt>
      <trkpt lat="44.30875" lon="9.20464">
        <ele>158.75</ele>
        <time>2019-05-05T09:17:44Z</time>
      </trkpt>
      <trkpt lat="44.30877" lon="9.20453">
        <ele>159.24</ele>
        <time>2019-05-05T09:17:50Z</time>
      </trkpt>
      <trkpt lat="44.30871" lon="9.20425">
        <ele>161.16</ele>
        <time>2019-05-05T09:18:04Z</time>
      </trkpt>
      <trkpt lat="44.30845" lon="9.20416">
        <ele>161.64</ele>
        <time>2019-05-05T09:18:14Z</time>
      </trkpt>
      <trkpt lat="44.30828" lon="9.2041">
        <ele>163.08</ele>
        <time>2019-05-05T09:18:30Z</time>
      </trkpt>
      <trkpt lat="44.30822" lon="9.2041">
        <ele>163.56</ele>
        <time>2019-05-05T09:18:35Z</time>
      </trkpt>
      <trkpt lat="44.3083" lon="9.20406">
        <ele>163.56</ele>
        <time>2019-05-05T09:18:44Z</time>
      </trkpt>
      <trkpt lat="44.30841" lon="9.20397">
        <ele>164.04</ele>
        <time>2019-05-05T09:18:55Z</time>
      </trkpt>
      <trkpt lat="44.3085" lon="9.2039">
        <ele>164.04</ele>
        <time>2019-05-05T09:19:01Z</time>
      </trkpt>
      <trkpt lat="44.30854" lon="9.20383">
        <ele>164.52</ele>
        <time>2019-05-05T09:19:06Z</time>
      </trkpt>
      <trkpt lat="44.30865" lon="9.20373">
        <ele>164.52</ele>
        <time>2019-05-05T09:19:19Z</time>
      </trkpt>
      <trkpt lat="44.30859" lon="9.2037">
        <ele>165.96</ele>
        <time>2019-05-05T09:19:30Z</time>
      </trkpt>
      <trkpt lat="44.3082" lon="9.20365">
        <ele>166.45</ele>
        <time>2019-05-05T09:19:51Z</time>
      </trkpt>
      <trkpt lat="44.30822" lon="9.20365">
        <ele>165.48</ele>
        <time>2019-05-05T09:20:03Z</time>
      </trkpt>
      <trkpt lat="44.30823" lon="9.20361">
        <ele>165.48</ele>
        <time>2019-05-05T09:20:20Z</time>
      </trkpt>
      <trkpt lat="44.3082" lon="9.20367">
        <ele>165.48</ele>
        <time>2019-05-05T09:20:32Z</time>
      </trkpt>
      <trkpt lat="44.3082" lon="9.2037">
        <ele>165.48</ele>
        <time>2019-05-05T09:20:49Z</time>
      </trkpt>
      <trkpt lat="44.30822" lon="9.20372">
        <ele>166.93</ele>
        <time>2019-05-05T09:21:03Z</time>
      </trkpt>
      <trkpt lat="44.30824" lon="9.20373">
        <ele>165</ele>
        <time>2019-05-05T09:21:19Z</time>
      </trkpt>
      <trkpt lat="44.30824" lon="9.20368">
        <ele>164.52</ele>
        <time>2019-05-05T09:21:31Z</time>
      </trkpt>
      <trkpt lat="44.30821" lon="9.20363">
        <ele>164.52</ele>
        <time>2019-05-05T09:21:45Z</time>
      </trkpt>
      <trkpt lat="44.30822" lon="9.20363">
        <ele>164.52</ele>
        <time>2019-05-05T09:22:06Z</time>
      </trkpt>
      <trkpt lat="44.30823" lon="9.2036">
        <ele>164.52</ele>
        <time>2019-05-05T09:22:24Z</time>
      </trkpt>
      <trkpt lat="44.30824" lon="9.20358">
        <ele>164.52</ele>
        <time>2019-05-05T09:22:52Z</time>
      </trkpt>
      <trkpt lat="44.30825" lon="9.20356">
        <ele>164.52</ele>
        <time>2019-05-05T09:22:54Z</time>
      </trkpt>
      <trkpt lat="44.30834" lon="9.20347">
        <ele>165.48</ele>
        <time>2019-05-05T09:23:08Z</time>
      </trkpt>
      <trkpt lat="44.30835" lon="9.20331">
        <ele>166.45</ele>
        <time>2019-05-05T09:23:22Z</time>
      </trkpt>
      <trkpt lat="44.30835" lon="9.2032">
        <ele>166.45</ele>
        <time>2019-05-05T09:23:31Z</time>
      </trkpt>
      <trkpt lat="44.30834" lon="9.20303">
        <ele>167.89</ele>
        <time>2019-05-05T09:23:45Z</time>
      </trkpt>
      <trkpt lat="44.30832" lon="9.20291">
        <ele>168.85</ele>
        <time>2019-05-05T09:23:59Z</time>
      </trkpt>
      <trkpt lat="44.30828" lon="9.20284">
        <ele>168.85</ele>
        <time>2019-05-05T09:24:17Z</time>
      </trkpt>
      <trkpt lat="44.30828" lon="9.20282">
        <ele>168.85</ele>
        <time>2019-05-05T09:24:42Z</time>
      </trkpt>
      <trkpt lat="44.30827" lon="9.2028">
        <ele>167.41</ele>
        <time>2019-05-05T09:24:48Z</time>
      </trkpt>
      <trkpt lat="44.30823" lon="9.20277">
        <ele>167.41</ele>
        <time>2019-05-05T09:25:00Z</time>
      </trkpt>
      <trkpt lat="44.30818" lon="9.20276">
        <ele>167.41</ele>
        <time>2019-05-05T09:25:06Z</time>
      </trkpt>
      <trkpt lat="44.30805" lon="9.20269">
        <ele>167.41</ele>
        <time>2019-05-05T09:25:20Z</time>
      </trkpt>
      <trkpt lat="44.30793" lon="9.2026">
        <ele>167.41</ele>
        <time>2019-05-05T09:25:34Z</time>
      </trkpt>
      <trkpt lat="44.30781" lon="9.2025">
        <ele>167.41</ele>
        <time>2019-05-05T09:25:49Z</time>
      </trkpt>
      <trkpt lat="44.30771" lon="9.20237">
        <ele>167.41</ele>
        <time>2019-05-05T09:26:03Z</time>
      </trkpt>
      <trkpt lat="44.30765" lon="9.20229">
        <ele>168.37</ele>
        <time>2019-05-05T09:26:19Z</time>
      </trkpt>
      <trkpt lat="44.30761" lon="9.20225">
        <ele>168.37</ele>
        <time>2019-05-05T09:26:40Z</time>
      </trkpt>
      <trkpt lat="44.30769" lon="9.20222">
        <ele>170.77</ele>
        <time>2019-05-05T09:26:56Z</time>
      </trkpt>
      <trkpt lat="44.30769" lon="9.20215">
        <ele>171.25</ele>
        <time>2019-05-05T09:27:11Z</time>
      </trkpt>
      <trkpt lat="44.30775" lon="9.20205">
        <ele>175.1</ele>
        <time>2019-05-05T09:27:22Z</time>
      </trkpt>
      <trkpt lat="44.30777" lon="9.20195">
        <ele>175.58</ele>
        <time>2019-05-05T09:27:33Z</time>
      </trkpt>
      <trkpt lat="44.30776" lon="9.20184">
        <ele>175.58</ele>
        <time>2019-05-05T09:27:44Z</time>
      </trkpt>
      <trkpt lat="44.30775" lon="9.20172">
        <ele>175.58</ele>
        <time>2019-05-05T09:27:57Z</time>
      </trkpt>
      <trkpt lat="44.30775" lon="9.20159">
        <ele>173.17</ele>
        <time>2019-05-05T09:28:13Z</time>
      </trkpt>
      <trkpt lat="44.30774" lon="9.20145">
        <ele>173.17</ele>
        <time>2019-05-05T09:28:22Z</time>
      </trkpt>
      <trkpt lat="44.30772" lon="9.2013">
        <ele>177.02</ele>
        <time>2019-05-05T09:28:37Z</time>
      </trkpt>
      <trkpt lat="44.30768" lon="9.20119">
        <ele>178.46</ele>
        <time>2019-05-05T09:28:52Z</time>
      </trkpt>
      <trkpt lat="44.30764" lon="9.20108">
        <ele>181.35</ele>
        <time>2019-05-05T09:29:07Z</time>
      </trkpt>
      <trkpt lat="44.30758" lon="9.20098">
        <ele>183.75</ele>
        <time>2019-05-05T09:29:24Z</time>
      </trkpt>
      <trkpt lat="44.30756" lon="9.20092">
        <ele>185.19</ele>
        <time>2019-05-05T09:29:36Z</time>
      </trkpt>
      <trkpt lat="44.30753" lon="9.20087">
        <ele>185.67</ele>
        <time>2019-05-05T09:29:49Z</time>
      </trkpt>
      <trkpt lat="44.30749" lon="9.2008">
        <ele>187.59</ele>
        <time>2019-05-05T09:30:04Z</time>
      </trkpt>
      <trkpt lat="44.30745" lon="9.20079">
        <ele>189.04</ele>
        <time>2019-05-05T09:30:21Z</time>
      </trkpt>
      <trkpt lat="44.30742" lon="9.20079">
        <ele>189.04</ele>
        <time>2019-05-05T09:30:47Z</time>
      </trkpt>
      <trkpt lat="44.30742" lon="9.20076">
        <ele>188.08</ele>
        <time>2019-05-05T09:30:57Z</time>
      </trkpt>
      <trkpt lat="44.3074" lon="9.20075">
        <ele>189.04</ele>
        <time>2019-05-05T09:31:09Z</time>
      </trkpt>
      <trkpt lat="44.30738" lon="9.20072">
        <ele>189.04</ele>
        <time>2019-05-05T09:31:36Z</time>
      </trkpt>
      <trkpt lat="44.30734" lon="9.2006">
        <ele>190.96</ele>
        <time>2019-05-05T09:31:51Z</time>
      </trkpt>
      <trkpt lat="44.30733" lon="9.20056">
        <ele>190.48</ele>
        <time>2019-05-05T09:31:58Z</time>
      </trkpt>
      <trkpt lat="44.30735" lon="9.20049">
        <ele>191.44</ele>
        <time>2019-05-05T09:32:14Z</time>
      </trkpt>
      <trkpt lat="44.30739" lon="9.20043">
        <ele>191.44</ele>
        <time>2019-05-05T09:32:26Z</time>
      </trkpt>
      <trkpt lat="44.30746" lon="9.20039">
        <ele>193.36</ele>
        <time>2019-05-05T09:32:43Z</time>
      </trkpt>
      <trkpt lat="44.30755" lon="9.20037">
        <ele>193.36</ele>
        <time>2019-05-05T09:32:53Z</time>
      </trkpt>
      <trkpt lat="44.30769" lon="9.20031">
        <ele>194.32</ele>
        <time>2019-05-05T09:33:08Z</time>
      </trkpt>
      <trkpt lat="44.30774" lon="9.20026">
        <ele>194.32</ele>
        <time>2019-05-05T09:33:20Z</time>
      </trkpt>
      <trkpt lat="44.30789" lon="9.20023">
        <ele>196.25</ele>
        <time>2019-05-05T09:33:34Z</time>
      </trkpt>
      <trkpt lat="44.30802" lon="9.20023">
        <ele>198.17</ele>
        <time>2019-05-05T09:33:49Z</time>
      </trkpt>
      <trkpt lat="44.30813" lon="9.2002">
        <ele>201.53</ele>
        <time>2019-05-05T09:34:05Z</time>
      </trkpt>
      <trkpt lat="44.30825" lon="9.20011">
        <ele>204.42</ele>
        <time>2019-05-05T09:34:24Z</time>
      </trkpt>
      <trkpt lat="44.30836" lon="9.20005">
        <ele>208.26</ele>
        <time>2019-05-05T09:34:42Z</time>
      </trkpt>
      <trkpt lat="44.30841" lon="9.19996">
        <ele>209.7</ele>
        <time>2019-05-05T09:34:56Z</time>
      </trkpt>
      <trkpt lat="44.30852" lon="9.19987">
        <ele>212.11</ele>
        <time>2019-05-05T09:35:11Z</time>
      </trkpt>
      <trkpt lat="44.30861" lon="9.19978">
        <ele>214.99</ele>
        <time>2019-05-05T09:35:24Z</time>
      </trkpt>
      <trkpt lat="44.30872" lon="9.1997">
        <ele>218.36</ele>
        <time>2019-05-05T09:35:40Z</time>
      </trkpt>
      <trkpt lat="44.30881" lon="9.19962">
        <ele>220.76</ele>
        <time>2019-05-05T09:35:56Z</time>
      </trkpt>
      <trkpt lat="44.30892" lon="9.19955">
        <ele>223.64</ele>
        <time>2019-05-05T09:36:12Z</time>
      </trkpt>
      <trkpt lat="44.309" lon="9.1995">
        <ele>225.57</ele>
        <time>2019-05-05T09:36:24Z</time>
      </trkpt>
      <trkpt lat="44.30912" lon="9.19942">
        <ele>226.53</ele>
        <time>2019-05-05T09:36:39Z</time>
      </trkpt>
      <trkpt lat="44.30918" lon="9.19937">
        <ele>225.09</ele>
        <time>2019-05-05T09:36:45Z</time>
      </trkpt>
      <trkpt lat="44.30929" lon="9.19916">
        <ele>223.64</ele>
        <time>2019-05-05T09:37:05Z</time>
      </trkpt>
      <trkpt lat="44.3094" lon="9.19899">
        <ele>223.64</ele>
        <time>2019-05-05T09:37:20Z</time>
      </trkpt>
      <trkpt lat="44.30946" lon="9.1989">
        <ele>224.12</ele>
        <time>2019-05-05T09:37:31Z</time>
      </trkpt>
      <trkpt lat="44.30954" lon="9.19882">
        <ele>223.64</ele>
        <time>2019-05-05T09:37:41Z</time>
      </trkpt>
      <trkpt lat="44.30968" lon="9.19868">
        <ele>223.64</ele>
        <time>2019-05-05T09:37:57Z</time>
      </trkpt>
      <trkpt lat="44.30965" lon="9.19861">
        <ele>223.64</ele>
        <time>2019-05-05T09:38:06Z</time>
      </trkpt>
      <trkpt lat="44.30981" lon="9.19846">
        <ele>222.2</ele>
        <time>2019-05-05T09:38:21Z</time>
      </trkpt>
      <trkpt lat="44.30996" lon="9.19831">
        <ele>223.64</ele>
        <time>2019-05-05T09:38:37Z</time>
      </trkpt>
      <trkpt lat="44.30998" lon="9.1983">
        <ele>223.16</ele>
        <time>2019-05-05T09:38:39Z</time>
      </trkpt>
      <trkpt lat="44.31004" lon="9.19821">
        <ele>223.16</ele>
        <time>2019-05-05T09:38:47Z</time>
      </trkpt>
      <trkpt lat="44.31005" lon="9.19818">
        <ele>224.61</ele>
        <time>2019-05-05T09:38:54Z</time>
      </trkpt>
      <trkpt lat="44.31001" lon="9.19817">
        <ele>224.61</ele>
        <time>2019-05-05T09:39:17Z</time>
      </trkpt>
      <trkpt lat="44.30999" lon="9.19817">
        <ele>224.61</ele>
        <time>2019-05-05T09:39:44Z</time>
      </trkpt>
      <trkpt lat="44.31003" lon="9.19815">
        <ele>224.61</ele>
        <time>2019-05-05T09:40:01Z</time>
      </trkpt>
      <trkpt lat="44.31006" lon="9.19814">
        <ele>224.61</ele>
        <time>2019-05-05T09:40:04Z</time>
      </trkpt>
      <trkpt lat="44.31017" lon="9.19805">
        <ele>225.57</ele>
        <time>2019-05-05T09:40:18Z</time>
      </trkpt>
      <trkpt lat="44.31029" lon="9.19795">
        <ele>227.49</ele>
        <time>2019-05-05T09:40:35Z</time>
      </trkpt>
      <trkpt lat="44.31036" lon="9.1979">
        <ele>228.45</ele>
        <time>2019-05-05T09:40:50Z</time>
      </trkpt>
      <trkpt lat="44.31048" lon="9.19779">
        <ele>229.89</ele>
        <time>2019-05-05T09:41:05Z</time>
      </trkpt>
      <trkpt lat="44.3106" lon="9.19768">
        <ele>231.81</ele>
        <time>2019-05-05T09:41:21Z</time>
      </trkpt>
      <trkpt lat="44.31068" lon="9.19762">
        <ele>234.22</ele>
        <time>2019-05-05T09:41:35Z</time>
      </trkpt>
      <trkpt lat="44.31075" lon="9.19754">
        <ele>236.62</ele>
        <time>2019-05-05T09:41:50Z</time>
      </trkpt>
      <trkpt lat="44.31079" lon="9.19751">
        <ele>237.1</ele>
        <time>2019-05-05T09:42:09Z</time>
      </trkpt>
      <trkpt lat="44.3108" lon="9.19748">
        <ele>236.62</ele>
        <time>2019-05-05T09:42:37Z</time>
      </trkpt>
      <trkpt lat="44.31081" lon="9.19747">
        <ele>236.62</ele>
        <time>2019-05-05T09:42:56Z</time>
      </trkpt>
      <trkpt lat="44.31082" lon="9.19748">
        <ele>236.62</ele>
        <time>2019-05-05T09:43:18Z</time>
      </trkpt>
      <trkpt lat="44.31084" lon="9.19744">
        <ele>236.62</ele>
        <time>2019-05-05T09:43:43Z</time>
      </trkpt>
      <trkpt lat="44.31085" lon="9.19743">
        <ele>238.06</ele>
        <time>2019-05-05T09:43:57Z</time>
      </trkpt>
      <trkpt lat="44.31092" lon="9.19738">
        <ele>239.99</ele>
        <time>2019-05-05T09:44:12Z</time>
      </trkpt>
      <trkpt lat="44.31094" lon="9.19738">
        <ele>240.95</ele>
        <time>2019-05-05T09:44:26Z</time>
      </trkpt>
      <trkpt lat="44.31104" lon="9.19739">
        <ele>244.31</ele>
        <time>2019-05-05T09:44:42Z</time>
      </trkpt>
      <trkpt lat="44.31111" lon="9.19742">
        <ele>247.2</ele>
        <time>2019-05-05T09:44:58Z</time>
      </trkpt>
      <trkpt lat="44.31115" lon="9.19745">
        <ele>249.12</ele>
        <time>2019-05-05T09:45:11Z</time>
      </trkpt>
      <trkpt lat="44.31118" lon="9.19748">
        <ele>249.6</ele>
        <time>2019-05-05T09:45:17Z</time>
      </trkpt>
      <trkpt lat="44.31129" lon="9.1976">
        <ele>251.52</ele>
        <time>2019-05-05T09:45:32Z</time>
      </trkpt>
      <trkpt lat="44.3113" lon="9.19761">
        <ele>250.08</ele>
        <time>2019-05-05T09:45:34Z</time>
      </trkpt>
      <trkpt lat="44.31138" lon="9.19771">
        <ele>249.6</ele>
        <time>2019-05-05T09:45:44Z</time>
      </trkpt>
      <trkpt lat="44.31154" lon="9.19766">
        <ele>248.16</ele>
        <time>2019-05-05T09:45:59Z</time>
      </trkpt>
      <trkpt lat="44.31162" lon="9.19765">
        <ele>246.23</ele>
        <time>2019-05-05T09:46:13Z</time>
      </trkpt>
      <trkpt lat="44.31171" lon="9.19757">
        <ele>246.23</ele>
        <time>2019-05-05T09:46:25Z</time>
      </trkpt>
      <trkpt lat="44.31183" lon="9.19749">
        <ele>245.27</ele>
        <time>2019-05-05T09:46:39Z</time>
      </trkpt>
      <trkpt lat="44.3119" lon="9.19747">
        <ele>244.79</ele>
        <time>2019-05-05T09:46:46Z</time>
      </trkpt>
      <trkpt lat="44.312" lon="9.19746">
        <ele>243.35</ele>
        <time>2019-05-05T09:47:00Z</time>
      </trkpt>
      <trkpt lat="44.31202" lon="9.19746">
        <ele>242.87</ele>
        <time>2019-05-05T09:47:04Z</time>
      </trkpt>
      <trkpt lat="44.3121" lon="9.1974">
        <ele>241.43</ele>
        <time>2019-05-05T09:47:17Z</time>
      </trkpt>
      <trkpt lat="44.31229" lon="9.19728">
        <ele>240.47</ele>
        <time>2019-05-05T09:47:30Z</time>
      </trkpt>
      <trkpt lat="44.31233" lon="9.19725">
        <ele>240.95</ele>
        <time>2019-05-05T09:47:33Z</time>
      </trkpt>
      <trkpt lat="44.3124" lon="9.1972">
        <ele>240.95</ele>
        <time>2019-05-05T09:47:41Z</time>
      </trkpt>
      <trkpt lat="44.31246" lon="9.19715">
        <ele>240.95</ele>
        <time>2019-05-05T09:47:48Z</time>
      </trkpt>
      <trkpt lat="44.31256" lon="9.19711">
        <ele>240.95</ele>
        <time>2019-05-05T09:48:03Z</time>
      </trkpt>
      <trkpt lat="44.31269" lon="9.19708">
        <ele>242.39</ele>
        <time>2019-05-05T09:48:19Z</time>
      </trkpt>
      <trkpt lat="44.3127" lon="9.19707">
        <ele>242.39</ele>
        <time>2019-05-05T09:48:20Z</time>
      </trkpt>
      <trkpt lat="44.31284" lon="9.19702">
        <ele>242.39</ele>
        <time>2019-05-05T09:48:32Z</time>
      </trkpt>
      <trkpt lat="44.31285" lon="9.19702">
        <ele>241.43</ele>
        <time>2019-05-05T09:48:35Z</time>
      </trkpt>
      <trkpt lat="44.31314" lon="9.19701">
        <ele>241.43</ele>
        <time>2019-05-05T09:48:51Z</time>
      </trkpt>
      <trkpt lat="44.31315" lon="9.197">
        <ele>241.43</ele>
        <time>2019-05-05T09:48:52Z</time>
      </trkpt>
      <trkpt lat="44.31325" lon="9.19696">
        <ele>241.43</ele>
        <time>2019-05-05T09:49:01Z</time>
      </trkpt>
      <trkpt lat="44.3133" lon="9.19695">
        <ele>241.43</ele>
        <time>2019-05-05T09:49:08Z</time>
      </trkpt>
      <trkpt lat="44.31346" lon="9.19696">
        <ele>241.91</ele>
        <time>2019-05-05T09:49:21Z</time>
      </trkpt>
      <trkpt lat="44.31349" lon="9.19692">
        <ele>241.91</ele>
        <time>2019-05-05T09:49:25Z</time>
      </trkpt>
      <trkpt lat="44.31363" lon="9.19677">
        <ele>243.35</ele>
        <time>2019-05-05T09:49:35Z</time>
      </trkpt>
      <trkpt lat="44.31373" lon="9.19659">
        <ele>243.35</ele>
        <time>2019-05-05T09:49:49Z</time>
      </trkpt>
      <trkpt lat="44.31382" lon="9.19644">
        <ele>243.35</ele>
        <time>2019-05-05T09:50:04Z</time>
      </trkpt>
      <trkpt lat="44.31388" lon="9.1963">
        <ele>243.83</ele>
        <time>2019-05-05T09:50:20Z</time>
      </trkpt>
      <trkpt lat="44.31385" lon="9.19618">
        <ele>243.83</ele>
        <time>2019-05-05T09:50:36Z</time>
      </trkpt>
      <trkpt lat="44.31378" lon="9.19597">
        <ele>243.83</ele>
        <time>2019-05-05T09:51:06Z</time>
      </trkpt>
      <trkpt lat="44.31371" lon="9.19587">
        <ele>244.31</ele>
        <time>2019-05-05T09:51:38Z</time>
      </trkpt>
      <trkpt lat="44.31373" lon="9.19589">
        <ele>243.83</ele>
        <time>2019-05-05T09:52:08Z</time>
      </trkpt>
      <trkpt lat="44.31372" lon="9.1959">
        <ele>243.83</ele>
        <time>2019-05-05T09:52:30Z</time>
      </trkpt>
      <trkpt lat="44.31376" lon="9.19591">
        <ele>243.83</ele>
        <time>2019-05-05T09:52:52Z</time>
      </trkpt>
      <trkpt lat="44.31381" lon="9.19584">
        <ele>244.31</ele>
        <time>2019-05-05T09:53:23Z</time>
      </trkpt>
      <trkpt lat="44.31382" lon="9.19585">
        <ele>243.83</ele>
        <time>2019-05-05T09:53:51Z</time>
      </trkpt>
      <trkpt lat="44.31383" lon="9.19589">
        <ele>243.83</ele>
        <time>2019-05-05T09:54:10Z</time>
      </trkpt>
      <trkpt lat="44.31381" lon="9.19589">
        <ele>243.83</ele>
        <time>2019-05-05T09:54:31Z</time>
      </trkpt>
      <trkpt lat="44.31382" lon="9.19587">
        <ele>243.83</ele>
        <time>2019-05-05T09:54:48Z</time>
      </trkpt>
      <trkpt lat="44.31385" lon="9.19586">
        <ele>243.83</ele>
        <time>2019-05-05T09:55:09Z</time>
      </trkpt>
      <trkpt lat="44.31385" lon="9.19588">
        <ele>243.83</ele>
        <time>2019-05-05T09:55:25Z</time>
      </trkpt>
      <trkpt lat="44.31386" lon="9.19587">
        <ele>243.83</ele>
        <time>2019-05-05T09:55:47Z</time>
      </trkpt>
      <trkpt lat="44.31383" lon="9.19599">
        <ele>243.83</ele>
        <time>2019-05-05T09:56:04Z</time>
      </trkpt>
      <trkpt lat="44.31381" lon="9.19601">
        <ele>243.83</ele>
        <time>2019-05-05T09:56:22Z</time>
      </trkpt>
      <trkpt lat="44.31379" lon="9.196">
        <ele>243.83</ele>
        <time>2019-05-05T09:56:50Z</time>
      </trkpt>
      <trkpt lat="44.31378" lon="9.19602">
        <ele>243.83</ele>
        <time>2019-05-05T09:57:16Z</time>
      </trkpt>
      <trkpt lat="44.3138" lon="9.19597">
        <ele>243.35</ele>
        <time>2019-05-05T09:57:42Z</time>
      </trkpt>
      <trkpt lat="44.31383" lon="9.19592">
        <ele>243.35</ele>
        <time>2019-05-05T09:58:01Z</time>
      </trkpt>
      <trkpt lat="44.31383" lon="9.19591">
        <ele>244.31</ele>
        <time>2019-05-05T09:58:03Z</time>
      </trkpt>
      <trkpt lat="44.31385" lon="9.19585">
        <ele>247.2</ele>
        <time>2019-05-05T09:58:19Z</time>
      </trkpt>
      <trkpt lat="44.31388" lon="9.1957">
        <ele>249.12</ele>
        <time>2019-05-05T09:58:35Z</time>
      </trkpt>
      <trkpt lat="44.31394" lon="9.19558">
        <ele>249.12</ele>
        <time>2019-05-05T09:58:49Z</time>
      </trkpt>
      <trkpt lat="44.31399" lon="9.19551">
        <ele>249.12</ele>
        <time>2019-05-05T09:58:58Z</time>
      </trkpt>
      <trkpt lat="44.31405" lon="9.19548">
        <ele>249.12</ele>
        <time>2019-05-05T09:59:04Z</time>
      </trkpt>
      <trkpt lat="44.31416" lon="9.19549">
        <ele>249.6</ele>
        <time>2019-05-05T09:59:18Z</time>
      </trkpt>
      <trkpt lat="44.31418" lon="9.19549">
        <ele>250.56</ele>
        <time>2019-05-05T09:59:31Z</time>
      </trkpt>
      <trkpt lat="44.31423" lon="9.19547">
        <ele>252</ele>
        <time>2019-05-05T09:59:44Z</time>
      </trkpt>
      <trkpt lat="44.31426" lon="9.19542">
        <ele>252.96</ele>
        <time>2019-05-05T10:00:00Z</time>
      </trkpt>
      <trkpt lat="44.31428" lon="9.19533">
        <ele>253.93</ele>
        <time>2019-05-05T10:00:15Z</time>
      </trkpt>
      <trkpt lat="44.31428" lon="9.19528">
        <ele>254.41</ele>
        <time>2019-05-05T10:00:32Z</time>
      </trkpt>
      <trkpt lat="44.31429" lon="9.19522">
        <ele>254.41</ele>
        <time>2019-05-05T10:00:52Z</time>
      </trkpt>
      <trkpt lat="44.31425" lon="9.19517">
        <ele>254.41</ele>
        <time>2019-05-05T10:01:09Z</time>
      </trkpt>
      <trkpt lat="44.31425" lon="9.19518">
        <ele>253.44</ele>
        <time>2019-05-05T10:01:11Z</time>
      </trkpt>
      <trkpt lat="44.31427" lon="9.19522">
        <ele>252.96</ele>
        <time>2019-05-05T10:01:33Z</time>
      </trkpt>
      <trkpt lat="44.31431" lon="9.19531">
        <ele>252.48</ele>
        <time>2019-05-05T10:01:53Z</time>
      </trkpt>
      <trkpt lat="44.3143" lon="9.19532">
        <ele>252.48</ele>
        <time>2019-05-05T10:02:22Z</time>
      </trkpt>
      <trkpt lat="44.31441" lon="9.19528">
        <ele>252.48</ele>
        <time>2019-05-05T10:02:53Z</time>
      </trkpt>
      <trkpt lat="44.31439" lon="9.19529">
        <ele>252.48</ele>
        <time>2019-05-05T10:03:19Z</time>
      </trkpt>
      <trkpt lat="44.31435" lon="9.1952">
        <ele>252.96</ele>
        <time>2019-05-05T10:03:56Z</time>
      </trkpt>
      <trkpt lat="44.31436" lon="9.19518">
        <ele>252.96</ele>
        <time>2019-05-05T10:04:27Z</time>
      </trkpt>
      <trkpt lat="44.31435" lon="9.19519">
        <ele>252.96</ele>
        <time>2019-05-05T10:05:01Z</time>
      </trkpt>
      <trkpt lat="44.31435" lon="9.19522">
        <ele>253.44</ele>
        <time>2019-05-05T10:05:35Z</time>
      </trkpt>
      <trkpt lat="44.31433" lon="9.19522">
        <ele>253.44</ele>
        <time>2019-05-05T10:05:52Z</time>
      </trkpt>
      <trkpt lat="44.31435" lon="9.19526">
        <ele>253.44</ele>
        <time>2019-05-05T10:06:18Z</time>
      </trkpt>
      <trkpt lat="44.31438" lon="9.19523">
        <ele>253.44</ele>
        <time>2019-05-05T10:06:48Z</time>
      </trkpt>
      <trkpt lat="44.31431" lon="9.19523">
        <ele>253.44</ele>
        <time>2019-05-05T10:07:09Z</time>
      </trkpt>
      <trkpt lat="44.31432" lon="9.19516">
        <ele>253.44</ele>
        <time>2019-05-05T10:07:41Z</time>
      </trkpt>
      <trkpt lat="44.31428" lon="9.19517">
        <ele>253.44</ele>
        <time>2019-05-05T10:08:05Z</time>
      </trkpt>
      <trkpt lat="44.31428" lon="9.19512">
        <ele>253.93</ele>
        <time>2019-05-05T10:08:29Z</time>
      </trkpt>
      <trkpt lat="44.31427" lon="9.19518">
        <ele>253.44</ele>
        <time>2019-05-05T10:08:53Z</time>
      </trkpt>
      <trkpt lat="44.31427" lon="9.19521">
        <ele>253.44</ele>
        <time>2019-05-05T10:09:27Z</time>
      </trkpt>
      <trkpt lat="44.31429" lon="9.19522">
        <ele>253.93</ele>
        <time>2019-05-05T10:09:58Z</time>
      </trkpt>
      <trkpt lat="44.31426" lon="9.19525">
        <ele>253.93</ele>
        <time>2019-05-05T10:10:18Z</time>
      </trkpt>
      <trkpt lat="44.31433" lon="9.19523">
        <ele>253.93</ele>
        <time>2019-05-05T10:10:38Z</time>
      </trkpt>
      <trkpt lat="44.31434" lon="9.19523">
        <ele>254.41</ele>
        <time>2019-05-05T10:11:10Z</time>
      </trkpt>
      <trkpt lat="44.3143" lon="9.19524">
        <ele>254.41</ele>
        <time>2019-05-05T10:11:22Z</time>
      </trkpt>
      <trkpt lat="44.31428" lon="9.1953">
        <ele>254.41</ele>
        <time>2019-05-05T10:11:40Z</time>
      </trkpt>
      <trkpt lat="44.31431" lon="9.1953">
        <ele>253.93</ele>
        <time>2019-05-05T10:12:06Z</time>
      </trkpt>
      <trkpt lat="44.31437" lon="9.19528">
        <ele>253.93</ele>
        <time>2019-05-05T10:12:41Z</time>
      </trkpt>
      <trkpt lat="44.31434" lon="9.19524">
        <ele>253.93</ele>
        <time>2019-05-05T10:13:10Z</time>
      </trkpt>
      <trkpt lat="44.31438" lon="9.19522">
        <ele>254.41</ele>
        <time>2019-05-05T10:13:42Z</time>
      </trkpt>
      <trkpt lat="44.31434" lon="9.19524">
        <ele>254.41</ele>
        <time>2019-05-05T10:14:18Z</time>
      </trkpt>
      <trkpt lat="44.31428" lon="9.19524">
        <ele>254.41</ele>
        <time>2019-05-05T10:14:47Z</time>
      </trkpt>
      <trkpt lat="44.31429" lon="9.19525">
        <ele>254.89</ele>
        <time>2019-05-05T10:15:12Z</time>
      </trkpt>
      <trkpt lat="44.31428" lon="9.19518">
        <ele>254.89</ele>
        <time>2019-05-05T10:15:48Z</time>
      </trkpt>
      <trkpt lat="44.31432" lon="9.19518">
        <ele>255.37</ele>
        <time>2019-05-05T10:16:24Z</time>
      </trkpt>
      <trkpt lat="44.31436" lon="9.19525">
        <ele>255.37</ele>
        <time>2019-05-05T10:16:56Z</time>
      </trkpt>
      <trkpt lat="44.31439" lon="9.19523">
        <ele>255.37</ele>
        <time>2019-05-05T10:17:30Z</time>
      </trkpt>
      <trkpt lat="44.31431" lon="9.19518">
        <ele>255.85</ele>
        <time>2019-05-05T10:18:06Z</time>
      </trkpt>
      <trkpt lat="44.31426" lon="9.19518">
        <ele>255.85</ele>
        <time>2019-05-05T10:18:42Z</time>
      </trkpt>
      <trkpt lat="44.31428" lon="9.19514">
        <ele>256.33</ele>
        <time>2019-05-05T10:19:21Z</time>
      </trkpt>
      <trkpt lat="44.31428" lon="9.19514">
        <ele>257.77</ele>
        <time>2019-05-05T10:19:24Z</time>
      </trkpt>
      <trkpt lat="44.3143" lon="9.19521">
        <ele>257.77</ele>
        <time>2019-05-05T10:20:00Z</time>
      </trkpt>
      <trkpt lat="44.31435" lon="9.19526">
        <ele>257.77</ele>
        <time>2019-05-05T10:20:31Z</time>
      </trkpt>
      <trkpt lat="44.31428" lon="9.19522">
        <ele>258.25</ele>
        <time>2019-05-05T10:21:02Z</time>
      </trkpt>
      <trkpt lat="44.3143" lon="9.19529">
        <ele>258.25</ele>
        <time>2019-05-05T10:21:37Z</time>
      </trkpt>
      <trkpt lat="44.31435" lon="9.19528">
        <ele>258.73</ele>
        <time>2019-05-05T10:22:15Z</time>
      </trkpt>
      <trkpt lat="44.31434" lon="9.19522">
        <ele>258.73</ele>
        <time>2019-05-05T10:22:47Z</time>
      </trkpt>
      <trkpt lat="44.31431" lon="9.19522">
        <ele>259.21</ele>
        <time>2019-05-05T10:23:19Z</time>
      </trkpt>
      <trkpt lat="44.31421" lon="9.19518">
        <ele>259.69</ele>
        <time>2019-05-05T10:23:52Z</time>
      </trkpt>
      <trkpt lat="44.3142" lon="9.19517">
        <ele>259.69</ele>
        <time>2019-05-05T10:24:22Z</time>
      </trkpt>
      <trkpt lat="44.3143" lon="9.1952">
        <ele>260.17</ele>
        <time>2019-05-05T10:25:00Z</time>
      </trkpt>
      <trkpt lat="44.3143" lon="9.19524">
        <ele>260.17</ele>
        <time>2019-05-05T10:25:31Z</time>
      </trkpt>
      <trkpt lat="44.3144" lon="9.19534">
        <ele>260.65</ele>
        <time>2019-05-05T10:26:10Z</time>
      </trkpt>
      <trkpt lat="44.31437" lon="9.19539">
        <ele>260.65</ele>
        <time>2019-05-05T10:26:47Z</time>
      </trkpt>
      <trkpt lat="44.3144" lon="9.19531">
        <ele>261.14</ele>
        <time>2019-05-05T10:27:27Z</time>
      </trkpt>
      <trkpt lat="44.31438" lon="9.19528">
        <ele>261.14</ele>
        <time>2019-05-05T10:28:08Z</time>
      </trkpt>
      <trkpt lat="44.31439" lon="9.19531">
        <ele>261.62</ele>
        <time>2019-05-05T10:28:49Z</time>
      </trkpt>
      <trkpt lat="44.3143" lon="9.19524">
        <ele>261.62</ele>
        <time>2019-05-05T10:29:23Z</time>
      </trkpt>
      <trkpt lat="44.31432" lon="9.19523">
        <ele>262.1</ele>
        <time>2019-05-05T10:29:55Z</time>
      </trkpt>
      <trkpt lat="44.31435" lon="9.19527">
        <ele>262.58</ele>
        <time>2019-05-05T10:30:30Z</time>
      </trkpt>
      <trkpt lat="44.31435" lon="9.19529">
        <ele>262.58</ele>
        <time>2019-05-05T10:31:00Z</time>
      </trkpt>
      <trkpt lat="44.31437" lon="9.19529">
        <ele>263.06</ele>
        <time>2019-05-05T10:31:24Z</time>
      </trkpt>
      <trkpt lat="44.31436" lon="9.19532">
        <ele>263.06</ele>
        <time>2019-05-05T10:31:58Z</time>
      </trkpt>
      <trkpt lat="44.31441" lon="9.19533">
        <ele>262.58</ele>
        <time>2019-05-05T10:32:35Z</time>
      </trkpt>
      <trkpt lat="44.31432" lon="9.19534">
        <ele>262.58</ele>
        <time>2019-05-05T10:33:09Z</time>
      </trkpt>
      <trkpt lat="44.3144" lon="9.1953">
        <ele>261.14</ele>
        <time>2019-05-05T10:33:42Z</time>
      </trkpt>
      <trkpt lat="44.31441" lon="9.19531">
        <ele>261.14</ele>
        <time>2019-05-05T10:34:14Z</time>
      </trkpt>
      <trkpt lat="44.3144" lon="9.19535">
        <ele>260.65</ele>
        <time>2019-05-05T10:34:43Z</time>
      </trkpt>
      <trkpt lat="44.31442" lon="9.1954">
        <ele>260.65</ele>
        <time>2019-05-05T10:35:16Z</time>
      </trkpt>
      <trkpt lat="44.31436" lon="9.19534">
        <ele>260.17</ele>
        <time>2019-05-05T10:35:44Z</time>
      </trkpt>
      <trkpt lat="44.31431" lon="9.19534">
        <ele>261.14</ele>
        <time>2019-05-05T10:36:15Z</time>
      </trkpt>
      <trkpt lat="44.31432" lon="9.19531">
        <ele>261.14</ele>
        <time>2019-05-05T10:36:47Z</time>
      </trkpt>
      <trkpt lat="44.31437" lon="9.19532">
        <ele>260.65</ele>
        <time>2019-05-05T10:37:24Z</time>
      </trkpt>
      <trkpt lat="44.31434" lon="9.19532">
        <ele>260.65</ele>
        <time>2019-05-05T10:37:58Z</time>
      </trkpt>
      <trkpt lat="44.31434" lon="9.19538">
        <ele>260.17</ele>
        <time>2019-05-05T10:38:38Z</time>
      </trkpt>
      <trkpt lat="44.31437" lon="9.19533">
        <ele>260.17</ele>
        <time>2019-05-05T10:39:15Z</time>
      </trkpt>
      <trkpt lat="44.31436" lon="9.19531">
        <ele>260.17</ele>
        <time>2019-05-05T10:39:46Z</time>
      </trkpt>
      <trkpt lat="44.3144" lon="9.19532">
        <ele>259.69</ele>
        <time>2019-05-05T10:40:13Z</time>
      </trkpt>
      <trkpt lat="44.31437" lon="9.19529">
        <ele>259.21</ele>
        <time>2019-05-05T10:40:48Z</time>
      </trkpt>
      <trkpt lat="44.31435" lon="9.19531">
        <ele>257.77</ele>
        <time>2019-05-05T10:41:27Z</time>
      </trkpt>
      <trkpt lat="44.31435" lon="9.19533">
        <ele>257.29</ele>
        <time>2019-05-05T10:41:57Z</time>
      </trkpt>
      <trkpt lat="44.31439" lon="9.19533">
        <ele>257.29</ele>
        <time>2019-05-05T10:42:32Z</time>
      </trkpt>
      <trkpt lat="44.31438" lon="9.19533">
        <ele>256.81</ele>
        <time>2019-05-05T10:43:04Z</time>
      </trkpt>
      <trkpt lat="44.31432" lon="9.19531">
        <ele>256.33</ele>
        <time>2019-05-05T10:43:36Z</time>
      </trkpt>
      <trkpt lat="44.31433" lon="9.19533">
        <ele>257.77</ele>
        <time>2019-05-05T10:43:54Z</time>
      </trkpt>
      <trkpt lat="44.31433" lon="9.19531">
        <ele>253.93</ele>
        <time>2019-05-05T10:44:15Z</time>
      </trkpt>
      <trkpt lat="44.31434" lon="9.1953">
        <ele>259.21</ele>
        <time>2019-05-05T10:44:17Z</time>
      </trkpt>
      <trkpt lat="44.31434" lon="9.1953">
        <ele>255.85</ele>
        <time>2019-05-05T10:44:18Z</time>
      </trkpt>
      <trkpt lat="44.31434" lon="9.19528">
        <ele>256.81</ele>
        <time>2019-05-05T10:44:31Z</time>
      </trkpt>
      <trkpt lat="44.3143" lon="9.19523">
        <ele>258.25</ele>
        <time>2019-05-05T10:44:43Z</time>
      </trkpt>
      <trkpt lat="44.31431" lon="9.1952">
        <ele>255.85</ele>
        <time>2019-05-05T10:44:45Z</time>
      </trkpt>
      <trkpt lat="44.31426" lon="9.19517">
        <ele>252.96</ele>
        <time>2019-05-05T10:44:53Z</time>
      </trkpt>
      <trkpt lat="44.31426" lon="9.19519">
        <ele>255.37</ele>
        <time>2019-05-05T10:44:54Z</time>
      </trkpt>
      <trkpt lat="44.31426" lon="9.1952">
        <ele>258.25</ele>
        <time>2019-05-05T10:44:55Z</time>
      </trkpt>
      <trkpt lat="44.31425" lon="9.19523">
        <ele>253.93</ele>
        <time>2019-05-05T10:45:01Z</time>
      </trkpt>
      <trkpt lat="44.31427" lon="9.19532">
        <ele>255.85</ele>
        <time>2019-05-05T10:45:13Z</time>
      </trkpt>
      <trkpt lat="44.31423" lon="9.19533">
        <ele>253.44</ele>
        <time>2019-05-05T10:45:19Z</time>
      </trkpt>
      <trkpt lat="44.31419" lon="9.19531">
        <ele>255.37</ele>
        <time>2019-05-05T10:45:28Z</time>
      </trkpt>
      <trkpt lat="44.31419" lon="9.1953">
        <ele>252</ele>
        <time>2019-05-05T10:45:29Z</time>
      </trkpt>
      <trkpt lat="44.31419" lon="9.1953">
        <ele>252</ele>
        <time>2019-05-05T10:45:30Z</time>
      </trkpt>
      <trkpt lat="44.31419" lon="9.19531">
        <ele>253.93</ele>
        <time>2019-05-05T10:45:33Z</time>
      </trkpt>
      <trkpt lat="44.31419" lon="9.19531">
        <ele>252</ele>
        <time>2019-05-05T10:45:35Z</time>
      </trkpt>
      <trkpt lat="44.31418" lon="9.19532">
        <ele>253.93</ele>
        <time>2019-05-05T10:45:37Z</time>
      </trkpt>
      <trkpt lat="44.31418" lon="9.19533">
        <ele>250.56</ele>
        <time>2019-05-05T10:45:38Z</time>
      </trkpt>
      <trkpt lat="44.31417" lon="9.19533">
        <ele>252.48</ele>
        <time>2019-05-05T10:45:39Z</time>
      </trkpt>
      <trkpt lat="44.31412" lon="9.19536">
        <ele>253.93</ele>
        <time>2019-05-05T10:45:44Z</time>
      </trkpt>
      <trkpt lat="44.31412" lon="9.19537">
        <ele>252.48</ele>
        <time>2019-05-05T10:45:47Z</time>
      </trkpt>
      <trkpt lat="44.3141" lon="9.19542">
        <ele>253.44</ele>
        <time>2019-05-05T10:45:59Z</time>
      </trkpt>
      <trkpt lat="44.31406" lon="9.19538">
        <ele>254.89</ele>
        <time>2019-05-05T10:46:22Z</time>
      </trkpt>
      <trkpt lat="44.31406" lon="9.19537">
        <ele>255.37</ele>
        <time>2019-05-05T10:46:26Z</time>
      </trkpt>
      <trkpt lat="44.31403" lon="9.19526">
        <ele>256.33</ele>
        <time>2019-05-05T10:46:43Z</time>
      </trkpt>
      <trkpt lat="44.31405" lon="9.19524">
        <ele>255.85</ele>
        <time>2019-05-05T10:47:05Z</time>
      </trkpt>
      <trkpt lat="44.31405" lon="9.19524">
        <ele>252.96</ele>
        <time>2019-05-05T10:47:13Z</time>
      </trkpt>
      <trkpt lat="44.31404" lon="9.19524">
        <ele>258.25</ele>
        <time>2019-05-05T10:47:14Z</time>
      </trkpt>
      <trkpt lat="44.31402" lon="9.19522">
        <ele>256.81</ele>
        <time>2019-05-05T10:47:25Z</time>
      </trkpt>
      <trkpt lat="44.31401" lon="9.19517">
        <ele>257.29</ele>
        <time>2019-05-05T10:47:50Z</time>
      </trkpt>
      <trkpt lat="44.31402" lon="9.19518">
        <ele>255.85</ele>
        <time>2019-05-05T10:48:01Z</time>
      </trkpt>
      <trkpt lat="44.31401" lon="9.1952">
        <ele>256.81</ele>
        <time>2019-05-05T10:48:25Z</time>
      </trkpt>
      <trkpt lat="44.31398" lon="9.19522">
        <ele>253.93</ele>
        <time>2019-05-05T10:48:47Z</time>
      </trkpt>
      <trkpt lat="44.31398" lon="9.19522">
        <ele>257.29</ele>
        <time>2019-05-05T10:48:48Z</time>
      </trkpt>
      <trkpt lat="44.31399" lon="9.19525">
        <ele>255.37</ele>
        <time>2019-05-05T10:49:06Z</time>
      </trkpt>
      <trkpt lat="44.31395" lon="9.19528">
        <ele>254.89</ele>
        <time>2019-05-05T10:49:38Z</time>
      </trkpt>
      <trkpt lat="44.31395" lon="9.19527">
        <ele>254.89</ele>
        <time>2019-05-05T10:50:13Z</time>
      </trkpt>
      <trkpt lat="44.31396" lon="9.19527">
        <ele>254.89</ele>
        <time>2019-05-05T10:50:45Z</time>
      </trkpt>
      <trkpt lat="44.31394" lon="9.19527">
        <ele>254.89</ele>
        <time>2019-05-05T10:51:25Z</time>
      </trkpt>
      <trkpt lat="44.31395" lon="9.19525">
        <ele>254.89</ele>
        <time>2019-05-05T10:52:00Z</time>
      </trkpt>
      <trkpt lat="44.31396" lon="9.19525">
        <ele>254.89</ele>
        <time>2019-05-05T10:52:33Z</time>
      </trkpt>
      <trkpt lat="44.31394" lon="9.19525">
        <ele>254.89</ele>
        <time>2019-05-05T10:53:09Z</time>
      </trkpt>
      <trkpt lat="44.31394" lon="9.19526">
        <ele>254.89</ele>
        <time>2019-05-05T10:53:45Z</time>
      </trkpt>
      <trkpt lat="44.31394" lon="9.19527">
        <ele>254.89</ele>
        <time>2019-05-05T10:54:23Z</time>
      </trkpt>
      <trkpt lat="44.31395" lon="9.19528">
        <ele>254.89</ele>
        <time>2019-05-05T10:54:54Z</time>
      </trkpt>
      <trkpt lat="44.31393" lon="9.19526">
        <ele>254.89</ele>
        <time>2019-05-05T10:55:35Z</time>
      </trkpt>
      <trkpt lat="44.31395" lon="9.19527">
        <ele>254.41</ele>
        <time>2019-05-05T10:56:15Z</time>
      </trkpt>
      <trkpt lat="44.31396" lon="9.19528">
        <ele>254.41</ele>
        <time>2019-05-05T10:56:45Z</time>
      </trkpt>
      <trkpt lat="44.31397" lon="9.19525">
        <ele>254.89</ele>
        <time>2019-05-05T10:57:15Z</time>
      </trkpt>
      <trkpt lat="44.31398" lon="9.19526">
        <ele>254.89</ele>
        <time>2019-05-05T10:57:47Z</time>
      </trkpt>
      <trkpt lat="44.31397" lon="9.19524">
        <ele>254.89</ele>
        <time>2019-05-05T10:58:17Z</time>
      </trkpt>
      <trkpt lat="44.31396" lon="9.19525">
        <ele>254.41</ele>
        <time>2019-05-05T10:58:55Z</time>
      </trkpt>
      <trkpt lat="44.31397" lon="9.19525">
        <ele>253.93</ele>
        <time>2019-05-05T10:59:22Z</time>
      </trkpt>
      <trkpt lat="44.31398" lon="9.19525">
        <ele>255.37</ele>
        <time>2019-05-05T10:59:59Z</time>
      </trkpt>
      <trkpt lat="44.31397" lon="9.19527">
        <ele>253.93</ele>
        <time>2019-05-05T11:00:35Z</time>
      </trkpt>
      <trkpt lat="44.31399" lon="9.19526">
        <ele>254.89</ele>
        <time>2019-05-05T11:01:03Z</time>
      </trkpt>
      <trkpt lat="44.31402" lon="9.19521">
        <ele>255.85</ele>
        <time>2019-05-05T11:01:14Z</time>
      </trkpt>
      <trkpt lat="44.31404" lon="9.19521">
        <ele>254.41</ele>
        <time>2019-05-05T11:01:28Z</time>
      </trkpt>
      <trkpt lat="44.31405" lon="9.19521">
        <ele>254.41</ele>
        <time>2019-05-05T11:01:42Z</time>
      </trkpt>
      <trkpt lat="44.31406" lon="9.19524">
        <ele>252.48</ele>
        <time>2019-05-05T11:02:01Z</time>
      </trkpt>
      <trkpt lat="44.31406" lon="9.19527">
        <ele>251.52</ele>
        <time>2019-05-05T11:02:16Z</time>
      </trkpt>
      <trkpt lat="44.31406" lon="9.19527">
        <ele>251.04</ele>
        <time>2019-05-05T11:02:32Z</time>
      </trkpt>
      <trkpt lat="44.31405" lon="9.19529">
        <ele>250.08</ele>
        <time>2019-05-05T11:02:46Z</time>
      </trkpt>
      <trkpt lat="44.31407" lon="9.19531">
        <ele>250.56</ele>
        <time>2019-05-05T11:02:57Z</time>
      </trkpt>
      <trkpt lat="44.3141" lon="9.19535">
        <ele>250.56</ele>
        <time>2019-05-05T11:03:09Z</time>
      </trkpt>
      <trkpt lat="44.31417" lon="9.19529">
        <ele>250.56</ele>
        <time>2019-05-05T11:03:22Z</time>
      </trkpt>
      <trkpt lat="44.3142" lon="9.19536">
        <ele>252</ele>
        <time>2019-05-05T11:03:35Z</time>
      </trkpt>
      <trkpt lat="44.31426" lon="9.19537">
        <ele>252.96</ele>
        <time>2019-05-05T11:03:47Z</time>
      </trkpt>
      <trkpt lat="44.31428" lon="9.19532">
        <ele>254.41</ele>
        <time>2019-05-05T11:03:59Z</time>
      </trkpt>
      <trkpt lat="44.31426" lon="9.19539">
        <ele>255.37</ele>
        <time>2019-05-05T11:04:16Z</time>
      </trkpt>
      <trkpt lat="44.31426" lon="9.19539">
        <ele>253.44</ele>
        <time>2019-05-05T11:04:18Z</time>
      </trkpt>
      <trkpt lat="44.31426" lon="9.19539">
        <ele>254.89</ele>
        <time>2019-05-05T11:04:20Z</time>
      </trkpt>
      <trkpt lat="44.31425" lon="9.19518">
        <ele>254.89</ele>
        <time>2019-05-05T11:04:44Z</time>
      </trkpt>
      <trkpt lat="44.3142" lon="9.19511">
        <ele>254.41</ele>
        <time>2019-05-05T11:05:04Z</time>
      </trkpt>
      <trkpt lat="44.31425" lon="9.19529">
        <ele>254.41</ele>
        <time>2019-05-05T11:05:36Z</time>
      </trkpt>
      <trkpt lat="44.3143" lon="9.19528">
        <ele>254.41</ele>
        <time>2019-05-05T11:06:03Z</time>
      </trkpt>
      <trkpt lat="44.3143" lon="9.19527">
        <ele>255.85</ele>
        <time>2019-05-05T11:06:18Z</time>
      </trkpt>
      <trkpt lat="44.31427" lon="9.19527">
        <ele>255.85</ele>
        <time>2019-05-05T11:06:40Z</time>
      </trkpt>
      <trkpt lat="44.31428" lon="9.19529">
        <ele>254.41</ele>
        <time>2019-05-05T11:07:02Z</time>
      </trkpt>
      <trkpt lat="44.31429" lon="9.1953">
        <ele>254.41</ele>
        <time>2019-05-05T11:07:32Z</time>
      </trkpt>
      <trkpt lat="44.31425" lon="9.19525">
        <ele>253.93</ele>
        <time>2019-05-05T11:07:55Z</time>
      </trkpt>
      <trkpt lat="44.31427" lon="9.19522">
        <ele>253.44</ele>
        <time>2019-05-05T11:08:21Z</time>
      </trkpt>
      <trkpt lat="44.31429" lon="9.19525">
        <ele>253.44</ele>
        <time>2019-05-05T11:08:38Z</time>
      </trkpt>
      <trkpt lat="44.31427" lon="9.19524">
        <ele>254.41</ele>
        <time>2019-05-05T11:08:58Z</time>
      </trkpt>
      <trkpt lat="44.31429" lon="9.19527">
        <ele>252.96</ele>
        <time>2019-05-05T11:09:18Z</time>
      </trkpt>
      <trkpt lat="44.31428" lon="9.19526">
        <ele>252.96</ele>
        <time>2019-05-05T11:09:36Z</time>
      </trkpt>
      <trkpt lat="44.3143" lon="9.19522">
        <ele>252.96</ele>
        <time>2019-05-05T11:09:58Z</time>
      </trkpt>
      <trkpt lat="44.3143" lon="9.19518">
        <ele>252.96</ele>
        <time>2019-05-05T11:10:20Z</time>
      </trkpt>
      <trkpt lat="44.31425" lon="9.19517">
        <ele>252.96</ele>
        <time>2019-05-05T11:10:43Z</time>
      </trkpt>
      <trkpt lat="44.31423" lon="9.19529">
        <ele>252</ele>
        <time>2019-05-05T11:11:01Z</time>
      </trkpt>
      <trkpt lat="44.31423" lon="9.19538">
        <ele>251.52</ele>
        <time>2019-05-05T11:11:12Z</time>
      </trkpt>
      <trkpt lat="44.31419" lon="9.19559">
        <ele>251.04</ele>
        <time>2019-05-05T11:11:24Z</time>
      </trkpt>
      <trkpt lat="44.31419" lon="9.19564">
        <ele>251.04</ele>
        <time>2019-05-05T11:11:26Z</time>
      </trkpt>
      <trkpt lat="44.3142" lon="9.19592">
        <ele>250.56</ele>
        <time>2019-05-05T11:11:42Z</time>
      </trkpt>
      <trkpt lat="44.31428" lon="9.19617">
        <ele>252.96</ele>
        <time>2019-05-05T11:11:58Z</time>
      </trkpt>
      <trkpt lat="44.31438" lon="9.19636">
        <ele>254.41</ele>
        <time>2019-05-05T11:12:15Z</time>
      </trkpt>
      <trkpt lat="44.31439" lon="9.19638">
        <ele>254.89</ele>
        <time>2019-05-05T11:12:18Z</time>
      </trkpt>
      <trkpt lat="44.31436" lon="9.19661">
        <ele>256.33</ele>
        <time>2019-05-05T11:12:35Z</time>
      </trkpt>
      <trkpt lat="44.31436" lon="9.19675">
        <ele>257.29</ele>
        <time>2019-05-05T11:12:47Z</time>
      </trkpt>
      <trkpt lat="44.31439" lon="9.19693">
        <ele>259.21</ele>
        <time>2019-05-05T11:13:01Z</time>
      </trkpt>
      <trkpt lat="44.31447" lon="9.19711">
        <ele>259.69</ele>
        <time>2019-05-05T11:13:14Z</time>
      </trkpt>
      <trkpt lat="44.31454" lon="9.1972">
        <ele>260.17</ele>
        <time>2019-05-05T11:13:25Z</time>
      </trkpt>
      <trkpt lat="44.31458" lon="9.19729">
        <ele>261.14</ele>
        <time>2019-05-05T11:13:35Z</time>
      </trkpt>
      <trkpt lat="44.31456" lon="9.19736">
        <ele>261.62</ele>
        <time>2019-05-05T11:13:49Z</time>
      </trkpt>
      <trkpt lat="44.31454" lon="9.19744">
        <ele>261.62</ele>
        <time>2019-05-05T11:14:05Z</time>
      </trkpt>
      <trkpt lat="44.31456" lon="9.19761">
        <ele>262.58</ele>
        <time>2019-05-05T11:14:20Z</time>
      </trkpt>
      <trkpt lat="44.31453" lon="9.19783">
        <ele>262.58</ele>
        <time>2019-05-05T11:14:37Z</time>
      </trkpt>
      <trkpt lat="44.31454" lon="9.19799">
        <ele>261.62</ele>
        <time>2019-05-05T11:14:50Z</time>
      </trkpt>
      <trkpt lat="44.31453" lon="9.19824">
        <ele>260.65</ele>
        <time>2019-05-05T11:15:06Z</time>
      </trkpt>
      <trkpt lat="44.3146" lon="9.19842">
        <ele>258.73</ele>
        <time>2019-05-05T11:15:21Z</time>
      </trkpt>
      <trkpt lat="44.31461" lon="9.19851">
        <ele>256.81</ele>
        <time>2019-05-05T11:15:28Z</time>
      </trkpt>
      <trkpt lat="44.31458" lon="9.19869">
        <ele>254.41</ele>
        <time>2019-05-05T11:15:43Z</time>
      </trkpt>
      <trkpt lat="44.31452" lon="9.19883">
        <ele>251.52</ele>
        <time>2019-05-05T11:15:57Z</time>
      </trkpt>
      <trkpt lat="44.31452" lon="9.19884">
        <ele>251.52</ele>
        <time>2019-05-05T11:15:58Z</time>
      </trkpt>
      <trkpt lat="44.31445" lon="9.19896">
        <ele>250.08</ele>
        <time>2019-05-05T11:16:07Z</time>
      </trkpt>
      <trkpt lat="44.31439" lon="9.19904">
        <ele>249.12</ele>
        <time>2019-05-05T11:16:18Z</time>
      </trkpt>
      <trkpt lat="44.31439" lon="9.19913">
        <ele>248.64</ele>
        <time>2019-05-05T11:16:29Z</time>
      </trkpt>
      <trkpt lat="44.31442" lon="9.19915">
        <ele>246.23</ele>
        <time>2019-05-05T11:16:36Z</time>
      </trkpt>
      <trkpt lat="44.31446" lon="9.19915">
        <ele>244.79</ele>
        <time>2019-05-05T11:16:40Z</time>
      </trkpt>
      <trkpt lat="44.31462" lon="9.19908">
        <ele>244.31</ele>
        <time>2019-05-05T11:16:55Z</time>
      </trkpt>
      <trkpt lat="44.31467" lon="9.19904">
        <ele>241.91</ele>
        <time>2019-05-05T11:17:08Z</time>
      </trkpt>
      <trkpt lat="44.31474" lon="9.19905">
        <ele>239.51</ele>
        <time>2019-05-05T11:17:18Z</time>
      </trkpt>
      <trkpt lat="44.31476" lon="9.199">
        <ele>238.06</ele>
        <time>2019-05-05T11:17:29Z</time>
      </trkpt>
      <trkpt lat="44.31476" lon="9.19905">
        <ele>235.18</ele>
        <time>2019-05-05T11:17:42Z</time>
      </trkpt>
      <trkpt lat="44.31486" lon="9.19904">
        <ele>234.7</ele>
        <time>2019-05-05T11:17:49Z</time>
      </trkpt>
      <trkpt lat="44.31498" lon="9.199">
        <ele>232.78</ele>
        <time>2019-05-05T11:18:04Z</time>
      </trkpt>
      <trkpt lat="44.31503" lon="9.19894">
        <ele>229.41</ele>
        <time>2019-05-05T11:18:18Z</time>
      </trkpt>
      <trkpt lat="44.31516" lon="9.1988">
        <ele>227.49</ele>
        <time>2019-05-05T11:18:31Z</time>
      </trkpt>
      <trkpt lat="44.3152" lon="9.19877">
        <ele>224.12</ele>
        <time>2019-05-05T11:18:38Z</time>
      </trkpt>
      <trkpt lat="44.31523" lon="9.19876">
        <ele>224.12</ele>
        <time>2019-05-05T11:18:41Z</time>
      </trkpt>
      <trkpt lat="44.31533" lon="9.19872">
        <ele>225.09</ele>
        <time>2019-05-05T11:18:51Z</time>
      </trkpt>
      <trkpt lat="44.31534" lon="9.19872">
        <ele>225.09</ele>
        <time>2019-05-05T11:18:53Z</time>
      </trkpt>
      <trkpt lat="44.31537" lon="9.19869">
        <ele>225.57</ele>
        <time>2019-05-05T11:18:56Z</time>
      </trkpt>
      <trkpt lat="44.31539" lon="9.19869">
        <ele>225.57</ele>
        <time>2019-05-05T11:18:59Z</time>
      </trkpt>
      <trkpt lat="44.31539" lon="9.1987">
        <ele>226.05</ele>
        <time>2019-05-05T11:19:14Z</time>
      </trkpt>
      <trkpt lat="44.31542" lon="9.19877">
        <ele>226.53</ele>
        <time>2019-05-05T11:19:31Z</time>
      </trkpt>
      <trkpt lat="44.31544" lon="9.19879">
        <ele>226.53</ele>
        <time>2019-05-05T11:19:33Z</time>
      </trkpt>
      <trkpt lat="44.31557" lon="9.1989">
        <ele>227.01</ele>
        <time>2019-05-05T11:19:50Z</time>
      </trkpt>
      <trkpt lat="44.31563" lon="9.19893">
        <ele>227.01</ele>
        <time>2019-05-05T11:20:02Z</time>
      </trkpt>
      <trkpt lat="44.3157" lon="9.19899">
        <ele>226.05</ele>
        <time>2019-05-05T11:20:09Z</time>
      </trkpt>
      <trkpt lat="44.31582" lon="9.19913">
        <ele>225.57</ele>
        <time>2019-05-05T11:20:25Z</time>
      </trkpt>
      <trkpt lat="44.31583" lon="9.19914">
        <ele>226.53</ele>
        <time>2019-05-05T11:20:26Z</time>
      </trkpt>
      <trkpt lat="44.31584" lon="9.19912">
        <ele>227.01</ele>
        <time>2019-05-05T11:20:30Z</time>
      </trkpt>
      <trkpt lat="44.31588" lon="9.19929">
        <ele>227.49</ele>
        <time>2019-05-05T11:20:44Z</time>
      </trkpt>
      <trkpt lat="44.31592" lon="9.19947">
        <ele>226.05</ele>
        <time>2019-05-05T11:20:58Z</time>
      </trkpt>
      <trkpt lat="44.31596" lon="9.19961">
        <ele>223.64</ele>
        <time>2019-05-05T11:21:14Z</time>
      </trkpt>
      <trkpt lat="44.31598" lon="9.19964">
        <ele>223.16</ele>
        <time>2019-05-05T11:21:34Z</time>
      </trkpt>
      <trkpt lat="44.31604" lon="9.19973">
        <ele>222.2</ele>
        <time>2019-05-05T11:21:48Z</time>
      </trkpt>
      <trkpt lat="44.31608" lon="9.19976">
        <ele>223.16</ele>
        <time>2019-05-05T11:21:55Z</time>
      </trkpt>
      <trkpt lat="44.31616" lon="9.19977">
        <ele>223.64</ele>
        <time>2019-05-05T11:22:08Z</time>
      </trkpt>
      <trkpt lat="44.31617" lon="9.19976">
        <ele>222.2</ele>
        <time>2019-05-05T11:22:10Z</time>
      </trkpt>
      <trkpt lat="44.31624" lon="9.19975">
        <ele>218.84</ele>
        <time>2019-05-05T11:22:26Z</time>
      </trkpt>
      <trkpt lat="44.31629" lon="9.19967">
        <ele>215.95</ele>
        <time>2019-05-05T11:22:38Z</time>
      </trkpt>
      <trkpt lat="44.31634" lon="9.19958">
        <ele>213.07</ele>
        <time>2019-05-05T11:22:51Z</time>
      </trkpt>
      <trkpt lat="44.31644" lon="9.19952">
        <ele>209.7</ele>
        <time>2019-05-05T11:23:04Z</time>
      </trkpt>
      <trkpt lat="44.31652" lon="9.1995">
        <ele>208.74</ele>
        <time>2019-05-05T11:23:16Z</time>
      </trkpt>
      <trkpt lat="44.31654" lon="9.19951">
        <ele>208.74</ele>
        <time>2019-05-05T11:23:21Z</time>
      </trkpt>
      <trkpt lat="44.31661" lon="9.19946">
        <ele>207.78</ele>
        <time>2019-05-05T11:23:37Z</time>
      </trkpt>
      <trkpt lat="44.3166" lon="9.19944">
        <ele>207.78</ele>
        <time>2019-05-05T11:23:59Z</time>
      </trkpt>
      <trkpt lat="44.31663" lon="9.19937">
        <ele>208.26</ele>
        <time>2019-05-05T11:24:22Z</time>
      </trkpt>
      <trkpt lat="44.3167" lon="9.19931">
        <ele>208.26</ele>
        <time>2019-05-05T11:24:36Z</time>
      </trkpt>
      <trkpt lat="44.31677" lon="9.19927">
        <ele>206.82</ele>
        <time>2019-05-05T11:24:49Z</time>
      </trkpt>
      <trkpt lat="44.3168" lon="9.19921">
        <ele>206.34</ele>
        <time>2019-05-05T11:25:00Z</time>
      </trkpt>
      <trkpt lat="44.31691" lon="9.1991">
        <ele>203.94</ele>
        <time>2019-05-05T11:25:16Z</time>
      </trkpt>
      <trkpt lat="44.31691" lon="9.19909">
        <ele>203.94</ele>
        <time>2019-05-05T11:25:17Z</time>
      </trkpt>
      <trkpt lat="44.31696" lon="9.19902">
        <ele>202.98</ele>
        <time>2019-05-05T11:25:23Z</time>
      </trkpt>
      <trkpt lat="44.31702" lon="9.19884">
        <ele>202.98</ele>
        <time>2019-05-05T11:25:35Z</time>
      </trkpt>
      <trkpt lat="44.31702" lon="9.19884">
        <ele>202.98</ele>
        <time>2019-05-05T11:25:40Z</time>
      </trkpt>
      <trkpt lat="44.31704" lon="9.19886">
        <ele>204.9</ele>
        <time>2019-05-05T11:25:46Z</time>
      </trkpt>
      <trkpt lat="44.31707" lon="9.19889">
        <ele>206.82</ele>
        <time>2019-05-05T11:25:56Z</time>
      </trkpt>
      <trkpt lat="44.3171" lon="9.19912">
        <ele>207.78</ele>
        <time>2019-05-05T11:26:13Z</time>
      </trkpt>
      <trkpt lat="44.31713" lon="9.19929">
        <ele>210.67</ele>
        <time>2019-05-05T11:26:28Z</time>
      </trkpt>
      <trkpt lat="44.31716" lon="9.19944">
        <ele>211.15</ele>
        <time>2019-05-05T11:26:44Z</time>
      </trkpt>
      <trkpt lat="44.31719" lon="9.19948">
        <ele>211.15</ele>
        <time>2019-05-05T11:26:54Z</time>
      </trkpt>
      <trkpt lat="44.31723" lon="9.19965">
        <ele>211.63</ele>
        <time>2019-05-05T11:27:12Z</time>
      </trkpt>
      <trkpt lat="44.31726" lon="9.19975">
        <ele>212.59</ele>
        <time>2019-05-05T11:27:20Z</time>
      </trkpt>
      <trkpt lat="44.31732" lon="9.19993">
        <ele>214.03</ele>
        <time>2019-05-05T11:27:34Z</time>
      </trkpt>
      <trkpt lat="44.31742" lon="9.20003">
        <ele>214.51</ele>
        <time>2019-05-05T11:27:49Z</time>
      </trkpt>
      <trkpt lat="44.31748" lon="9.20006">
        <ele>213.07</ele>
        <time>2019-05-05T11:28:04Z</time>
      </trkpt>
      <trkpt lat="44.31754" lon="9.20012">
        <ele>210.19</ele>
        <time>2019-05-05T11:28:17Z</time>
      </trkpt>
      <trkpt lat="44.31757" lon="9.20014">
        <ele>209.22</ele>
        <time>2019-05-05T11:28:21Z</time>
      </trkpt>
      <trkpt lat="44.31771" lon="9.20027">
        <ele>208.74</ele>
        <time>2019-05-05T11:28:36Z</time>
      </trkpt>
      <trkpt lat="44.31783" lon="9.20042">
        <ele>206.82</ele>
        <time>2019-05-05T11:28:52Z</time>
      </trkpt>
      <trkpt lat="44.31791" lon="9.20056">
        <ele>204.9</ele>
        <time>2019-05-05T11:29:06Z</time>
      </trkpt>
      <trkpt lat="44.31795" lon="9.20062">
        <ele>204.42</ele>
        <time>2019-05-05T11:29:12Z</time>
      </trkpt>
      <trkpt lat="44.31797" lon="9.20067">
        <ele>204.42</ele>
        <time>2019-05-05T11:29:27Z</time>
      </trkpt>
      <trkpt lat="44.31796" lon="9.20068">
        <ele>204.42</ele>
        <time>2019-05-05T11:29:28Z</time>
      </trkpt>
      <trkpt lat="44.31793" lon="9.20076">
        <ele>203.46</ele>
        <time>2019-05-05T11:29:38Z</time>
      </trkpt>
      <trkpt lat="44.31789" lon="9.20089">
        <ele>202.49</ele>
        <time>2019-05-05T11:29:47Z</time>
      </trkpt>
      <trkpt lat="44.31779" lon="9.20108">
        <ele>201.05</ele>
        <time>2019-05-05T11:30:04Z</time>
      </trkpt>
      <trkpt lat="44.31773" lon="9.20124">
        <ele>200.57</ele>
        <time>2019-05-05T11:30:18Z</time>
      </trkpt>
      <trkpt lat="44.31772" lon="9.20126">
        <ele>200.57</ele>
        <time>2019-05-05T11:30:19Z</time>
      </trkpt>
      <trkpt lat="44.31768" lon="9.20134">
        <ele>200.09</ele>
        <time>2019-05-05T11:30:27Z</time>
      </trkpt>
      <trkpt lat="44.31764" lon="9.20144">
        <ele>200.57</ele>
        <time>2019-05-05T11:30:35Z</time>
      </trkpt>
      <trkpt lat="44.31752" lon="9.20157">
        <ele>202.01</ele>
        <time>2019-05-05T11:30:50Z</time>
      </trkpt>
      <trkpt lat="44.31742" lon="9.20166">
        <ele>203.94</ele>
        <time>2019-05-05T11:31:04Z</time>
      </trkpt>
      <trkpt lat="44.31736" lon="9.20179">
        <ele>203.94</ele>
        <time>2019-05-05T11:31:16Z</time>
      </trkpt>
      <trkpt lat="44.31728" lon="9.20192">
        <ele>200.57</ele>
        <time>2019-05-05T11:31:30Z</time>
      </trkpt>
      <trkpt lat="44.31726" lon="9.202">
        <ele>199.61</ele>
        <time>2019-05-05T11:31:36Z</time>
      </trkpt>
      <trkpt lat="44.31721" lon="9.20219">
        <ele>196.73</ele>
        <time>2019-05-05T11:31:49Z</time>
      </trkpt>
      <trkpt lat="44.31721" lon="9.20239">
        <ele>194.32</ele>
        <time>2019-05-05T11:32:03Z</time>
      </trkpt>
      <trkpt lat="44.31721" lon="9.20242">
        <ele>194.32</ele>
        <time>2019-05-05T11:32:05Z</time>
      </trkpt>
      <trkpt lat="44.31722" lon="9.20261">
        <ele>193.84</ele>
        <time>2019-05-05T11:32:18Z</time>
      </trkpt>
      <trkpt lat="44.31724" lon="9.20267">
        <ele>193.36</ele>
        <time>2019-05-05T11:32:23Z</time>
      </trkpt>
      <trkpt lat="44.31721" lon="9.20288">
        <ele>194.8</ele>
        <time>2019-05-05T11:32:38Z</time>
      </trkpt>
      <trkpt lat="44.31715" lon="9.203">
        <ele>195.77</ele>
        <time>2019-05-05T11:32:54Z</time>
      </trkpt>
      <trkpt lat="44.31714" lon="9.20317">
        <ele>197.69</ele>
        <time>2019-05-05T11:33:08Z</time>
      </trkpt>
      <trkpt lat="44.31712" lon="9.20331">
        <ele>198.65</ele>
        <time>2019-05-05T11:33:22Z</time>
      </trkpt>
      <trkpt lat="44.31706" lon="9.20355">
        <ele>200.09</ele>
        <time>2019-05-05T11:33:38Z</time>
      </trkpt>
      <trkpt lat="44.31703" lon="9.20382">
        <ele>202.98</ele>
        <time>2019-05-05T11:33:55Z</time>
      </trkpt>
      <trkpt lat="44.31703" lon="9.20394">
        <ele>203.46</ele>
        <time>2019-05-05T11:34:13Z</time>
      </trkpt>
      <trkpt lat="44.31703" lon="9.20407">
        <ele>203.46</ele>
        <time>2019-05-05T11:34:27Z</time>
      </trkpt>
      <trkpt lat="44.31704" lon="9.20411">
        <ele>203.46</ele>
        <time>2019-05-05T11:34:30Z</time>
      </trkpt>
      <trkpt lat="44.31702" lon="9.20437">
        <ele>203.94</ele>
        <time>2019-05-05T11:34:46Z</time>
      </trkpt>
      <trkpt lat="44.31699" lon="9.20455">
        <ele>203.94</ele>
        <time>2019-05-05T11:34:58Z</time>
      </trkpt>
      <trkpt lat="44.31695" lon="9.20473">
        <ele>203.94</ele>
        <time>2019-05-05T11:35:11Z</time>
      </trkpt>
      <trkpt lat="44.31693" lon="9.20494">
        <ele>206.34</ele>
        <time>2019-05-05T11:35:25Z</time>
      </trkpt>
      <trkpt lat="44.31687" lon="9.2051">
        <ele>207.78</ele>
        <time>2019-05-05T11:35:37Z</time>
      </trkpt>
      <trkpt lat="44.31687" lon="9.20526">
        <ele>208.26</ele>
        <time>2019-05-05T11:35:48Z</time>
      </trkpt>
      <trkpt lat="44.31683" lon="9.20537">
        <ele>207.3</ele>
        <time>2019-05-05T11:36:03Z</time>
      </trkpt>
      <trkpt lat="44.31679" lon="9.20541">
        <ele>204.42</ele>
        <time>2019-05-05T11:36:13Z</time>
      </trkpt>
      <trkpt lat="44.31671" lon="9.20551">
        <ele>201.05</ele>
        <time>2019-05-05T11:36:26Z</time>
      </trkpt>
      <trkpt lat="44.31665" lon="9.20557">
        <ele>199.13</ele>
        <time>2019-05-05T11:36:34Z</time>
      </trkpt>
      <trkpt lat="44.31661" lon="9.20578">
        <ele>197.21</ele>
        <time>2019-05-05T11:36:48Z</time>
      </trkpt>
      <trkpt lat="44.31658" lon="9.20599">
        <ele>195.77</ele>
        <time>2019-05-05T11:37:00Z</time>
      </trkpt>
      <trkpt lat="44.31654" lon="9.2062">
        <ele>194.32</ele>
        <time>2019-05-05T11:37:12Z</time>
      </trkpt>
      <trkpt lat="44.31654" lon="9.20644">
        <ele>192.88</ele>
        <time>2019-05-05T11:37:25Z</time>
      </trkpt>
      <trkpt lat="44.31651" lon="9.20661">
        <ele>192.4</ele>
        <time>2019-05-05T11:37:41Z</time>
      </trkpt>
      <trkpt lat="44.31648" lon="9.2067">
        <ele>192.4</ele>
        <time>2019-05-05T11:37:57Z</time>
      </trkpt>
      <trkpt lat="44.31649" lon="9.20677">
        <ele>192.4</ele>
        <time>2019-05-05T11:38:10Z</time>
      </trkpt>
      <trkpt lat="44.31648" lon="9.20691">
        <ele>190.96</ele>
        <time>2019-05-05T11:38:26Z</time>
      </trkpt>
      <trkpt lat="44.31648" lon="9.20703">
        <ele>189.52</ele>
        <time>2019-05-05T11:38:43Z</time>
      </trkpt>
      <trkpt lat="44.31653" lon="9.20707">
        <ele>188.56</ele>
        <time>2019-05-05T11:39:01Z</time>
      </trkpt>
      <trkpt lat="44.3166" lon="9.20705">
        <ele>188.08</ele>
        <time>2019-05-05T11:39:18Z</time>
      </trkpt>
      <trkpt lat="44.31661" lon="9.20707">
        <ele>188.08</ele>
        <time>2019-05-05T11:39:39Z</time>
      </trkpt>
      <trkpt lat="44.31661" lon="9.20708">
        <ele>187.59</ele>
        <time>2019-05-05T11:39:56Z</time>
      </trkpt>
      <trkpt lat="44.31661" lon="9.20706">
        <ele>186.63</ele>
        <time>2019-05-05T11:40:16Z</time>
      </trkpt>
      <trkpt lat="44.31663" lon="9.207">
        <ele>186.15</ele>
        <time>2019-05-05T11:40:37Z</time>
      </trkpt>
      <trkpt lat="44.31668" lon="9.20701">
        <ele>185.19</ele>
        <time>2019-05-05T11:40:54Z</time>
      </trkpt>
      <trkpt lat="44.31679" lon="9.20697">
        <ele>184.23</ele>
        <time>2019-05-05T11:41:08Z</time>
      </trkpt>
      <trkpt lat="44.31693" lon="9.20695">
        <ele>181.83</ele>
        <time>2019-05-05T11:41:24Z</time>
      </trkpt>
      <trkpt lat="44.31702" lon="9.20695">
        <ele>178.94</ele>
        <time>2019-05-05T11:41:36Z</time>
      </trkpt>
      <trkpt lat="44.31714" lon="9.2069">
        <ele>178.46</ele>
        <time>2019-05-05T11:41:49Z</time>
      </trkpt>
      <trkpt lat="44.31721" lon="9.20691">
        <ele>178.46</ele>
        <time>2019-05-05T11:41:56Z</time>
      </trkpt>
      <trkpt lat="44.31736" lon="9.20691">
        <ele>178.46</ele>
        <time>2019-05-05T11:42:11Z</time>
      </trkpt>
      <trkpt lat="44.31752" lon="9.20698">
        <ele>177.5</ele>
        <time>2019-05-05T11:42:26Z</time>
      </trkpt>
      <trkpt lat="44.31768" lon="9.20702">
        <ele>176.06</ele>
        <time>2019-05-05T11:42:42Z</time>
      </trkpt>
      <trkpt lat="44.31787" lon="9.20709">
        <ele>175.1</ele>
        <time>2019-05-05T11:43:00Z</time>
      </trkpt>
      <trkpt lat="44.318" lon="9.20714">
        <ele>175.58</ele>
        <time>2019-05-05T11:43:13Z</time>
      </trkpt>
      <trkpt lat="44.31809" lon="9.20718">
        <ele>175.58</ele>
        <time>2019-05-05T11:43:27Z</time>
      </trkpt>
      <trkpt lat="44.3181" lon="9.20713">
        <ele>175.1</ele>
        <time>2019-05-05T11:43:50Z</time>
      </trkpt>
      <trkpt lat="44.31819" lon="9.20709">
        <ele>174.14</ele>
        <time>2019-05-05T11:44:15Z</time>
      </trkpt>
      <trkpt lat="44.31824" lon="9.20716">
        <ele>174.14</ele>
        <time>2019-05-05T11:44:24Z</time>
      </trkpt>
      <trkpt lat="44.31827" lon="9.20719">
        <ele>175.58</ele>
        <time>2019-05-05T11:44:27Z</time>
      </trkpt>
      <trkpt lat="44.31835" lon="9.20723">
        <ele>176.06</ele>
        <time>2019-05-05T11:44:35Z</time>
      </trkpt>
      <trkpt lat="44.3185" lon="9.20726">
        <ele>177.02</ele>
        <time>2019-05-05T11:44:51Z</time>
      </trkpt>
      <trkpt lat="44.31864" lon="9.2073">
        <ele>177.98</ele>
        <time>2019-05-05T11:45:07Z</time>
      </trkpt>
      <trkpt lat="44.31877" lon="9.20735">
        <ele>178.94</ele>
        <time>2019-05-05T11:45:21Z</time>
      </trkpt>
      <trkpt lat="44.31879" lon="9.20735">
        <ele>177.5</ele>
        <time>2019-05-05T11:45:24Z</time>
      </trkpt>
      <trkpt lat="44.31892" lon="9.20734">
        <ele>178.94</ele>
        <time>2019-05-05T11:45:34Z</time>
      </trkpt>
      <trkpt lat="44.31907" lon="9.20735">
        <ele>177.02</ele>
        <time>2019-05-05T11:45:46Z</time>
      </trkpt>
      <trkpt lat="44.31917" lon="9.20734">
        <ele>175.1</ele>
        <time>2019-05-05T11:45:57Z</time>
      </trkpt>
      <trkpt lat="44.31928" lon="9.20736">
        <ele>172.69</ele>
        <time>2019-05-05T11:46:08Z</time>
      </trkpt>
      <trkpt lat="44.31942" lon="9.20744">
        <ele>172.69</ele>
        <time>2019-05-05T11:46:20Z</time>
      </trkpt>
      <trkpt lat="44.31962" lon="9.20755">
        <ele>173.17</ele>
        <time>2019-05-05T11:46:38Z</time>
      </trkpt>
      <trkpt lat="44.31964" lon="9.20757">
        <ele>174.14</ele>
        <time>2019-05-05T11:46:41Z</time>
      </trkpt>
      <trkpt lat="44.31967" lon="9.20767">
        <ele>175.58</ele>
        <time>2019-05-05T11:46:56Z</time>
      </trkpt>
      <trkpt lat="44.31968" lon="9.20771">
        <ele>175.58</ele>
        <time>2019-05-05T11:47:01Z</time>
      </trkpt>
      <trkpt lat="44.3197" lon="9.20779">
        <ele>173.66</ele>
        <time>2019-05-05T11:47:07Z</time>
      </trkpt>
      <trkpt lat="44.31979" lon="9.20794">
        <ele>171.25</ele>
        <time>2019-05-05T11:47:21Z</time>
      </trkpt>
      <trkpt lat="44.31991" lon="9.20804">
        <ele>170.77</ele>
        <time>2019-05-05T11:47:35Z</time>
      </trkpt>
      <trkpt lat="44.32004" lon="9.20814">
        <ele>168.85</ele>
        <time>2019-05-05T11:47:50Z</time>
      </trkpt>
      <trkpt lat="44.32012" lon="9.20824">
        <ele>168.85</ele>
        <time>2019-05-05T11:48:02Z</time>
      </trkpt>
      <trkpt lat="44.32016" lon="9.20831">
        <ele>168.85</ele>
        <time>2019-05-05T11:48:09Z</time>
      </trkpt>
      <trkpt lat="44.32028" lon="9.20845">
        <ele>166.45</ele>
        <time>2019-05-05T11:48:25Z</time>
      </trkpt>
      <trkpt lat="44.32033" lon="9.20855">
        <ele>165</ele>
        <time>2019-05-05T11:48:38Z</time>
      </trkpt>
      <trkpt lat="44.32035" lon="9.20866">
        <ele>162.12</ele>
        <time>2019-05-05T11:48:53Z</time>
      </trkpt>
      <trkpt lat="44.32039" lon="9.20878">
        <ele>160.68</ele>
        <time>2019-05-05T11:49:06Z</time>
      </trkpt>
      <trkpt lat="44.32045" lon="9.20888">
        <ele>158.27</ele>
        <time>2019-05-05T11:49:17Z</time>
      </trkpt>
      <trkpt lat="44.32055" lon="9.20897">
        <ele>157.31</ele>
        <time>2019-05-05T11:49:29Z</time>
      </trkpt>
      <trkpt lat="44.32067" lon="9.20909">
        <ele>156.35</ele>
        <time>2019-05-05T11:49:41Z</time>
      </trkpt>
      <trkpt lat="44.32074" lon="9.20917">
        <ele>153.95</ele>
        <time>2019-05-05T11:49:56Z</time>
      </trkpt>
      <trkpt lat="44.32085" lon="9.20914">
        <ele>152.51</ele>
        <time>2019-05-05T11:50:10Z</time>
      </trkpt>
      <trkpt lat="44.32093" lon="9.20916">
        <ele>151.06</ele>
        <time>2019-05-05T11:50:28Z</time>
      </trkpt>
      <trkpt lat="44.32104" lon="9.20914">
        <ele>149.62</ele>
        <time>2019-05-05T11:50:39Z</time>
      </trkpt>
      <trkpt lat="44.32114" lon="9.20913">
        <ele>147.7</ele>
        <time>2019-05-05T11:50:50Z</time>
      </trkpt>
      <trkpt lat="44.32116" lon="9.20913">
        <ele>146.74</ele>
        <time>2019-05-05T11:50:52Z</time>
      </trkpt>
      <trkpt lat="44.32128" lon="9.20909">
        <ele>142.89</ele>
        <time>2019-05-05T11:51:03Z</time>
      </trkpt>
      <trkpt lat="44.32131" lon="9.20907">
        <ele>142.41</ele>
        <time>2019-05-05T11:51:05Z</time>
      </trkpt>
      <trkpt lat="44.32141" lon="9.20906">
        <ele>139.05</ele>
        <time>2019-05-05T11:51:17Z</time>
      </trkpt>
      <trkpt lat="44.32141" lon="9.20905">
        <ele>139.05</ele>
        <time>2019-05-05T11:51:18Z</time>
      </trkpt>
      <trkpt lat="44.32144" lon="9.20906">
        <ele>138.57</ele>
        <time>2019-05-05T11:51:20Z</time>
      </trkpt>
      <trkpt lat="44.32145" lon="9.20909">
        <ele>137.61</ele>
        <time>2019-05-05T11:51:22Z</time>
      </trkpt>
      <trkpt lat="44.32149" lon="9.20915">
        <ele>137.61</ele>
        <time>2019-05-05T11:51:35Z</time>
      </trkpt>
      <trkpt lat="44.32148" lon="9.20914">
        <ele>137.13</ele>
        <time>2019-05-05T11:51:57Z</time>
      </trkpt>
      <trkpt lat="44.32149" lon="9.20913">
        <ele>137.13</ele>
        <time>2019-05-05T11:52:17Z</time>
      </trkpt>
      <trkpt lat="44.32152" lon="9.20923">
        <ele>136.16</ele>
        <time>2019-05-05T11:52:34Z</time>
      </trkpt>
      <trkpt lat="44.32156" lon="9.20937">
        <ele>133.76</ele>
        <time>2019-05-05T11:52:49Z</time>
      </trkpt>
      <trkpt lat="44.3216" lon="9.20953">
        <ele>131.84</ele>
        <time>2019-05-05T11:53:04Z</time>
      </trkpt>
      <trkpt lat="44.32164" lon="9.20969">
        <ele>130.4</ele>
        <time>2019-05-05T11:53:19Z</time>
      </trkpt>
      <trkpt lat="44.3217" lon="9.20984">
        <ele>127.51</ele>
        <time>2019-05-05T11:53:37Z</time>
      </trkpt>
      <trkpt lat="44.3217" lon="9.20985">
        <ele>127.03</ele>
        <time>2019-05-05T11:53:38Z</time>
      </trkpt>
      <trkpt lat="44.32172" lon="9.20992">
        <ele>126.55</ele>
        <time>2019-05-05T11:53:51Z</time>
      </trkpt>
      <trkpt lat="44.32182" lon="9.21004">
        <ele>125.11</ele>
        <time>2019-05-05T11:54:07Z</time>
      </trkpt>
      <trkpt lat="44.32196" lon="9.21015">
        <ele>122.71</ele>
        <time>2019-05-05T11:54:23Z</time>
      </trkpt>
      <trkpt lat="44.32206" lon="9.21024">
        <ele>121.74</ele>
        <time>2019-05-05T11:54:36Z</time>
      </trkpt>
      <trkpt lat="44.3222" lon="9.21035">
        <ele>121.26</ele>
        <time>2019-05-05T11:54:51Z</time>
      </trkpt>
      <trkpt lat="44.32236" lon="9.21047">
        <ele>119.34</ele>
        <time>2019-05-05T11:55:07Z</time>
      </trkpt>
      <trkpt lat="44.32251" lon="9.2105">
        <ele>118.86</ele>
        <time>2019-05-05T11:55:24Z</time>
      </trkpt>
      <trkpt lat="44.3226" lon="9.21055">
        <ele>118.38</ele>
        <time>2019-05-05T11:55:38Z</time>
      </trkpt>
      <trkpt lat="44.32271" lon="9.21056">
        <ele>117.42</ele>
        <time>2019-05-05T11:55:51Z</time>
      </trkpt>
      <trkpt lat="44.32285" lon="9.21057">
        <ele>116.94</ele>
        <time>2019-05-05T11:56:05Z</time>
      </trkpt>
      <trkpt lat="44.32301" lon="9.21048">
        <ele>115.98</ele>
        <time>2019-05-05T11:56:19Z</time>
      </trkpt>
      <trkpt lat="44.32312" lon="9.21042">
        <ele>115.5</ele>
        <time>2019-05-05T11:56:34Z</time>
      </trkpt>
      <trkpt lat="44.32314" lon="9.21042">
        <ele>115.5</ele>
        <time>2019-05-05T11:56:36Z</time>
      </trkpt>
      <trkpt lat="44.32324" lon="9.21043">
        <ele>114.53</ele>
        <time>2019-05-05T11:56:44Z</time>
      </trkpt>
      <trkpt lat="44.32341" lon="9.21043">
        <ele>113.09</ele>
        <time>2019-05-05T11:56:59Z</time>
      </trkpt>
      <trkpt lat="44.32356" lon="9.21041">
        <ele>110.69</ele>
        <time>2019-05-05T11:57:13Z</time>
      </trkpt>
      <trkpt lat="44.32364" lon="9.21046">
        <ele>108.77</ele>
        <time>2019-05-05T11:57:24Z</time>
      </trkpt>
      <trkpt lat="44.32374" lon="9.21057">
        <ele>106.36</ele>
        <time>2019-05-05T11:57:38Z</time>
      </trkpt>
      <trkpt lat="44.32382" lon="9.21069">
        <ele>105.4</ele>
        <time>2019-05-05T11:57:51Z</time>
      </trkpt>
      <trkpt lat="44.32385" lon="9.21073">
        <ele>105.4</ele>
        <time>2019-05-05T11:57:55Z</time>
      </trkpt>
      <trkpt lat="44.32395" lon="9.21086">
        <ele>105.4</ele>
        <time>2019-05-05T11:58:11Z</time>
      </trkpt>
      <trkpt lat="44.32399" lon="9.21093">
        <ele>106.84</ele>
        <time>2019-05-05T11:58:20Z</time>
      </trkpt>
      <trkpt lat="44.32406" lon="9.21106">
        <ele>107.81</ele>
        <time>2019-05-05T11:58:32Z</time>
      </trkpt>
      <trkpt lat="44.32412" lon="9.21116">
        <ele>107.81</ele>
        <time>2019-05-05T11:58:43Z</time>
      </trkpt>
      <trkpt lat="44.32416" lon="9.21125">
        <ele>106.36</ele>
        <time>2019-05-05T11:58:49Z</time>
      </trkpt>
      <trkpt lat="44.32428" lon="9.21135">
        <ele>103.48</ele>
        <time>2019-05-05T11:59:01Z</time>
      </trkpt>
      <trkpt lat="44.32434" lon="9.21148">
        <ele>100.6</ele>
        <time>2019-05-05T11:59:15Z</time>
      </trkpt>
      <trkpt lat="44.32447" lon="9.2115">
        <ele>98.19</ele>
        <time>2019-05-05T11:59:31Z</time>
      </trkpt>
      <trkpt lat="44.3246" lon="9.21147">
        <ele>96.27</ele>
        <time>2019-05-05T11:59:45Z</time>
      </trkpt>
      <trkpt lat="44.32471" lon="9.21148">
        <ele>93.39</ele>
        <time>2019-05-05T11:59:57Z</time>
      </trkpt>
      <trkpt lat="44.32479" lon="9.21148">
        <ele>92.42</ele>
        <time>2019-05-05T12:00:07Z</time>
      </trkpt>
      <trkpt lat="44.32483" lon="9.21147">
        <ele>92.42</ele>
        <time>2019-05-05T12:00:11Z</time>
      </trkpt>
      <trkpt lat="44.3249" lon="9.21146">
        <ele>91.46</ele>
        <time>2019-05-05T12:00:17Z</time>
      </trkpt>
      <trkpt lat="44.32501" lon="9.21155">
        <ele>88.1</ele>
        <time>2019-05-05T12:00:31Z</time>
      </trkpt>
      <trkpt lat="44.32504" lon="9.21159">
        <ele>90.02</ele>
        <time>2019-05-05T12:00:36Z</time>
      </trkpt>
      <trkpt lat="44.32506" lon="9.21162">
        <ele>88.58</ele>
        <time>2019-05-05T12:00:39Z</time>
      </trkpt>
      <trkpt lat="44.32507" lon="9.21163">
        <ele>88.58</ele>
        <time>2019-05-05T12:00:40Z</time>
      </trkpt>
      <trkpt lat="44.32518" lon="9.21178">
        <ele>87.14</ele>
        <time>2019-05-05T12:00:57Z</time>
      </trkpt>
      <trkpt lat="44.32524" lon="9.21182">
        <ele>86.66</ele>
        <time>2019-05-05T12:01:09Z</time>
      </trkpt>
      <trkpt lat="44.32529" lon="9.21186">
        <ele>86.18</ele>
        <time>2019-05-05T12:01:16Z</time>
      </trkpt>
      <trkpt lat="44.32537" lon="9.2119">
        <ele>85.69</ele>
        <time>2019-05-05T12:01:26Z</time>
      </trkpt>
      <trkpt lat="44.32542" lon="9.21191">
        <ele>84.73</ele>
        <time>2019-05-05T12:01:32Z</time>
      </trkpt>
      <trkpt lat="44.32551" lon="9.212">
        <ele>83.77</ele>
        <time>2019-05-05T12:01:43Z</time>
      </trkpt>
      <trkpt lat="44.32557" lon="9.21204">
        <ele>83.29</ele>
        <time>2019-05-05T12:01:49Z</time>
      </trkpt>
      <trkpt lat="44.32574" lon="9.21212">
        <ele>81.85</ele>
        <time>2019-05-05T12:02:05Z</time>
      </trkpt>
      <trkpt lat="44.32586" lon="9.21225">
        <ele>81.37</ele>
        <time>2019-05-05T12:02:19Z</time>
      </trkpt>
      <trkpt lat="44.32597" lon="9.21235">
        <ele>79.45</ele>
        <time>2019-05-05T12:02:33Z</time>
      </trkpt>
      <trkpt lat="44.32604" lon="9.21244">
        <ele>76.08</ele>
        <time>2019-05-05T12:02:47Z</time>
      </trkpt>
      <trkpt lat="44.32612" lon="9.21257">
        <ele>73.68</ele>
        <time>2019-05-05T12:02:59Z</time>
      </trkpt>
      <trkpt lat="44.32621" lon="9.21261">
        <ele>73.68</ele>
        <time>2019-05-05T12:03:12Z</time>
      </trkpt>
      <trkpt lat="44.32626" lon="9.21268">
        <ele>72.72</ele>
        <time>2019-05-05T12:03:23Z</time>
      </trkpt>
      <trkpt lat="44.32639" lon="9.21277">
        <ele>72.24</ele>
        <time>2019-05-05T12:03:37Z</time>
      </trkpt>
      <trkpt lat="44.32645" lon="9.21281">
        <ele>70.31</ele>
        <time>2019-05-05T12:03:45Z</time>
      </trkpt>
      <trkpt lat="44.32649" lon="9.2129">
        <ele>67.91</ele>
        <time>2019-05-05T12:03:56Z</time>
      </trkpt>
      <trkpt lat="44.32661" lon="9.21288">
        <ele>65.51</ele>
        <time>2019-05-05T12:04:09Z</time>
      </trkpt>
      <trkpt lat="44.32671" lon="9.21291">
        <ele>63.1</ele>
        <time>2019-05-05T12:04:20Z</time>
      </trkpt>
      <trkpt lat="44.32679" lon="9.21291">
        <ele>59.74</ele>
        <time>2019-05-05T12:04:32Z</time>
      </trkpt>
      <trkpt lat="44.32687" lon="9.21285">
        <ele>56.86</ele>
        <time>2019-05-05T12:04:47Z</time>
      </trkpt>
      <trkpt lat="44.32693" lon="9.21281">
        <ele>54.45</ele>
        <time>2019-05-05T12:04:59Z</time>
      </trkpt>
      <trkpt lat="44.32699" lon="9.21278">
        <ele>51.57</ele>
        <time>2019-05-05T12:05:08Z</time>
      </trkpt>
      <trkpt lat="44.32702" lon="9.21276">
        <ele>51.09</ele>
        <time>2019-05-05T12:05:14Z</time>
      </trkpt>
      <trkpt lat="44.32711" lon="9.21273">
        <ele>49.65</ele>
        <time>2019-05-05T12:05:26Z</time>
      </trkpt>
      <trkpt lat="44.32721" lon="9.21272">
        <ele>47.24</ele>
        <time>2019-05-05T12:05:39Z</time>
      </trkpt>
      <trkpt lat="44.32724" lon="9.21271">
        <ele>48.2</ele>
        <time>2019-05-05T12:05:50Z</time>
      </trkpt>
      <trkpt lat="44.3273" lon="9.21272">
        <ele>46.28</ele>
        <time>2019-05-05T12:06:11Z</time>
      </trkpt>
      <trkpt lat="44.32735" lon="9.21274">
        <ele>45.8</ele>
        <time>2019-05-05T12:06:21Z</time>
      </trkpt>
      <trkpt lat="44.32747" lon="9.21281">
        <ele>43.4</ele>
        <time>2019-05-05T12:06:35Z</time>
      </trkpt>
      <trkpt lat="44.32752" lon="9.21282">
        <ele>42.44</ele>
        <time>2019-05-05T12:06:40Z</time>
      </trkpt>
      <trkpt lat="44.32762" lon="9.21285">
        <ele>40.51</ele>
        <time>2019-05-05T12:06:52Z</time>
      </trkpt>
      <trkpt lat="44.32773" lon="9.21289">
        <ele>38.11</ele>
        <time>2019-05-05T12:07:06Z</time>
      </trkpt>
      <trkpt lat="44.32782" lon="9.21293">
        <ele>35.71</ele>
        <time>2019-05-05T12:07:18Z</time>
      </trkpt>
      <trkpt lat="44.32788" lon="9.213">
        <ele>33.78</ele>
        <time>2019-05-05T12:07:30Z</time>
      </trkpt>
      <trkpt lat="44.32794" lon="9.21308">
        <ele>31.86</ele>
        <time>2019-05-05T12:07:42Z</time>
      </trkpt>
      <trkpt lat="44.32796" lon="9.21315">
        <ele>30.9</ele>
        <time>2019-05-05T12:07:57Z</time>
      </trkpt>
      <trkpt lat="44.32798" lon="9.21318">
        <ele>29.94</ele>
        <time>2019-05-05T12:08:02Z</time>
      </trkpt>
      <trkpt lat="44.32806" lon="9.21333">
        <ele>28.02</ele>
        <time>2019-05-05T12:08:16Z</time>
      </trkpt>
      <trkpt lat="44.32812" lon="9.21345">
        <ele>26.57</ele>
        <time>2019-05-05T12:08:29Z</time>
      </trkpt>
      <trkpt lat="44.32821" lon="9.21359">
        <ele>26.09</ele>
        <time>2019-05-05T12:08:44Z</time>
      </trkpt>
      <trkpt lat="44.32832" lon="9.21373">
        <ele>25.61</ele>
        <time>2019-05-05T12:08:58Z</time>
      </trkpt>
      <trkpt lat="44.32843" lon="9.21384">
        <ele>25.13</ele>
        <time>2019-05-05T12:09:12Z</time>
      </trkpt>
      <trkpt lat="44.32856" lon="9.21395">
        <ele>23.21</ele>
        <time>2019-05-05T12:09:27Z</time>
      </trkpt>
      <trkpt lat="44.32862" lon="9.21401">
        <ele>22.25</ele>
        <time>2019-05-05T12:09:40Z</time>
      </trkpt>
      <trkpt lat="44.32866" lon="9.21412">
        <ele>18.88</ele>
        <time>2019-05-05T12:09:58Z</time>
      </trkpt>
      <trkpt lat="44.32873" lon="9.21433">
        <ele>18.4</ele>
        <time>2019-05-05T12:10:12Z</time>
      </trkpt>
      <trkpt lat="44.32874" lon="9.21447">
        <ele>17.92</ele>
        <time>2019-05-05T12:10:23Z</time>
      </trkpt>
      <trkpt lat="44.32867" lon="9.21454">
        <ele>18.88</ele>
        <time>2019-05-05T12:10:38Z</time>
      </trkpt>
      <trkpt lat="44.32867" lon="9.21456">
        <ele>17.44</ele>
        <time>2019-05-05T12:10:51Z</time>
      </trkpt>
      <trkpt lat="44.32865" lon="9.21456">
        <ele>17.44</ele>
        <time>2019-05-05T12:11:02Z</time>
      </trkpt>
      <trkpt lat="44.32865" lon="9.21455">
        <ele>18.88</ele>
        <time>2019-05-05T12:11:05Z</time>
      </trkpt>
      <trkpt lat="44.32864" lon="9.21456">
        <ele>17.92</ele>
        <time>2019-05-05T12:11:25Z</time>
      </trkpt>
      <trkpt lat="44.32861" lon="9.21456">
        <ele>16.96</ele>
        <time>2019-05-05T12:11:38Z</time>
      </trkpt>
      <trkpt lat="44.32872" lon="9.21448">
        <ele>18.4</ele>
        <time>2019-05-05T12:11:50Z</time>
      </trkpt>
      <trkpt lat="44.32884" lon="9.21444">
        <ele>18.4</ele>
        <time>2019-05-05T12:12:10Z</time>
      </trkpt>
      <trkpt lat="44.32888" lon="9.21445">
        <ele>16.48</ele>
        <time>2019-05-05T12:12:15Z</time>
      </trkpt>
      <trkpt lat="44.3289" lon="9.21442">
        <ele>16.48</ele>
        <time>2019-05-05T12:12:19Z</time>
      </trkpt>
      <trkpt lat="44.32895" lon="9.21435">
        <ele>16.48</ele>
        <time>2019-05-05T12:12:24Z</time>
      </trkpt>
      <trkpt lat="44.32895" lon="9.21413">
        <ele>14.08</ele>
        <time>2019-05-05T12:12:40Z</time>
      </trkpt>
      <trkpt lat="44.32896" lon="9.21396">
        <ele>13.12</ele>
        <time>2019-05-05T12:12:55Z</time>
      </trkpt>
      <trkpt lat="44.32896" lon="9.21378">
        <ele>10.71</ele>
        <time>2019-05-05T12:13:10Z</time>
      </trkpt>
      <trkpt lat="44.32901" lon="9.21376">
        <ele>8.79</ele>
        <time>2019-05-05T12:13:20Z</time>
      </trkpt>
      <trkpt lat="44.32904" lon="9.21384">
        <ele>8.31</ele>
        <time>2019-05-05T12:13:30Z</time>
      </trkpt>
      <trkpt lat="44.32904" lon="9.21385">
        <ele>7.35</ele>
        <time>2019-05-05T12:13:31Z</time>
      </trkpt>
      <trkpt lat="44.32922" lon="9.21394">
        <ele>6.87</ele>
        <time>2019-05-05T12:13:40Z</time>
      </trkpt>
      <trkpt lat="44.32932" lon="9.2139">
        <ele>6.87</ele>
        <time>2019-05-05T12:13:44Z</time>
      </trkpt>
      <trkpt lat="44.32935" lon="9.21383">
        <ele>6.87</ele>
        <time>2019-05-05T12:13:56Z</time>
      </trkpt>
      <trkpt lat="44.32932" lon="9.21384">
        <ele>6.87</ele>
        <time>2019-05-05T12:14:09Z</time>
      </trkpt>
      <trkpt lat="44.32932" lon="9.21379">
        <ele>7.35</ele>
        <time>2019-05-05T12:14:25Z</time>
      </trkpt>
      <trkpt lat="44.32943" lon="9.21383">
        <ele>8.79</ele>
        <time>2019-05-05T12:14:36Z</time>
      </trkpt>
      <trkpt lat="44.32955" lon="9.2137">
        <ele>7.35</ele>
        <time>2019-05-05T12:14:50Z</time>
      </trkpt>
      <trkpt lat="44.32964" lon="9.21359">
        <ele>6.87</ele>
        <time>2019-05-05T12:15:03Z</time>
      </trkpt>
      <trkpt lat="44.32974" lon="9.21338">
        <ele>6.39</ele>
        <time>2019-05-05T12:15:21Z</time>
      </trkpt>
      <trkpt lat="44.32986" lon="9.21327">
        <ele>6.39</ele>
        <time>2019-05-05T12:15:35Z</time>
      </trkpt>
      <trkpt lat="44.32991" lon="9.21321">
        <ele>7.83</ele>
        <time>2019-05-05T12:15:42Z</time>
      </trkpt>
      <trkpt lat="44.32991" lon="9.21321">
        <ele>7.83</ele>
        <time>2019-05-05T12:15:58Z</time>
      </trkpt>
      <trkpt lat="44.32987" lon="9.2132">
        <ele>7.83</ele>
        <time>2019-05-05T12:16:15Z</time>
      </trkpt>
      <trkpt lat="44.32985" lon="9.21318">
        <ele>7.83</ele>
        <time>2019-05-05T12:16:35Z</time>
      </trkpt>
      <trkpt lat="44.32991" lon="9.21311">
        <ele>7.83</ele>
        <time>2019-05-05T12:16:47Z</time>
      </trkpt>
      <trkpt lat="44.32995" lon="9.21308">
        <ele>6.39</ele>
        <time>2019-05-05T12:16:53Z</time>
      </trkpt>
      <trkpt lat="44.32995" lon="9.21301">
        <ele>7.35</ele>
        <time>2019-05-05T12:17:09Z</time>
      </trkpt>
      <trkpt lat="44.33003" lon="9.21295">
        <ele>7.83</ele>
        <time>2019-05-05T12:17:22Z</time>
      </trkpt>
      <trkpt lat="44.33016" lon="9.21289">
        <ele>7.83</ele>
        <time>2019-05-05T12:17:38Z</time>
      </trkpt>
      <trkpt lat="44.33027" lon="9.21285">
        <ele>7.83</ele>
        <time>2019-05-05T12:17:51Z</time>
      </trkpt>
      <trkpt lat="44.33036" lon="9.2128">
        <ele>7.83</ele>
        <time>2019-05-05T12:18:03Z</time>
      </trkpt>
      <trkpt lat="44.33046" lon="9.21279">
        <ele>7.83</ele>
        <time>2019-05-05T12:18:15Z</time>
      </trkpt>
      <trkpt lat="44.33053" lon="9.21275">
        <ele>7.83</ele>
        <time>2019-05-05T12:18:27Z</time>
      </trkpt>
      <trkpt lat="44.33061" lon="9.21271">
        <ele>7.83</ele>
        <time>2019-05-05T12:18:42Z</time>
      </trkpt>
      <trkpt lat="44.33065" lon="9.21272">
        <ele>8.31</ele>
        <time>2019-05-05T12:18:49Z</time>
      </trkpt>
      <trkpt lat="44.33066" lon="9.21274">
        <ele>8.31</ele>
        <time>2019-05-05T12:18:54Z</time>
      </trkpt>
      <trkpt lat="44.33083" lon="9.21287">
        <ele>8.31</ele>
        <time>2019-05-05T12:19:13Z</time>
      </trkpt>
      <trkpt lat="44.33093" lon="9.21294">
        <ele>8.79</ele>
        <time>2019-05-05T12:19:27Z</time>
      </trkpt>
      <trkpt lat="44.33105" lon="9.21302">
        <ele>9.27</ele>
        <time>2019-05-05T12:19:43Z</time>
      </trkpt>
      <trkpt lat="44.33119" lon="9.21312">
        <ele>9.27</ele>
        <time>2019-05-05T12:20:02Z</time>
      </trkpt>
      <trkpt lat="44.33128" lon="9.21325">
        <ele>9.27</ele>
        <time>2019-05-05T12:20:17Z</time>
      </trkpt>
      <trkpt lat="44.33132" lon="9.21326">
        <ele>9.27</ele>
        <time>2019-05-05T12:20:34Z</time>
      </trkpt>
      <trkpt lat="44.33137" lon="9.21333">
        <ele>9.27</ele>
        <time>2019-05-05T12:20:45Z</time>
      </trkpt>
      <trkpt lat="44.33145" lon="9.21347">
        <ele>8.79</ele>
        <time>2019-05-05T12:21:00Z</time>
      </trkpt>
      <trkpt lat="44.33154" lon="9.21359">
        <ele>8.31</ele>
        <time>2019-05-05T12:21:14Z</time>
      </trkpt>
      <trkpt lat="44.33155" lon="9.2136">
        <ele>8.31</ele>
        <time>2019-05-05T12:21:15Z</time>
      </trkpt>
      <trkpt lat="44.33163" lon="9.21368">
        <ele>8.31</ele>
        <time>2019-05-05T12:21:31Z</time>
      </trkpt>
      <trkpt lat="44.33174" lon="9.21382">
        <ele>8.31</ele>
        <time>2019-05-05T12:21:47Z</time>
      </trkpt>
      <trkpt lat="44.33185" lon="9.21399">
        <ele>8.31</ele>
        <time>2019-05-05T12:22:04Z</time>
      </trkpt>
      <trkpt lat="44.33198" lon="9.21412">
        <ele>8.31</ele>
        <time>2019-05-05T12:22:19Z</time>
      </trkpt>
      <trkpt lat="44.33199" lon="9.21413">
        <ele>9.75</ele>
        <time>2019-05-05T12:22:21Z</time>
      </trkpt>
      <trkpt lat="44.33211" lon="9.21425">
        <ele>8.31</ele>
        <time>2019-05-05T12:22:37Z</time>
      </trkpt>
      <trkpt lat="44.33215" lon="9.21426">
        <ele>8.31</ele>
        <time>2019-05-05T12:22:41Z</time>
      </trkpt>
      <trkpt lat="44.33232" lon="9.21423">
        <ele>8.31</ele>
        <time>2019-05-05T12:22:57Z</time>
      </trkpt>
      <trkpt lat="44.33241" lon="9.21423">
        <ele>8.31</ele>
        <time>2019-05-05T12:23:06Z</time>
      </trkpt>
      <trkpt lat="44.3326" lon="9.21418">
        <ele>7.83</ele>
        <time>2019-05-05T12:23:24Z</time>
      </trkpt>
      <trkpt lat="44.33279" lon="9.2141">
        <ele>7.35</ele>
        <time>2019-05-05T12:23:43Z</time>
      </trkpt>
      <trkpt lat="44.33293" lon="9.21406">
        <ele>8.31</ele>
        <time>2019-05-05T12:23:58Z</time>
      </trkpt>
      <trkpt lat="44.33309" lon="9.21404">
        <ele>8.31</ele>
        <time>2019-05-05T12:24:14Z</time>
      </trkpt>
      <trkpt lat="44.33318" lon="9.21406">
        <ele>8.31</ele>
        <time>2019-05-05T12:24:22Z</time>
      </trkpt>
      <trkpt lat="44.33327" lon="9.21405">
        <ele>6.87</ele>
        <time>2019-05-05T12:24:31Z</time>
      </trkpt>
      <trkpt lat="44.3334" lon="9.21404">
        <ele>6.87</ele>
        <time>2019-05-05T12:24:44Z</time>
      </trkpt>
      <trkpt lat="44.33347" lon="9.21395">
        <ele>6.87</ele>
        <time>2019-05-05T12:24:58Z</time>
      </trkpt>
      <trkpt lat="44.3335" lon="9.21392">
        <ele>6.87</ele>
        <time>2019-05-05T12:25:14Z</time>
      </trkpt>
      <trkpt lat="44.33351" lon="9.21393">
        <ele>8.31</ele>
        <time>2019-05-05T12:25:23Z</time>
      </trkpt>
      <trkpt lat="44.33355" lon="9.21379">
        <ele>8.31</ele>
        <time>2019-05-05T12:25:36Z</time>
      </trkpt>
      <trkpt lat="44.33361" lon="9.21369">
        <ele>8.31</ele>
        <time>2019-05-05T12:25:47Z</time>
      </trkpt>
      <trkpt lat="44.33369" lon="9.21361">
        <ele>8.79</ele>
        <time>2019-05-05T12:26:04Z</time>
      </trkpt>
      <trkpt lat="44.3337" lon="9.21362">
        <ele>8.79</ele>
        <time>2019-05-05T12:26:10Z</time>
      </trkpt>
      <trkpt lat="44.33373" lon="9.21364">
        <ele>8.79</ele>
        <time>2019-05-05T12:26:16Z</time>
      </trkpt>
      <trkpt lat="44.33387" lon="9.21365">
        <ele>8.79</ele>
        <time>2019-05-05T12:26:30Z</time>
      </trkpt>
      <trkpt lat="44.33392" lon="9.21371">
        <ele>8.79</ele>
        <time>2019-05-05T12:26:45Z</time>
      </trkpt>
      <trkpt lat="44.33393" lon="9.21368">
        <ele>8.79</ele>
        <time>2019-05-05T12:26:58Z</time>
      </trkpt>
      <trkpt lat="44.33393" lon="9.21368">
        <ele>8.79</ele>
        <time>2019-05-05T12:26:59Z</time>
      </trkpt>
      <trkpt lat="44.33381" lon="9.21356">
        <ele>9.27</ele>
        <time>2019-05-05T12:27:14Z</time>
      </trkpt>
      <trkpt lat="44.33379" lon="9.21346">
        <ele>8.79</ele>
        <time>2019-05-05T12:27:27Z</time>
      </trkpt>
      <trkpt lat="44.33382" lon="9.21335">
        <ele>9.27</ele>
        <time>2019-05-05T12:27:38Z</time>
      </trkpt>
      <trkpt lat="44.33385" lon="9.21327">
        <ele>9.27</ele>
        <time>2019-05-05T12:27:52Z</time>
      </trkpt>
      <trkpt lat="44.33377" lon="9.21303">
        <ele>9.75</ele>
        <time>2019-05-05T12:28:09Z</time>
      </trkpt>
      <trkpt lat="44.33382" lon="9.21303">
        <ele>9.75</ele>
        <time>2019-05-05T12:28:11Z</time>
      </trkpt>
      <trkpt lat="44.33389" lon="9.21304">
        <ele>9.75</ele>
        <time>2019-05-05T12:28:13Z</time>
      </trkpt>
      <trkpt lat="44.33394" lon="9.21304">
        <ele>9.75</ele>
        <time>2019-05-05T12:28:22Z</time>
      </trkpt>
      <trkpt lat="44.33396" lon="9.21299">
        <ele>9.75</ele>
        <time>2019-05-05T12:28:37Z</time>
      </trkpt>
      <trkpt lat="44.33402" lon="9.21299">
        <ele>8.79</ele>
        <time>2019-05-05T12:28:43Z</time>
      </trkpt>
      <trkpt lat="44.33413" lon="9.213">
        <ele>8.79</ele>
        <time>2019-05-05T12:28:50Z</time>
      </trkpt>
      <trkpt lat="44.33417" lon="9.21311">
        <ele>9.27</ele>
        <time>2019-05-05T12:29:04Z</time>
      </trkpt>
      <trkpt lat="44.33431" lon="9.2131">
        <ele>10.23</ele>
        <time>2019-05-05T12:29:10Z</time>
      </trkpt>
      <trkpt lat="44.33454" lon="9.21308">
        <ele>10.71</ele>
        <time>2019-05-05T12:29:20Z</time>
      </trkpt>
      <trkpt lat="44.33458" lon="9.21297">
        <ele>9.75</ele>
        <time>2019-05-05T12:29:32Z</time>
      </trkpt>
      <trkpt lat="44.33467" lon="9.21287">
        <ele>10.23</ele>
        <time>2019-05-05T12:29:44Z</time>
      </trkpt>
      <trkpt lat="44.33463" lon="9.21276">
        <ele>10.71</ele>
        <time>2019-05-05T12:30:00Z</time>
      </trkpt>
      <trkpt lat="44.33466" lon="9.21269">
        <ele>11.67</ele>
        <time>2019-05-05T12:30:22Z</time>
      </trkpt>
      <trkpt lat="44.33469" lon="9.21264">
        <ele>11.19</ele>
        <time>2019-05-05T12:30:34Z</time>
      </trkpt>
      <trkpt lat="44.33474" lon="9.21259">
        <ele>11.67</ele>
        <time>2019-05-05T12:30:51Z</time>
      </trkpt>
      <trkpt lat="44.33474" lon="9.21262">
        <ele>13.6</ele>
        <time>2019-05-05T12:31:14Z</time>
      </trkpt>
      <trkpt lat="44.33471" lon="9.21265">
        <ele>14.56</ele>
        <time>2019-05-05T12:31:37Z</time>
      </trkpt>
      <trkpt lat="44.33472" lon="9.21265">
        <ele>15.04</ele>
        <time>2019-05-05T12:31:51Z</time>
      </trkpt>
      <trkpt lat="44.33499" lon="9.21286">
        <ele>15.52</ele>
        <time>2019-05-05T12:34:57Z</time>
      </trkpt>
      <trkpt lat="44.33496" lon="9.21278">
        <ele>16</ele>
        <time>2019-05-05T12:35:11Z</time>
      </trkpt>
      <trkpt lat="44.33499" lon="9.21274">
        <ele>16</ele>
        <time>2019-05-05T12:35:13Z</time>
      </trkpt>
      <trkpt lat="44.33491" lon="9.21257">
        <ele>16</ele>
        <time>2019-05-05T12:35:29Z</time>
      </trkpt>
      <trkpt lat="44.33489" lon="9.21253">
        <ele>16.48</ele>
        <time>2019-05-05T12:35:40Z</time>
      </trkpt>
      <trkpt lat="44.33498" lon="9.21262">
        <ele>16.96</ele>
        <time>2019-05-05T12:35:51Z</time>
      </trkpt>
      <trkpt lat="44.33495" lon="9.21255">
        <ele>16</ele>
        <time>2019-05-05T12:36:08Z</time>
      </trkpt>
      <trkpt lat="44.33473" lon="9.2125">
        <ele>15.52</ele>
        <time>2019-05-05T12:36:32Z</time>
      </trkpt>
      <trkpt lat="44.33486" lon="9.2126">
        <ele>15.52</ele>
        <time>2019-05-05T12:36:54Z</time>
      </trkpt>
      <trkpt lat="44.33492" lon="9.21274">
        <ele>15.52</ele>
        <time>2019-05-05T12:37:09Z</time>
      </trkpt>
      <trkpt lat="44.33498" lon="9.21284">
        <ele>16</ele>
        <time>2019-05-05T12:37:28Z</time>
      </trkpt>
      <trkpt lat="44.33504" lon="9.21288">
        <ele>16.96</ele>
        <time>2019-05-05T12:37:45Z</time>
      </trkpt>
      <trkpt lat="44.33504" lon="9.21286">
        <ele>17.44</ele>
        <time>2019-05-05T12:38:00Z</time>
      </trkpt>
      <trkpt lat="44.33504" lon="9.21285">
        <ele>17.44</ele>
        <time>2019-05-05T12:38:02Z</time>
      </trkpt>
      <trkpt lat="44.33501" lon="9.2128">
        <ele>17.44</ele>
        <time>2019-05-05T12:38:12Z</time>
      </trkpt>
      <trkpt lat="44.33502" lon="9.21268">
        <ele>17.44</ele>
        <time>2019-05-05T12:38:20Z</time>
      </trkpt>
      <trkpt lat="44.33507" lon="9.21245">
        <ele>17.92</ele>
        <time>2019-05-05T12:38:33Z</time>
      </trkpt>
      <trkpt lat="44.33504" lon="9.21237">
        <ele>17.92</ele>
        <time>2019-05-05T12:38:39Z</time>
      </trkpt>
      <trkpt lat="44.33499" lon="9.21225">
        <ele>18.4</ele>
        <time>2019-05-05T12:38:52Z</time>
      </trkpt>
      <trkpt lat="44.33494" lon="9.21216">
        <ele>18.88</ele>
        <time>2019-05-05T12:39:04Z</time>
      </trkpt>
      <trkpt lat="44.33496" lon="9.21207">
        <ele>18.88</ele>
        <time>2019-05-05T12:39:16Z</time>
      </trkpt>
      <trkpt lat="44.33501" lon="9.21197">
        <ele>19.36</ele>
        <time>2019-05-05T12:39:30Z</time>
      </trkpt>
      <trkpt lat="44.33499" lon="9.21183">
        <ele>18.88</ele>
        <time>2019-05-05T12:39:46Z</time>
      </trkpt>
      <trkpt lat="44.33492" lon="9.21175">
        <ele>18.88</ele>
        <time>2019-05-05T12:40:04Z</time>
      </trkpt>
      <trkpt lat="44.33492" lon="9.21161">
        <ele>18.88</ele>
        <time>2019-05-05T12:40:19Z</time>
      </trkpt>
      <trkpt lat="44.33495" lon="9.21152">
        <ele>18.88</ele>
        <time>2019-05-05T12:40:27Z</time>
      </trkpt>
      <trkpt lat="44.33494" lon="9.21137">
        <ele>18.88</ele>
        <time>2019-05-05T12:40:40Z</time>
      </trkpt>
      <trkpt lat="44.335" lon="9.21129">
        <ele>18.88</ele>
        <time>2019-05-05T12:40:55Z</time>
      </trkpt>
      <trkpt lat="44.33498" lon="9.21134">
        <ele>18.4</ele>
        <time>2019-05-05T12:41:11Z</time>
      </trkpt>
      <trkpt lat="44.33494" lon="9.21145">
        <ele>18.4</ele>
        <time>2019-05-05T12:41:23Z</time>
      </trkpt>
      <trkpt lat="44.33491" lon="9.21151">
        <ele>18.4</ele>
        <time>2019-05-05T12:41:32Z</time>
      </trkpt>
      <trkpt lat="44.33486" lon="9.21157">
        <ele>18.4</ele>
        <time>2019-05-05T12:41:40Z</time>
      </trkpt>
      <trkpt lat="44.3348" lon="9.21166">
        <ele>18.4</ele>
        <time>2019-05-05T12:41:51Z</time>
      </trkpt>
      <trkpt lat="44.3348" lon="9.21166">
        <ele>18.4</ele>
        <time>2019-05-05T12:41:52Z</time>
      </trkpt>
      <trkpt lat="44.3348" lon="9.21177">
        <ele>18.4</ele>
        <time>2019-05-05T12:42:04Z</time>
      </trkpt>
      <trkpt lat="44.33483" lon="9.2118">
        <ele>18.4</ele>
        <time>2019-05-05T12:42:07Z</time>
      </trkpt>
      <trkpt lat="44.33484" lon="9.21191">
        <ele>18.4</ele>
        <time>2019-05-05T12:42:19Z</time>
      </trkpt>
      <trkpt lat="44.33481" lon="9.21195">
        <ele>18.4</ele>
        <time>2019-05-05T12:42:23Z</time>
      </trkpt>
      <trkpt lat="44.33477" lon="9.21209">
        <ele>18.4</ele>
        <time>2019-05-05T12:42:34Z</time>
      </trkpt>
      <trkpt lat="44.33477" lon="9.21215">
        <ele>18.4</ele>
        <time>2019-05-05T12:42:47Z</time>
      </trkpt>
      <trkpt lat="44.33476" lon="9.21227">
        <ele>18.4</ele>
        <time>2019-05-05T12:43:02Z</time>
      </trkpt>
      <trkpt lat="44.33482" lon="9.21236">
        <ele>17.44</ele>
        <time>2019-05-05T12:43:15Z</time>
      </trkpt>
      <trkpt lat="44.33468" lon="9.21245">
        <ele>16.96</ele>
        <time>2019-05-05T12:43:39Z</time>
      </trkpt>
      <trkpt lat="44.33469" lon="9.21247">
        <ele>16.96</ele>
        <time>2019-05-05T12:43:42Z</time>
      </trkpt>
      <trkpt lat="44.33476" lon="9.21255">
        <ele>16.96</ele>
        <time>2019-05-05T12:43:54Z</time>
      </trkpt>
      <trkpt lat="44.33476" lon="9.21259">
        <ele>16.96</ele>
        <time>2019-05-05T12:43:58Z</time>
      </trkpt>
      <trkpt lat="44.33483" lon="9.21263">
        <ele>16.48</ele>
        <time>2019-05-05T12:44:03Z</time>
      </trkpt>
      <trkpt lat="44.33496" lon="9.21269">
        <ele>16</ele>
        <time>2019-05-05T12:44:18Z</time>
      </trkpt>
      <trkpt lat="44.33498" lon="9.21267">
        <ele>15.52</ele>
        <time>2019-05-05T12:44:38Z</time>
      </trkpt>
      <trkpt lat="44.33501" lon="9.21269">
        <ele>15.52</ele>
        <time>2019-05-05T12:44:58Z</time>
      </trkpt>
      <trkpt lat="44.33499" lon="9.21272">
        <ele>15.52</ele>
        <time>2019-05-05T12:45:14Z</time>
      </trkpt>
      <trkpt lat="44.33498" lon="9.21268">
        <ele>16.96</ele>
        <time>2019-05-05T12:45:28Z</time>
      </trkpt>
      <trkpt lat="44.33503" lon="9.21278">
        <ele>17.92</ele>
        <time>2019-05-05T12:45:53Z</time>
      </trkpt>
      <trkpt lat="44.33516" lon="9.21287">
        <ele>19.36</ele>
        <time>2019-05-05T12:46:18Z</time>
      </trkpt>
      <trkpt lat="44.33519" lon="9.21294">
        <ele>19.36</ele>
        <time>2019-05-05T12:46:38Z</time>
      </trkpt>
      <trkpt lat="44.33518" lon="9.21293">
        <ele>19.84</ele>
        <time>2019-05-05T12:46:52Z</time>
      </trkpt>
      <trkpt lat="44.33515" lon="9.21311">
        <ele>19.84</ele>
        <time>2019-05-05T12:46:59Z</time>
      </trkpt>
      <trkpt lat="44.33515" lon="9.21324">
        <ele>19.84</ele>
        <time>2019-05-05T12:47:12Z</time>
      </trkpt>
      <trkpt lat="44.33511" lon="9.21331">
        <ele>20.32</ele>
        <time>2019-05-05T12:47:22Z</time>
      </trkpt>
      <trkpt lat="44.33481" lon="9.2134">
        <ele>18.88</ele>
        <time>2019-05-05T12:47:35Z</time>
      </trkpt>
      <trkpt lat="44.33478" lon="9.21349">
        <ele>18.88</ele>
        <time>2019-05-05T12:47:44Z</time>
      </trkpt>
      <trkpt lat="44.33479" lon="9.21361">
        <ele>19.36</ele>
        <time>2019-05-05T12:47:57Z</time>
      </trkpt>
      <trkpt lat="44.33482" lon="9.21369">
        <ele>19.36</ele>
        <time>2019-05-05T12:48:09Z</time>
      </trkpt>
      <trkpt lat="44.33476" lon="9.21369">
        <ele>19.36</ele>
        <time>2019-05-05T12:48:18Z</time>
      </trkpt>
      <trkpt lat="44.33468" lon="9.21373">
        <ele>18.4</ele>
        <time>2019-05-05T12:48:34Z</time>
      </trkpt>
      <trkpt lat="44.33475" lon="9.21385">
        <ele>18.4</ele>
        <time>2019-05-05T12:48:47Z</time>
      </trkpt>
      <trkpt lat="44.3347" lon="9.21389">
        <ele>18.4</ele>
        <time>2019-05-05T12:49:00Z</time>
      </trkpt>
      <trkpt lat="44.33468" lon="9.21392">
        <ele>19.84</ele>
        <time>2019-05-05T12:49:12Z</time>
      </trkpt>
      <trkpt lat="44.33461" lon="9.21394">
        <ele>22.25</ele>
        <time>2019-05-05T12:49:24Z</time>
      </trkpt>
      <trkpt lat="44.33459" lon="9.21394">
        <ele>20.32</ele>
        <time>2019-05-05T12:49:27Z</time>
      </trkpt>
      <trkpt lat="44.33448" lon="9.21403">
        <ele>19.84</ele>
        <time>2019-05-05T12:49:44Z</time>
      </trkpt>
      <trkpt lat="44.33436" lon="9.21405">
        <ele>19.36</ele>
        <time>2019-05-05T12:49:58Z</time>
      </trkpt>
      <trkpt lat="44.33426" lon="9.214">
        <ele>18.4</ele>
        <time>2019-05-05T12:50:13Z</time>
      </trkpt>
      <trkpt lat="44.33421" lon="9.214">
        <ele>17.92</ele>
        <time>2019-05-05T12:50:29Z</time>
      </trkpt>
      <trkpt lat="44.33419" lon="9.21401">
        <ele>17.92</ele>
        <time>2019-05-05T12:50:53Z</time>
      </trkpt>
      <trkpt lat="44.33417" lon="9.21402">
        <ele>17.44</ele>
        <time>2019-05-05T12:51:14Z</time>
      </trkpt>
      <trkpt lat="44.33417" lon="9.214">
        <ele>16.48</ele>
        <time>2019-05-05T12:51:34Z</time>
      </trkpt>
      <trkpt lat="44.33417" lon="9.21395">
        <ele>16.48</ele>
        <time>2019-05-05T12:51:49Z</time>
      </trkpt>
      <trkpt lat="44.33414" lon="9.21392">
        <ele>16.48</ele>
        <time>2019-05-05T12:52:10Z</time>
      </trkpt>
      <trkpt lat="44.33412" lon="9.21386">
        <ele>16</ele>
        <time>2019-05-05T12:52:20Z</time>
      </trkpt>
      <trkpt lat="44.33407" lon="9.21383">
        <ele>16</ele>
        <time>2019-05-05T12:52:33Z</time>
      </trkpt>
      <trkpt lat="44.33407" lon="9.21385">
        <ele>15.04</ele>
        <time>2019-05-05T12:52:49Z</time>
      </trkpt>
      <trkpt lat="44.33408" lon="9.21392">
        <ele>16.48</ele>
        <time>2019-05-05T12:53:02Z</time>
      </trkpt>
      <trkpt lat="44.33409" lon="9.21395">
        <ele>16</ele>
        <time>2019-05-05T12:53:17Z</time>
      </trkpt>
      <trkpt lat="44.33409" lon="9.21395">
        <ele>16</ele>
        <time>2019-05-05T12:53:18Z</time>
      </trkpt>
      <trkpt lat="44.33412" lon="9.21395">
        <ele>16</ele>
        <time>2019-05-05T12:53:43Z</time>
      </trkpt>
      <trkpt lat="44.33415" lon="9.214">
        <ele>16.48</ele>
        <time>2019-05-05T12:54:08Z</time>
      </trkpt>
      <trkpt lat="44.33419" lon="9.21401">
        <ele>16.48</ele>
        <time>2019-05-05T12:54:23Z</time>
      </trkpt>
      <trkpt lat="44.33419" lon="9.21401">
        <ele>16.48</ele>
        <time>2019-05-05T12:54:44Z</time>
      </trkpt>
      <trkpt lat="44.33418" lon="9.21394">
        <ele>16</ele>
        <time>2019-05-05T12:54:58Z</time>
      </trkpt>
      <trkpt lat="44.33422" lon="9.21392">
        <ele>16</ele>
        <time>2019-05-05T12:55:19Z</time>
      </trkpt>
      <trkpt lat="44.33433" lon="9.21381">
        <ele>16</ele>
        <time>2019-05-05T12:55:36Z</time>
      </trkpt>
      <trkpt lat="44.33438" lon="9.21375">
        <ele>16</ele>
        <time>2019-05-05T12:55:46Z</time>
      </trkpt>
      <trkpt lat="44.33443" lon="9.2137">
        <ele>15.52</ele>
        <time>2019-05-05T12:56:02Z</time>
      </trkpt>
      <trkpt lat="44.33447" lon="9.21368">
        <ele>14.56</ele>
        <time>2019-05-05T12:56:20Z</time>
      </trkpt>
      <trkpt lat="44.33452" lon="9.21366">
        <ele>14.56</ele>
        <time>2019-05-05T12:56:31Z</time>
      </trkpt>
      <trkpt lat="44.33462" lon="9.21377">
        <ele>14.56</ele>
        <time>2019-05-05T12:56:43Z</time>
      </trkpt>
      <trkpt lat="44.33472" lon="9.21388">
        <ele>14.08</ele>
        <time>2019-05-05T12:56:56Z</time>
      </trkpt>
      <trkpt lat="44.33481" lon="9.21406">
        <ele>14.08</ele>
        <time>2019-05-05T12:57:10Z</time>
      </trkpt>
      <trkpt lat="44.33497" lon="9.21421">
        <ele>14.08</ele>
        <time>2019-05-05T12:57:26Z</time>
      </trkpt>
      <trkpt lat="44.33502" lon="9.21424">
        <ele>14.08</ele>
        <time>2019-05-05T12:57:30Z</time>
      </trkpt>
      <trkpt lat="44.33515" lon="9.21439">
        <ele>14.08</ele>
        <time>2019-05-05T12:57:46Z</time>
      </trkpt>
      <trkpt lat="44.33529" lon="9.21454">
        <ele>12.63</ele>
        <time>2019-05-05T12:58:00Z</time>
      </trkpt>
      <trkpt lat="44.33532" lon="9.21457">
        <ele>12.63</ele>
        <time>2019-05-05T12:58:04Z</time>
      </trkpt>
      <trkpt lat="44.33544" lon="9.2147">
        <ele>12.63</ele>
        <time>2019-05-05T12:58:19Z</time>
      </trkpt>
      <trkpt lat="44.33556" lon="9.21484">
        <ele>12.15</ele>
        <time>2019-05-05T12:58:32Z</time>
      </trkpt>
      <trkpt lat="44.33566" lon="9.215">
        <ele>14.08</ele>
        <time>2019-05-05T12:58:46Z</time>
      </trkpt>
      <trkpt lat="44.33568" lon="9.21503">
        <ele>14.08</ele>
        <time>2019-05-05T12:58:49Z</time>
      </trkpt>
      <trkpt lat="44.3357" lon="9.21519">
        <ele>13.6</ele>
        <time>2019-05-05T12:59:03Z</time>
      </trkpt>
      <trkpt lat="44.3357" lon="9.21521">
        <ele>14.08</ele>
        <time>2019-05-05T12:59:04Z</time>
      </trkpt>
      <trkpt lat="44.33575" lon="9.21544">
        <ele>14.56</ele>
        <time>2019-05-05T12:59:20Z</time>
      </trkpt>
      <trkpt lat="44.33581" lon="9.21551">
        <ele>14.56</ele>
        <time>2019-05-05T12:59:26Z</time>
      </trkpt>
      <trkpt lat="44.3359" lon="9.21557">
        <ele>15.04</ele>
        <time>2019-05-05T12:59:38Z</time>
      </trkpt>
      <trkpt lat="44.3359" lon="9.21558">
        <ele>15.04</ele>
        <time>2019-05-05T12:59:39Z</time>
      </trkpt>
      <trkpt lat="44.33597" lon="9.21559">
        <ele>15.04</ele>
        <time>2019-05-05T12:59:50Z</time>
      </trkpt>
      <trkpt lat="44.33606" lon="9.21555">
        <ele>15.52</ele>
        <time>2019-05-05T13:00:02Z</time>
      </trkpt>
      <trkpt lat="44.33609" lon="9.21555">
        <ele>15.52</ele>
        <time>2019-05-05T13:00:05Z</time>
      </trkpt>
      <trkpt lat="44.33622" lon="9.2156">
        <ele>17.44</ele>
        <time>2019-05-05T13:00:20Z</time>
      </trkpt>
      <trkpt lat="44.33624" lon="9.21562">
        <ele>18.88</ele>
        <time>2019-05-05T13:00:33Z</time>
      </trkpt>
      <trkpt lat="44.33627" lon="9.21564">
        <ele>20.81</ele>
        <time>2019-05-05T13:00:38Z</time>
      </trkpt>
      <trkpt lat="44.33622" lon="9.21571">
        <ele>24.65</ele>
        <time>2019-05-05T13:00:53Z</time>
      </trkpt>
      <trkpt lat="44.33619" lon="9.21579">
        <ele>27.05</ele>
        <time>2019-05-05T13:01:07Z</time>
      </trkpt>
      <trkpt lat="44.33615" lon="9.21582">
        <ele>30.9</ele>
        <time>2019-05-05T13:01:20Z</time>
      </trkpt>
      <trkpt lat="44.33615" lon="9.21584">
        <ele>31.38</ele>
        <time>2019-05-05T13:01:23Z</time>
      </trkpt>
      <trkpt lat="44.3362" lon="9.21602">
        <ele>30.42</ele>
        <time>2019-05-05T13:01:31Z</time>
      </trkpt>
      <trkpt lat="44.33622" lon="9.21606">
        <ele>31.86</ele>
        <time>2019-05-05T13:01:34Z</time>
      </trkpt>
      <trkpt lat="44.33625" lon="9.21608">
        <ele>31.86</ele>
        <time>2019-05-05T13:01:36Z</time>
      </trkpt>
      <trkpt lat="44.33633" lon="9.21622">
        <ele>31.86</ele>
        <time>2019-05-05T13:01:50Z</time>
      </trkpt>
      <trkpt lat="44.3363" lon="9.21625">
        <ele>31.86</ele>
        <time>2019-05-05T13:01:58Z</time>
      </trkpt>
      <trkpt lat="44.33623" lon="9.2163">
        <ele>32.34</ele>
        <time>2019-05-05T13:02:13Z</time>
      </trkpt>
      <trkpt lat="44.33616" lon="9.21647">
        <ele>32.34</ele>
        <time>2019-05-05T13:02:31Z</time>
      </trkpt>
      <trkpt lat="44.33617" lon="9.21651">
        <ele>32.34</ele>
        <time>2019-05-05T13:02:32Z</time>
      </trkpt>
      <trkpt lat="44.33624" lon="9.21674">
        <ele>32.82</ele>
        <time>2019-05-05T13:02:44Z</time>
      </trkpt>
      <trkpt lat="44.33624" lon="9.21678">
        <ele>31.38</ele>
        <time>2019-05-05T13:02:48Z</time>
      </trkpt>
      <trkpt lat="44.33625" lon="9.21687">
        <ele>28.02</ele>
        <time>2019-05-05T13:02:59Z</time>
      </trkpt>
      <trkpt lat="44.33632" lon="9.21694">
        <ele>28.02</ele>
        <time>2019-05-05T13:03:16Z</time>
      </trkpt>
      <trkpt lat="44.33633" lon="9.21695">
        <ele>29.46</ele>
        <time>2019-05-05T13:03:18Z</time>
      </trkpt>
      <trkpt lat="44.33655" lon="9.2169">
        <ele>31.86</ele>
        <time>2019-05-05T13:03:31Z</time>
      </trkpt>
      <trkpt lat="44.33659" lon="9.21677">
        <ele>32.34</ele>
        <time>2019-05-05T13:03:40Z</time>
      </trkpt>
      <trkpt lat="44.33658" lon="9.2166">
        <ele>32.82</ele>
        <time>2019-05-05T13:03:54Z</time>
      </trkpt>
      <trkpt lat="44.33656" lon="9.2165">
        <ele>34.26</ele>
        <time>2019-05-05T13:04:12Z</time>
      </trkpt>
      <trkpt lat="44.33662" lon="9.21645">
        <ele>33.78</ele>
        <time>2019-05-05T13:04:38Z</time>
      </trkpt>
    </trkseg>
  </trk>
</gpx>